<?xml version="1.0" encoding="UTF-8" standalone="no" ?>
<gpx xmlns="http://www.topografix.com/GPX/1/1" xmlns:xsi="http://www.w3.org/2001/XMLSchema-instance" xsi:schemaLocation="http://www.topografix.com/GPX/1/1 http://www.topografix.com/GPX/1/1/gpx.xsd" version="1.1" creator="VisuGPX - https://www.visugpx.com">
  <metadata>
    <name>Initia-trail v13-01-07</name>
    <desc><![CDATA[Parcours Initia-trail v13-01-07   tour de chauffe]]></desc>
  </metadata>
  <trk>
    <name><![CDATA[exercise]]></name>
    <trkseg>
      <trkpt lat="45.8507" lon="3.54459">
        <ele>313.2</ele>
        <time>2013-03-10T09:46:02Z</time>
      </trkpt>
      <trkpt lat="45.85074" lon="3.54458">
        <ele>313</ele>
        <time>2013-03-10T09:46:04Z</time>
      </trkpt>
      <trkpt lat="45.85079" lon="3.54457">
        <ele>312.7</ele>
        <time>2013-03-10T09:46:06Z</time>
      </trkpt>
      <trkpt lat="45.85084" lon="3.54455">
        <ele>312.4</ele>
        <time>2013-03-10T09:46:08Z</time>
      </trkpt>
      <trkpt lat="45.85089" lon="3.54454">
        <ele>312.3</ele>
        <time>2013-03-10T09:46:10Z</time>
      </trkpt>
      <trkpt lat="45.85094" lon="3.54453">
        <ele>312.2</ele>
        <time>2013-03-10T09:46:12Z</time>
      </trkpt>
      <trkpt lat="45.85098" lon="3.54452">
        <ele>312.1</ele>
        <time>2013-03-10T09:46:14Z</time>
      </trkpt>
      <trkpt lat="45.85102" lon="3.5445">
        <ele>312.1</ele>
        <time>2013-03-10T09:46:16Z</time>
      </trkpt>
      <trkpt lat="45.85106" lon="3.54447">
        <ele>312</ele>
        <time>2013-03-10T09:46:18Z</time>
      </trkpt>
      <trkpt lat="45.85108" lon="3.54446">
        <ele>312</ele>
        <time>2013-03-10T09:46:20Z</time>
      </trkpt>
      <trkpt lat="45.85113" lon="3.54438">
        <ele>311.9</ele>
        <time>2013-03-10T09:46:22Z</time>
      </trkpt>
      <trkpt lat="45.85115" lon="3.54433">
        <ele>311.9</ele>
        <time>2013-03-10T09:46:24Z</time>
      </trkpt>
      <trkpt lat="45.85118" lon="3.54428">
        <ele>311.8</ele>
        <time>2013-03-10T09:46:26Z</time>
      </trkpt>
      <trkpt lat="45.8512" lon="3.54423">
        <ele>311.7</ele>
        <time>2013-03-10T09:46:28Z</time>
      </trkpt>
      <trkpt lat="45.85122" lon="3.54417">
        <ele>311.6</ele>
        <time>2013-03-10T09:46:30Z</time>
      </trkpt>
      <trkpt lat="45.85125" lon="3.54411">
        <ele>311.4</ele>
        <time>2013-03-10T09:46:32Z</time>
      </trkpt>
      <trkpt lat="45.85127" lon="3.54405">
        <ele>311.3</ele>
        <time>2013-03-10T09:46:34Z</time>
      </trkpt>
      <trkpt lat="45.85129" lon="3.54399">
        <ele>311.1</ele>
        <time>2013-03-10T09:46:36Z</time>
      </trkpt>
      <trkpt lat="45.85131" lon="3.54394">
        <ele>311.1</ele>
        <time>2013-03-10T09:46:38Z</time>
      </trkpt>
      <trkpt lat="45.85132" lon="3.54389">
        <ele>311</ele>
        <time>2013-03-10T09:46:40Z</time>
      </trkpt>
      <trkpt lat="45.85132" lon="3.54382">
        <ele>310.8</ele>
        <time>2013-03-10T09:46:42Z</time>
      </trkpt>
      <trkpt lat="45.85132" lon="3.54376">
        <ele>310.6</ele>
        <time>2013-03-10T09:46:44Z</time>
      </trkpt>
      <trkpt lat="45.85131" lon="3.54369">
        <ele>310.5</ele>
        <time>2013-03-10T09:46:46Z</time>
      </trkpt>
      <trkpt lat="45.85132" lon="3.54363">
        <ele>310.3</ele>
        <time>2013-03-10T09:46:48Z</time>
      </trkpt>
      <trkpt lat="45.85132" lon="3.54357">
        <ele>310.3</ele>
        <time>2013-03-10T09:46:50Z</time>
      </trkpt>
      <trkpt lat="45.85132" lon="3.54347">
        <ele>310.2</ele>
        <time>2013-03-10T09:46:52Z</time>
      </trkpt>
      <trkpt lat="45.85132" lon="3.54341">
        <ele>310.3</ele>
        <time>2013-03-10T09:46:54Z</time>
      </trkpt>
      <trkpt lat="45.85132" lon="3.54335">
        <ele>310.3</ele>
        <time>2013-03-10T09:46:56Z</time>
      </trkpt>
      <trkpt lat="45.85132" lon="3.54328">
        <ele>310.2</ele>
        <time>2013-03-10T09:46:58Z</time>
      </trkpt>
      <trkpt lat="45.85132" lon="3.54322">
        <ele>310.2</ele>
        <time>2013-03-10T09:47:00Z</time>
      </trkpt>
      <trkpt lat="45.85132" lon="3.54316">
        <ele>310.3</ele>
        <time>2013-03-10T09:47:02Z</time>
      </trkpt>
      <trkpt lat="45.85132" lon="3.54309">
        <ele>310.2</ele>
        <time>2013-03-10T09:47:04Z</time>
      </trkpt>
      <trkpt lat="45.85133" lon="3.54303">
        <ele>310.1</ele>
        <time>2013-03-10T09:47:06Z</time>
      </trkpt>
      <trkpt lat="45.85133" lon="3.54298">
        <ele>309.9</ele>
        <time>2013-03-10T09:47:08Z</time>
      </trkpt>
      <trkpt lat="45.85133" lon="3.54291">
        <ele>309.7</ele>
        <time>2013-03-10T09:47:10Z</time>
      </trkpt>
      <trkpt lat="45.85133" lon="3.54285">
        <ele>309.5</ele>
        <time>2013-03-10T09:47:12Z</time>
      </trkpt>
      <trkpt lat="45.85133" lon="3.54282">
        <ele>309.4</ele>
        <time>2013-03-10T09:47:14Z</time>
      </trkpt>
      <trkpt lat="45.85134" lon="3.54276">
        <ele>309.2</ele>
        <time>2013-03-10T09:47:16Z</time>
      </trkpt>
      <trkpt lat="45.85134" lon="3.5427">
        <ele>309.2</ele>
        <time>2013-03-10T09:47:18Z</time>
      </trkpt>
      <trkpt lat="45.85134" lon="3.54263">
        <ele>309.2</ele>
        <time>2013-03-10T09:47:20Z</time>
      </trkpt>
      <trkpt lat="45.85133" lon="3.54257">
        <ele>309.2</ele>
        <time>2013-03-10T09:47:22Z</time>
      </trkpt>
      <trkpt lat="45.85133" lon="3.5425">
        <ele>309.2</ele>
        <time>2013-03-10T09:47:24Z</time>
      </trkpt>
      <trkpt lat="45.85133" lon="3.54243">
        <ele>309.2</ele>
        <time>2013-03-10T09:47:26Z</time>
      </trkpt>
      <trkpt lat="45.85133" lon="3.54236">
        <ele>309.2</ele>
        <time>2013-03-10T09:47:28Z</time>
      </trkpt>
      <trkpt lat="45.85134" lon="3.54229">
        <ele>309.2</ele>
        <time>2013-03-10T09:47:30Z</time>
      </trkpt>
      <trkpt lat="45.85135" lon="3.54222">
        <ele>309.2</ele>
        <time>2013-03-10T09:47:32Z</time>
      </trkpt>
      <trkpt lat="45.85136" lon="3.54215">
        <ele>309.1</ele>
        <time>2013-03-10T09:47:34Z</time>
      </trkpt>
      <trkpt lat="45.85137" lon="3.54209">
        <ele>309</ele>
        <time>2013-03-10T09:47:36Z</time>
      </trkpt>
      <trkpt lat="45.85138" lon="3.54202">
        <ele>309</ele>
        <time>2013-03-10T09:47:38Z</time>
      </trkpt>
      <trkpt lat="45.85138" lon="3.54197">
        <ele>309</ele>
        <time>2013-03-10T09:47:40Z</time>
      </trkpt>
      <trkpt lat="45.85138" lon="3.54191">
        <ele>309</ele>
        <time>2013-03-10T09:47:42Z</time>
      </trkpt>
      <trkpt lat="45.85138" lon="3.54185">
        <ele>309</ele>
        <time>2013-03-10T09:47:44Z</time>
      </trkpt>
      <trkpt lat="45.85138" lon="3.54179">
        <ele>309</ele>
        <time>2013-03-10T09:47:46Z</time>
      </trkpt>
      <trkpt lat="45.85137" lon="3.54173">
        <ele>309</ele>
        <time>2013-03-10T09:47:48Z</time>
      </trkpt>
      <trkpt lat="45.85136" lon="3.54167">
        <ele>309</ele>
        <time>2013-03-10T09:47:50Z</time>
      </trkpt>
      <trkpt lat="45.85136" lon="3.54162">
        <ele>309</ele>
        <time>2013-03-10T09:47:52Z</time>
      </trkpt>
      <trkpt lat="45.85137" lon="3.54155">
        <ele>309</ele>
        <time>2013-03-10T09:47:54Z</time>
      </trkpt>
      <trkpt lat="45.85137" lon="3.54149">
        <ele>309</ele>
        <time>2013-03-10T09:47:56Z</time>
      </trkpt>
      <trkpt lat="45.85136" lon="3.54142">
        <ele>309</ele>
        <time>2013-03-10T09:47:58Z</time>
      </trkpt>
      <trkpt lat="45.85135" lon="3.54136">
        <ele>308.9</ele>
        <time>2013-03-10T09:48:00Z</time>
      </trkpt>
      <trkpt lat="45.85135" lon="3.54129">
        <ele>308.6</ele>
        <time>2013-03-10T09:48:02Z</time>
      </trkpt>
      <trkpt lat="45.85133" lon="3.54123">
        <ele>308.4</ele>
        <time>2013-03-10T09:48:04Z</time>
      </trkpt>
      <trkpt lat="45.85132" lon="3.54115">
        <ele>308.2</ele>
        <time>2013-03-10T09:48:06Z</time>
      </trkpt>
      <trkpt lat="45.85131" lon="3.5411">
        <ele>308.1</ele>
        <time>2013-03-10T09:48:08Z</time>
      </trkpt>
      <trkpt lat="45.85128" lon="3.54101">
        <ele>308.4</ele>
        <time>2013-03-10T09:48:10Z</time>
      </trkpt>
      <trkpt lat="45.85128" lon="3.54094">
        <ele>308.6</ele>
        <time>2013-03-10T09:48:12Z</time>
      </trkpt>
      <trkpt lat="45.85129" lon="3.54087">
        <ele>308.9</ele>
        <time>2013-03-10T09:48:14Z</time>
      </trkpt>
      <trkpt lat="45.85128" lon="3.54081">
        <ele>309</ele>
        <time>2013-03-10T09:48:16Z</time>
      </trkpt>
      <trkpt lat="45.85127" lon="3.54074">
        <ele>308.8</ele>
        <time>2013-03-10T09:48:18Z</time>
      </trkpt>
      <trkpt lat="45.85125" lon="3.54067">
        <ele>308.7</ele>
        <time>2013-03-10T09:48:20Z</time>
      </trkpt>
      <trkpt lat="45.85123" lon="3.54062">
        <ele>308.5</ele>
        <time>2013-03-10T09:48:22Z</time>
      </trkpt>
      <trkpt lat="45.85122" lon="3.54055">
        <ele>308.4</ele>
        <time>2013-03-10T09:48:24Z</time>
      </trkpt>
      <trkpt lat="45.8512" lon="3.5405">
        <ele>308.3</ele>
        <time>2013-03-10T09:48:26Z</time>
      </trkpt>
      <trkpt lat="45.85115" lon="3.54044">
        <ele>308.2</ele>
        <time>2013-03-10T09:48:28Z</time>
      </trkpt>
      <trkpt lat="45.85113" lon="3.54042">
        <ele>308.1</ele>
        <time>2013-03-10T09:48:30Z</time>
      </trkpt>
      <trkpt lat="45.8511" lon="3.54036">
        <ele>308</ele>
        <time>2013-03-10T09:48:32Z</time>
      </trkpt>
      <trkpt lat="45.85108" lon="3.54029">
        <ele>308</ele>
        <time>2013-03-10T09:48:34Z</time>
      </trkpt>
      <trkpt lat="45.85104" lon="3.54024">
        <ele>308.1</ele>
        <time>2013-03-10T09:48:36Z</time>
      </trkpt>
      <trkpt lat="45.85101" lon="3.54018">
        <ele>308.2</ele>
        <time>2013-03-10T09:48:38Z</time>
      </trkpt>
      <trkpt lat="45.851" lon="3.54012">
        <ele>308.3</ele>
        <time>2013-03-10T09:48:40Z</time>
      </trkpt>
      <trkpt lat="45.85096" lon="3.54007">
        <ele>308.4</ele>
        <time>2013-03-10T09:48:42Z</time>
      </trkpt>
      <trkpt lat="45.85094" lon="3.54002">
        <ele>308.3</ele>
        <time>2013-03-10T09:48:44Z</time>
      </trkpt>
      <trkpt lat="45.85089" lon="3.53997">
        <ele>308.2</ele>
        <time>2013-03-10T09:48:46Z</time>
      </trkpt>
      <trkpt lat="45.85083" lon="3.53992">
        <ele>308</ele>
        <time>2013-03-10T09:48:48Z</time>
      </trkpt>
      <trkpt lat="45.85078" lon="3.53987">
        <ele>308.1</ele>
        <time>2013-03-10T09:48:50Z</time>
      </trkpt>
      <trkpt lat="45.85074" lon="3.53983">
        <ele>308.1</ele>
        <time>2013-03-10T09:48:52Z</time>
      </trkpt>
      <trkpt lat="45.8507" lon="3.53979">
        <ele>308.1</ele>
        <time>2013-03-10T09:48:54Z</time>
      </trkpt>
      <trkpt lat="45.85067" lon="3.53974">
        <ele>308</ele>
        <time>2013-03-10T09:48:56Z</time>
      </trkpt>
      <trkpt lat="45.85064" lon="3.53969">
        <ele>308</ele>
        <time>2013-03-10T09:48:58Z</time>
      </trkpt>
      <trkpt lat="45.85062" lon="3.53965">
        <ele>308.1</ele>
        <time>2013-03-10T09:49:00Z</time>
      </trkpt>
      <trkpt lat="45.8506" lon="3.5396">
        <ele>308.1</ele>
        <time>2013-03-10T09:49:02Z</time>
      </trkpt>
      <trkpt lat="45.85057" lon="3.53955">
        <ele>308</ele>
        <time>2013-03-10T09:49:04Z</time>
      </trkpt>
      <trkpt lat="45.85054" lon="3.5395">
        <ele>308</ele>
        <time>2013-03-10T09:49:06Z</time>
      </trkpt>
      <trkpt lat="45.8505" lon="3.53946">
        <ele>308</ele>
        <time>2013-03-10T09:49:08Z</time>
      </trkpt>
      <trkpt lat="45.85048" lon="3.53942">
        <ele>308.1</ele>
        <time>2013-03-10T09:49:10Z</time>
      </trkpt>
      <trkpt lat="45.85045" lon="3.53937">
        <ele>308.2</ele>
        <time>2013-03-10T09:49:12Z</time>
      </trkpt>
      <trkpt lat="45.85042" lon="3.53932">
        <ele>308.2</ele>
        <time>2013-03-10T09:49:14Z</time>
      </trkpt>
      <trkpt lat="45.85037" lon="3.53927">
        <ele>308.2</ele>
        <time>2013-03-10T09:49:16Z</time>
      </trkpt>
      <trkpt lat="45.85033" lon="3.53922">
        <ele>308.1</ele>
        <time>2013-03-10T09:49:18Z</time>
      </trkpt>
      <trkpt lat="45.85028" lon="3.53919">
        <ele>308</ele>
        <time>2013-03-10T09:49:20Z</time>
      </trkpt>
      <trkpt lat="45.85022" lon="3.5392">
        <ele>308.2</ele>
        <time>2013-03-10T09:49:22Z</time>
      </trkpt>
      <trkpt lat="45.85018" lon="3.5392">
        <ele>308.3</ele>
        <time>2013-03-10T09:49:24Z</time>
      </trkpt>
      <trkpt lat="45.85013" lon="3.53922">
        <ele>308.5</ele>
        <time>2013-03-10T09:49:26Z</time>
      </trkpt>
      <trkpt lat="45.85005" lon="3.5392">
        <ele>308.8</ele>
        <time>2013-03-10T09:49:28Z</time>
      </trkpt>
      <trkpt lat="45.85" lon="3.5392">
        <ele>309</ele>
        <time>2013-03-10T09:49:30Z</time>
      </trkpt>
      <trkpt lat="45.84995" lon="3.5392">
        <ele>309.2</ele>
        <time>2013-03-10T09:49:32Z</time>
      </trkpt>
      <trkpt lat="45.84991" lon="3.5392">
        <ele>309.3</ele>
        <time>2013-03-10T09:49:34Z</time>
      </trkpt>
      <trkpt lat="45.84987" lon="3.5392">
        <ele>309.5</ele>
        <time>2013-03-10T09:49:36Z</time>
      </trkpt>
      <trkpt lat="45.84983" lon="3.53917">
        <ele>309.6</ele>
        <time>2013-03-10T09:49:38Z</time>
      </trkpt>
      <trkpt lat="45.84979" lon="3.53915">
        <ele>309.8</ele>
        <time>2013-03-10T09:49:40Z</time>
      </trkpt>
      <trkpt lat="45.84975" lon="3.53912">
        <ele>309.9</ele>
        <time>2013-03-10T09:49:42Z</time>
      </trkpt>
      <trkpt lat="45.84971" lon="3.53911">
        <ele>310.1</ele>
        <time>2013-03-10T09:49:44Z</time>
      </trkpt>
      <trkpt lat="45.84966" lon="3.5391">
        <ele>310.2</ele>
        <time>2013-03-10T09:49:46Z</time>
      </trkpt>
      <trkpt lat="45.84963" lon="3.5391">
        <ele>310.3</ele>
        <time>2013-03-10T09:49:48Z</time>
      </trkpt>
      <trkpt lat="45.84959" lon="3.53908">
        <ele>310.5</ele>
        <time>2013-03-10T09:49:50Z</time>
      </trkpt>
      <trkpt lat="45.84954" lon="3.53906">
        <ele>310.6</ele>
        <time>2013-03-10T09:49:52Z</time>
      </trkpt>
      <trkpt lat="45.8495" lon="3.53905">
        <ele>310.8</ele>
        <time>2013-03-10T09:49:54Z</time>
      </trkpt>
      <trkpt lat="45.84945" lon="3.53904">
        <ele>311</ele>
        <time>2013-03-10T09:49:56Z</time>
      </trkpt>
      <trkpt lat="45.84941" lon="3.53903">
        <ele>311</ele>
        <time>2013-03-10T09:49:58Z</time>
      </trkpt>
      <trkpt lat="45.84936" lon="3.53902">
        <ele>311</ele>
        <time>2013-03-10T09:50:00Z</time>
      </trkpt>
      <trkpt lat="45.84931" lon="3.53901">
        <ele>311</ele>
        <time>2013-03-10T09:50:02Z</time>
      </trkpt>
      <trkpt lat="45.84927" lon="3.539">
        <ele>311</ele>
        <time>2013-03-10T09:50:04Z</time>
      </trkpt>
      <trkpt lat="45.84922" lon="3.539">
        <ele>311</ele>
        <time>2013-03-10T09:50:06Z</time>
      </trkpt>
      <trkpt lat="45.84918" lon="3.53899">
        <ele>311</ele>
        <time>2013-03-10T09:50:08Z</time>
      </trkpt>
      <trkpt lat="45.84913" lon="3.53899">
        <ele>311.1</ele>
        <time>2013-03-10T09:50:10Z</time>
      </trkpt>
      <trkpt lat="45.84909" lon="3.53899">
        <ele>311.3</ele>
        <time>2013-03-10T09:50:12Z</time>
      </trkpt>
      <trkpt lat="45.84904" lon="3.53899">
        <ele>311.4</ele>
        <time>2013-03-10T09:50:14Z</time>
      </trkpt>
      <trkpt lat="45.849" lon="3.53899">
        <ele>311.6</ele>
        <time>2013-03-10T09:50:16Z</time>
      </trkpt>
      <trkpt lat="45.84895" lon="3.53898">
        <ele>311.8</ele>
        <time>2013-03-10T09:50:18Z</time>
      </trkpt>
      <trkpt lat="45.84891" lon="3.53898">
        <ele>311.9</ele>
        <time>2013-03-10T09:50:20Z</time>
      </trkpt>
      <trkpt lat="45.84887" lon="3.53899">
        <ele>312.2</ele>
        <time>2013-03-10T09:50:22Z</time>
      </trkpt>
      <trkpt lat="45.84882" lon="3.53901">
        <ele>312.5</ele>
        <time>2013-03-10T09:50:24Z</time>
      </trkpt>
      <trkpt lat="45.84879" lon="3.53904">
        <ele>312.7</ele>
        <time>2013-03-10T09:50:26Z</time>
      </trkpt>
      <trkpt lat="45.84877" lon="3.53906">
        <ele>312.9</ele>
        <time>2013-03-10T09:50:28Z</time>
      </trkpt>
      <trkpt lat="45.84874" lon="3.5391">
        <ele>313</ele>
        <time>2013-03-10T09:50:30Z</time>
      </trkpt>
      <trkpt lat="45.84873" lon="3.53916">
        <ele>313.2</ele>
        <time>2013-03-10T09:50:32Z</time>
      </trkpt>
      <trkpt lat="45.84872" lon="3.53921">
        <ele>313.3</ele>
        <time>2013-03-10T09:50:34Z</time>
      </trkpt>
      <trkpt lat="45.84871" lon="3.53928">
        <ele>313.3</ele>
        <time>2013-03-10T09:50:36Z</time>
      </trkpt>
      <trkpt lat="45.84872" lon="3.53934">
        <ele>313.2</ele>
        <time>2013-03-10T09:50:38Z</time>
      </trkpt>
      <trkpt lat="45.84872" lon="3.5394">
        <ele>313.2</ele>
        <time>2013-03-10T09:50:40Z</time>
      </trkpt>
      <trkpt lat="45.84872" lon="3.53946">
        <ele>313.2</ele>
        <time>2013-03-10T09:50:42Z</time>
      </trkpt>
      <trkpt lat="45.84871" lon="3.53951">
        <ele>313.1</ele>
        <time>2013-03-10T09:50:44Z</time>
      </trkpt>
      <trkpt lat="45.84871" lon="3.53958">
        <ele>313</ele>
        <time>2013-03-10T09:50:46Z</time>
      </trkpt>
      <trkpt lat="45.84871" lon="3.53963">
        <ele>312.8</ele>
        <time>2013-03-10T09:50:48Z</time>
      </trkpt>
      <trkpt lat="45.84871" lon="3.53967">
        <ele>312.7</ele>
        <time>2013-03-10T09:50:50Z</time>
      </trkpt>
      <trkpt lat="45.84872" lon="3.53971">
        <ele>312.6</ele>
        <time>2013-03-10T09:50:52Z</time>
      </trkpt>
      <trkpt lat="45.84872" lon="3.53976">
        <ele>312.7</ele>
        <time>2013-03-10T09:50:54Z</time>
      </trkpt>
      <trkpt lat="45.84872" lon="3.53981">
        <ele>312.7</ele>
        <time>2013-03-10T09:50:56Z</time>
      </trkpt>
      <trkpt lat="45.84873" lon="3.53986">
        <ele>312.8</ele>
        <time>2013-03-10T09:50:58Z</time>
      </trkpt>
      <trkpt lat="45.84873" lon="3.53992">
        <ele>312.9</ele>
        <time>2013-03-10T09:51:00Z</time>
      </trkpt>
      <trkpt lat="45.84874" lon="3.53998">
        <ele>313</ele>
        <time>2013-03-10T09:51:02Z</time>
      </trkpt>
      <trkpt lat="45.84874" lon="3.54">
        <ele>313</ele>
        <time>2013-03-10T09:51:04Z</time>
      </trkpt>
      <trkpt lat="45.84875" lon="3.54006">
        <ele>313</ele>
        <time>2013-03-10T09:51:06Z</time>
      </trkpt>
      <trkpt lat="45.84876" lon="3.54012">
        <ele>313</ele>
        <time>2013-03-10T09:51:08Z</time>
      </trkpt>
      <trkpt lat="45.84877" lon="3.54017">
        <ele>313</ele>
        <time>2013-03-10T09:51:10Z</time>
      </trkpt>
      <trkpt lat="45.84878" lon="3.54023">
        <ele>313</ele>
        <time>2013-03-10T09:51:12Z</time>
      </trkpt>
      <trkpt lat="45.8488" lon="3.54029">
        <ele>313</ele>
        <time>2013-03-10T09:51:14Z</time>
      </trkpt>
      <trkpt lat="45.84882" lon="3.54035">
        <ele>313.2</ele>
        <time>2013-03-10T09:51:16Z</time>
      </trkpt>
      <trkpt lat="45.84884" lon="3.54041">
        <ele>313.4</ele>
        <time>2013-03-10T09:51:18Z</time>
      </trkpt>
      <trkpt lat="45.84886" lon="3.54046">
        <ele>313.6</ele>
        <time>2013-03-10T09:51:20Z</time>
      </trkpt>
      <trkpt lat="45.84888" lon="3.54052">
        <ele>313.8</ele>
        <time>2013-03-10T09:51:22Z</time>
      </trkpt>
      <trkpt lat="45.84891" lon="3.54057">
        <ele>313.9</ele>
        <time>2013-03-10T09:51:24Z</time>
      </trkpt>
      <trkpt lat="45.84892" lon="3.54063">
        <ele>313.8</ele>
        <time>2013-03-10T09:51:26Z</time>
      </trkpt>
      <trkpt lat="45.84894" lon="3.54069">
        <ele>313.6</ele>
        <time>2013-03-10T09:51:28Z</time>
      </trkpt>
      <trkpt lat="45.84896" lon="3.54075">
        <ele>313.5</ele>
        <time>2013-03-10T09:51:30Z</time>
      </trkpt>
      <trkpt lat="45.84898" lon="3.54081">
        <ele>313.4</ele>
        <time>2013-03-10T09:51:32Z</time>
      </trkpt>
      <trkpt lat="45.849" lon="3.54088">
        <ele>313.3</ele>
        <time>2013-03-10T09:51:34Z</time>
      </trkpt>
      <trkpt lat="45.84902" lon="3.54094">
        <ele>313.3</ele>
        <time>2013-03-10T09:51:36Z</time>
      </trkpt>
      <trkpt lat="45.84903" lon="3.541">
        <ele>313.3</ele>
        <time>2013-03-10T09:51:38Z</time>
      </trkpt>
      <trkpt lat="45.84904" lon="3.54106">
        <ele>313.3</ele>
        <time>2013-03-10T09:51:40Z</time>
      </trkpt>
      <trkpt lat="45.84906" lon="3.54113">
        <ele>313.4</ele>
        <time>2013-03-10T09:51:42Z</time>
      </trkpt>
      <trkpt lat="45.84907" lon="3.54119">
        <ele>313.4</ele>
        <time>2013-03-10T09:51:44Z</time>
      </trkpt>
      <trkpt lat="45.84907" lon="3.54126">
        <ele>313.3</ele>
        <time>2013-03-10T09:51:46Z</time>
      </trkpt>
      <trkpt lat="45.84909" lon="3.54132">
        <ele>313.3</ele>
        <time>2013-03-10T09:51:48Z</time>
      </trkpt>
      <trkpt lat="45.84909" lon="3.54139">
        <ele>313.3</ele>
        <time>2013-03-10T09:51:50Z</time>
      </trkpt>
      <trkpt lat="45.8491" lon="3.54145">
        <ele>313.3</ele>
        <time>2013-03-10T09:51:52Z</time>
      </trkpt>
      <trkpt lat="45.8491" lon="3.54151">
        <ele>313.2</ele>
        <time>2013-03-10T09:51:54Z</time>
      </trkpt>
      <trkpt lat="45.84911" lon="3.54158">
        <ele>313.2</ele>
        <time>2013-03-10T09:51:56Z</time>
      </trkpt>
      <trkpt lat="45.84911" lon="3.54165">
        <ele>313.2</ele>
        <time>2013-03-10T09:51:58Z</time>
      </trkpt>
      <trkpt lat="45.84911" lon="3.54171">
        <ele>313.2</ele>
        <time>2013-03-10T09:52:00Z</time>
      </trkpt>
      <trkpt lat="45.84912" lon="3.54178">
        <ele>313.2</ele>
        <time>2013-03-10T09:52:02Z</time>
      </trkpt>
      <trkpt lat="45.84912" lon="3.54188">
        <ele>313.2</ele>
        <time>2013-03-10T09:52:04Z</time>
      </trkpt>
      <trkpt lat="45.84913" lon="3.54195">
        <ele>313.1</ele>
        <time>2013-03-10T09:52:06Z</time>
      </trkpt>
      <trkpt lat="45.84914" lon="3.54202">
        <ele>313.1</ele>
        <time>2013-03-10T09:52:08Z</time>
      </trkpt>
      <trkpt lat="45.84915" lon="3.54209">
        <ele>313.1</ele>
        <time>2013-03-10T09:52:10Z</time>
      </trkpt>
      <trkpt lat="45.84915" lon="3.54216">
        <ele>313.1</ele>
        <time>2013-03-10T09:52:12Z</time>
      </trkpt>
      <trkpt lat="45.84916" lon="3.54223">
        <ele>313</ele>
        <time>2013-03-10T09:52:14Z</time>
      </trkpt>
      <trkpt lat="45.84916" lon="3.54229">
        <ele>313</ele>
        <time>2013-03-10T09:52:16Z</time>
      </trkpt>
      <trkpt lat="45.84917" lon="3.54235">
        <ele>313</ele>
        <time>2013-03-10T09:52:18Z</time>
      </trkpt>
      <trkpt lat="45.84918" lon="3.54242">
        <ele>313</ele>
        <time>2013-03-10T09:52:20Z</time>
      </trkpt>
      <trkpt lat="45.84918" lon="3.54245">
        <ele>313</ele>
        <time>2013-03-10T09:52:22Z</time>
      </trkpt>
      <trkpt lat="45.84919" lon="3.54253">
        <ele>312.9</ele>
        <time>2013-03-10T09:52:24Z</time>
      </trkpt>
      <trkpt lat="45.8492" lon="3.54259">
        <ele>312.9</ele>
        <time>2013-03-10T09:52:26Z</time>
      </trkpt>
      <trkpt lat="45.8492" lon="3.54266">
        <ele>312.9</ele>
        <time>2013-03-10T09:52:28Z</time>
      </trkpt>
      <trkpt lat="45.84921" lon="3.54274">
        <ele>312.9</ele>
        <time>2013-03-10T09:52:30Z</time>
      </trkpt>
      <trkpt lat="45.84922" lon="3.54281">
        <ele>312.8</ele>
        <time>2013-03-10T09:52:32Z</time>
      </trkpt>
      <trkpt lat="45.84923" lon="3.54287">
        <ele>312.9</ele>
        <time>2013-03-10T09:52:34Z</time>
      </trkpt>
      <trkpt lat="45.84923" lon="3.54293">
        <ele>312.9</ele>
        <time>2013-03-10T09:52:36Z</time>
      </trkpt>
      <trkpt lat="45.84924" lon="3.543">
        <ele>313</ele>
        <time>2013-03-10T09:52:38Z</time>
      </trkpt>
      <trkpt lat="45.84924" lon="3.54307">
        <ele>313</ele>
        <time>2013-03-10T09:52:40Z</time>
      </trkpt>
      <trkpt lat="45.84925" lon="3.54314">
        <ele>313</ele>
        <time>2013-03-10T09:52:42Z</time>
      </trkpt>
      <trkpt lat="45.84925" lon="3.54321">
        <ele>313</ele>
        <time>2013-03-10T09:52:44Z</time>
      </trkpt>
      <trkpt lat="45.84926" lon="3.54327">
        <ele>313</ele>
        <time>2013-03-10T09:52:46Z</time>
      </trkpt>
      <trkpt lat="45.84927" lon="3.54335">
        <ele>313</ele>
        <time>2013-03-10T09:52:48Z</time>
      </trkpt>
      <trkpt lat="45.84927" lon="3.54341">
        <ele>313.2</ele>
        <time>2013-03-10T09:52:50Z</time>
      </trkpt>
      <trkpt lat="45.84928" lon="3.54348">
        <ele>313.3</ele>
        <time>2013-03-10T09:52:52Z</time>
      </trkpt>
      <trkpt lat="45.84928" lon="3.54354">
        <ele>313.4</ele>
        <time>2013-03-10T09:52:54Z</time>
      </trkpt>
      <trkpt lat="45.84929" lon="3.54361">
        <ele>313.5</ele>
        <time>2013-03-10T09:52:56Z</time>
      </trkpt>
      <trkpt lat="45.8493" lon="3.54367">
        <ele>313.6</ele>
        <time>2013-03-10T09:52:58Z</time>
      </trkpt>
      <trkpt lat="45.84931" lon="3.54373">
        <ele>313.7</ele>
        <time>2013-03-10T09:53:00Z</time>
      </trkpt>
      <trkpt lat="45.84931" lon="3.5438">
        <ele>313.8</ele>
        <time>2013-03-10T09:53:02Z</time>
      </trkpt>
      <trkpt lat="45.84931" lon="3.54386">
        <ele>313.9</ele>
        <time>2013-03-10T09:53:04Z</time>
      </trkpt>
      <trkpt lat="45.84932" lon="3.54392">
        <ele>314</ele>
        <time>2013-03-10T09:53:06Z</time>
      </trkpt>
      <trkpt lat="45.84933" lon="3.54398">
        <ele>314.2</ele>
        <time>2013-03-10T09:53:08Z</time>
      </trkpt>
      <trkpt lat="45.84934" lon="3.54404">
        <ele>314.3</ele>
        <time>2013-03-10T09:53:10Z</time>
      </trkpt>
      <trkpt lat="45.84935" lon="3.5441">
        <ele>314.5</ele>
        <time>2013-03-10T09:53:12Z</time>
      </trkpt>
      <trkpt lat="45.84935" lon="3.54417">
        <ele>314.7</ele>
        <time>2013-03-10T09:53:14Z</time>
      </trkpt>
      <trkpt lat="45.84936" lon="3.54423">
        <ele>314.9</ele>
        <time>2013-03-10T09:53:16Z</time>
      </trkpt>
      <trkpt lat="45.84937" lon="3.54429">
        <ele>315</ele>
        <time>2013-03-10T09:53:18Z</time>
      </trkpt>
      <trkpt lat="45.84938" lon="3.54436">
        <ele>315.2</ele>
        <time>2013-03-10T09:53:20Z</time>
      </trkpt>
      <trkpt lat="45.8494" lon="3.54446">
        <ele>315.5</ele>
        <time>2013-03-10T09:53:22Z</time>
      </trkpt>
      <trkpt lat="45.84942" lon="3.54452">
        <ele>315.9</ele>
        <time>2013-03-10T09:53:24Z</time>
      </trkpt>
      <trkpt lat="45.84946" lon="3.54456">
        <ele>316.2</ele>
        <time>2013-03-10T09:53:26Z</time>
      </trkpt>
      <trkpt lat="45.8495" lon="3.54459">
        <ele>316.3</ele>
        <time>2013-03-10T09:53:28Z</time>
      </trkpt>
      <trkpt lat="45.84953" lon="3.54462">
        <ele>316.4</ele>
        <time>2013-03-10T09:53:30Z</time>
      </trkpt>
      <trkpt lat="45.84958" lon="3.54463">
        <ele>316.2</ele>
        <time>2013-03-10T09:53:32Z</time>
      </trkpt>
      <trkpt lat="45.84963" lon="3.54464">
        <ele>316</ele>
        <time>2013-03-10T09:53:34Z</time>
      </trkpt>
      <trkpt lat="45.84967" lon="3.54465">
        <ele>315.8</ele>
        <time>2013-03-10T09:53:36Z</time>
      </trkpt>
      <trkpt lat="45.84969" lon="3.54465">
        <ele>315.7</ele>
        <time>2013-03-10T09:53:38Z</time>
      </trkpt>
      <trkpt lat="45.84974" lon="3.54466">
        <ele>315.5</ele>
        <time>2013-03-10T09:53:40Z</time>
      </trkpt>
      <trkpt lat="45.84979" lon="3.54466">
        <ele>315.4</ele>
        <time>2013-03-10T09:53:42Z</time>
      </trkpt>
      <trkpt lat="45.84983" lon="3.54467">
        <ele>315.3</ele>
        <time>2013-03-10T09:53:44Z</time>
      </trkpt>
      <trkpt lat="45.84988" lon="3.54468">
        <ele>315.2</ele>
        <time>2013-03-10T09:53:46Z</time>
      </trkpt>
      <trkpt lat="45.84993" lon="3.54468">
        <ele>315.1</ele>
        <time>2013-03-10T09:53:48Z</time>
      </trkpt>
      <trkpt lat="45.84998" lon="3.54468">
        <ele>314.9</ele>
        <time>2013-03-10T09:53:50Z</time>
      </trkpt>
      <trkpt lat="45.85003" lon="3.54467">
        <ele>314.8</ele>
        <time>2013-03-10T09:53:52Z</time>
      </trkpt>
      <trkpt lat="45.85007" lon="3.54466">
        <ele>314.7</ele>
        <time>2013-03-10T09:53:54Z</time>
      </trkpt>
      <trkpt lat="45.85012" lon="3.54465">
        <ele>314.6</ele>
        <time>2013-03-10T09:53:56Z</time>
      </trkpt>
      <trkpt lat="45.85017" lon="3.54464">
        <ele>314.5</ele>
        <time>2013-03-10T09:53:58Z</time>
      </trkpt>
      <trkpt lat="45.85022" lon="3.54463">
        <ele>314.4</ele>
        <time>2013-03-10T09:54:00Z</time>
      </trkpt>
      <trkpt lat="45.85027" lon="3.54462">
        <ele>314.3</ele>
        <time>2013-03-10T09:54:02Z</time>
      </trkpt>
      <trkpt lat="45.85031" lon="3.54461">
        <ele>314.2</ele>
        <time>2013-03-10T09:54:04Z</time>
      </trkpt>
      <trkpt lat="45.85035" lon="3.54461">
        <ele>314.2</ele>
        <time>2013-03-10T09:54:06Z</time>
      </trkpt>
      <trkpt lat="45.8504" lon="3.54462">
        <ele>314.3</ele>
        <time>2013-03-10T09:54:08Z</time>
      </trkpt>
      <trkpt lat="45.85045" lon="3.54461">
        <ele>314.2</ele>
        <time>2013-03-10T09:54:10Z</time>
      </trkpt>
      <trkpt lat="45.8505" lon="3.5446">
        <ele>314.1</ele>
        <time>2013-03-10T09:54:12Z</time>
      </trkpt>
      <trkpt lat="45.85055" lon="3.54459">
        <ele>314</ele>
        <time>2013-03-10T09:54:14Z</time>
      </trkpt>
      <trkpt lat="45.8506" lon="3.54456">
        <ele>313.7</ele>
        <time>2013-03-10T09:54:16Z</time>
      </trkpt>
      <trkpt lat="45.85064" lon="3.54455">
        <ele>313.3</ele>
        <time>2013-03-10T09:54:18Z</time>
      </trkpt>
      <trkpt lat="45.85069" lon="3.54454">
        <ele>313.1</ele>
        <time>2013-03-10T09:54:20Z</time>
      </trkpt>
      <trkpt lat="45.85074" lon="3.54453">
        <ele>312.7</ele>
        <time>2013-03-10T09:54:22Z</time>
      </trkpt>
      <trkpt lat="45.85079" lon="3.54451">
        <ele>312.5</ele>
        <time>2013-03-10T09:54:24Z</time>
      </trkpt>
      <trkpt lat="45.85084" lon="3.54451">
        <ele>312.2</ele>
        <time>2013-03-10T09:54:26Z</time>
      </trkpt>
      <trkpt lat="45.8509" lon="3.5445">
        <ele>312.1</ele>
        <time>2013-03-10T09:54:28Z</time>
      </trkpt>
      <trkpt lat="45.85095" lon="3.54448">
        <ele>312.1</ele>
        <time>2013-03-10T09:54:30Z</time>
      </trkpt>
      <trkpt lat="45.851" lon="3.54445">
        <ele>312</ele>
        <time>2013-03-10T09:54:32Z</time>
      </trkpt>
      <trkpt lat="45.85104" lon="3.54443">
        <ele>312</ele>
        <time>2013-03-10T09:54:34Z</time>
      </trkpt>
      <trkpt lat="45.85109" lon="3.54439">
        <ele>312</ele>
        <time>2013-03-10T09:54:36Z</time>
      </trkpt>
      <trkpt lat="45.85114" lon="3.54431">
        <ele>311.9</ele>
        <time>2013-03-10T09:54:38Z</time>
      </trkpt>
      <trkpt lat="45.85118" lon="3.54426">
        <ele>311.8</ele>
        <time>2013-03-10T09:54:40Z</time>
      </trkpt>
      <trkpt lat="45.85121" lon="3.54421">
        <ele>311.6</ele>
        <time>2013-03-10T09:54:42Z</time>
      </trkpt>
      <trkpt lat="45.85125" lon="3.54416">
        <ele>311.5</ele>
        <time>2013-03-10T09:54:44Z</time>
      </trkpt>
      <trkpt lat="45.85128" lon="3.54411">
        <ele>311.3</ele>
        <time>2013-03-10T09:54:46Z</time>
      </trkpt>
      <trkpt lat="45.85131" lon="3.54408">
        <ele>311.2</ele>
        <time>2013-03-10T09:54:48Z</time>
      </trkpt>
      <trkpt lat="45.85135" lon="3.54411">
        <ele>311.1</ele>
        <time>2013-03-10T09:54:50Z</time>
      </trkpt>
      <trkpt lat="45.8514" lon="3.54415">
        <ele>310.9</ele>
        <time>2013-03-10T09:54:52Z</time>
      </trkpt>
      <trkpt lat="45.85144" lon="3.5442">
        <ele>310.8</ele>
        <time>2013-03-10T09:54:54Z</time>
      </trkpt>
      <trkpt lat="45.85146" lon="3.54421">
        <ele>310.8</ele>
        <time>2013-03-10T09:54:56Z</time>
      </trkpt>
      <trkpt lat="45.8515" lon="3.54423">
        <ele>310.7</ele>
        <time>2013-03-10T09:54:58Z</time>
      </trkpt>
      <trkpt lat="45.85154" lon="3.54428">
        <ele>310.7</ele>
        <time>2013-03-10T09:55:00Z</time>
      </trkpt>
      <trkpt lat="45.85158" lon="3.54435">
        <ele>310.8</ele>
        <time>2013-03-10T09:55:02Z</time>
      </trkpt>
      <trkpt lat="45.85161" lon="3.54441">
        <ele>310.9</ele>
        <time>2013-03-10T09:55:04Z</time>
      </trkpt>
      <trkpt lat="45.85164" lon="3.54447">
        <ele>311</ele>
        <time>2013-03-10T09:55:06Z</time>
      </trkpt>
      <trkpt lat="45.85165" lon="3.54455">
        <ele>311</ele>
        <time>2013-03-10T09:55:08Z</time>
      </trkpt>
      <trkpt lat="45.85165" lon="3.54463">
        <ele>311</ele>
        <time>2013-03-10T09:55:10Z</time>
      </trkpt>
      <trkpt lat="45.85165" lon="3.5447">
        <ele>311</ele>
        <time>2013-03-10T09:55:12Z</time>
      </trkpt>
      <trkpt lat="45.85164" lon="3.54477">
        <ele>310.7</ele>
        <time>2013-03-10T09:55:14Z</time>
      </trkpt>
      <trkpt lat="45.85163" lon="3.54484">
        <ele>310.2</ele>
        <time>2013-03-10T09:55:16Z</time>
      </trkpt>
      <trkpt lat="45.85164" lon="3.54491">
        <ele>309.6</ele>
        <time>2013-03-10T09:55:18Z</time>
      </trkpt>
      <trkpt lat="45.85166" lon="3.54498">
        <ele>309.1</ele>
        <time>2013-03-10T09:55:20Z</time>
      </trkpt>
      <trkpt lat="45.85168" lon="3.54504">
        <ele>310.1</ele>
        <time>2013-03-10T09:55:22Z</time>
      </trkpt>
      <trkpt lat="45.8517" lon="3.54511">
        <ele>311.8</ele>
        <time>2013-03-10T09:55:24Z</time>
      </trkpt>
      <trkpt lat="45.85169" lon="3.54517">
        <ele>313</ele>
        <time>2013-03-10T09:55:26Z</time>
      </trkpt>
      <trkpt lat="45.85165" lon="3.54522">
        <ele>313.4</ele>
        <time>2013-03-10T09:55:28Z</time>
      </trkpt>
      <trkpt lat="45.8516" lon="3.54527">
        <ele>313.4</ele>
        <time>2013-03-10T09:55:30Z</time>
      </trkpt>
      <trkpt lat="45.85156" lon="3.54531">
        <ele>314</ele>
        <time>2013-03-10T09:55:32Z</time>
      </trkpt>
      <trkpt lat="45.85152" lon="3.54535">
        <ele>314.3</ele>
        <time>2013-03-10T09:55:34Z</time>
      </trkpt>
      <trkpt lat="45.85149" lon="3.54541">
        <ele>314.9</ele>
        <time>2013-03-10T09:55:36Z</time>
      </trkpt>
      <trkpt lat="45.85146" lon="3.54547">
        <ele>315.5</ele>
        <time>2013-03-10T09:55:38Z</time>
      </trkpt>
      <trkpt lat="45.85144" lon="3.54552">
        <ele>316</ele>
        <time>2013-03-10T09:55:40Z</time>
      </trkpt>
      <trkpt lat="45.85144" lon="3.54556">
        <ele>316.7</ele>
        <time>2013-03-10T09:55:42Z</time>
      </trkpt>
      <trkpt lat="45.85142" lon="3.54561">
        <ele>317.1</ele>
        <time>2013-03-10T09:55:44Z</time>
      </trkpt>
      <trkpt lat="45.85141" lon="3.54565">
        <ele>318</ele>
        <time>2013-03-10T09:55:46Z</time>
      </trkpt>
      <trkpt lat="45.8514" lon="3.54571">
        <ele>319.2</ele>
        <time>2013-03-10T09:55:48Z</time>
      </trkpt>
      <trkpt lat="45.8514" lon="3.54576">
        <ele>320.6</ele>
        <time>2013-03-10T09:55:50Z</time>
      </trkpt>
      <trkpt lat="45.85139" lon="3.5458">
        <ele>321.4</ele>
        <time>2013-03-10T09:55:52Z</time>
      </trkpt>
      <trkpt lat="45.85138" lon="3.54585">
        <ele>322.5</ele>
        <time>2013-03-10T09:55:54Z</time>
      </trkpt>
      <trkpt lat="45.85135" lon="3.54593">
        <ele>324.4</ele>
        <time>2013-03-10T09:55:56Z</time>
      </trkpt>
      <trkpt lat="45.85135" lon="3.54598">
        <ele>325.8</ele>
        <time>2013-03-10T09:55:58Z</time>
      </trkpt>
      <trkpt lat="45.85133" lon="3.54602">
        <ele>326.4</ele>
        <time>2013-03-10T09:56:00Z</time>
      </trkpt>
      <trkpt lat="45.85131" lon="3.54607">
        <ele>327.3</ele>
        <time>2013-03-10T09:56:02Z</time>
      </trkpt>
      <trkpt lat="45.85129" lon="3.54614">
        <ele>327.1</ele>
        <time>2013-03-10T09:56:04Z</time>
      </trkpt>
      <trkpt lat="45.85128" lon="3.5462">
        <ele>326.4</ele>
        <time>2013-03-10T09:56:06Z</time>
      </trkpt>
      <trkpt lat="45.85127" lon="3.54626">
        <ele>326.2</ele>
        <time>2013-03-10T09:56:08Z</time>
      </trkpt>
      <trkpt lat="45.85127" lon="3.54629">
        <ele>326.3</ele>
        <time>2013-03-10T09:56:10Z</time>
      </trkpt>
      <trkpt lat="45.85126" lon="3.54632">
        <ele>326</ele>
        <time>2013-03-10T09:56:12Z</time>
      </trkpt>
      <trkpt lat="45.85127" lon="3.54633">
        <ele>326.2</ele>
        <time>2013-03-10T09:56:14Z</time>
      </trkpt>
      <trkpt lat="45.85126" lon="3.54631">
        <ele>326</ele>
        <time>2013-03-10T09:56:16Z</time>
      </trkpt>
      <trkpt lat="45.85127" lon="3.5463">
        <ele>326.2</ele>
        <time>2013-03-10T09:56:18Z</time>
      </trkpt>
      <trkpt lat="45.85127" lon="3.54628">
        <ele>326.4</ele>
        <time>2013-03-10T09:56:20Z</time>
      </trkpt>
      <trkpt lat="45.85128" lon="3.54626">
        <ele>326.7</ele>
        <time>2013-03-10T09:56:22Z</time>
      </trkpt>
      <trkpt lat="45.85128" lon="3.54623">
        <ele>327</ele>
        <time>2013-03-10T09:56:24Z</time>
      </trkpt>
      <trkpt lat="45.85129" lon="3.54621">
        <ele>327.3</ele>
        <time>2013-03-10T09:56:26Z</time>
      </trkpt>
      <trkpt lat="45.8513" lon="3.54618">
        <ele>327.6</ele>
        <time>2013-03-10T09:56:28Z</time>
      </trkpt>
      <trkpt lat="45.8513" lon="3.54616">
        <ele>327.8</ele>
        <time>2013-03-10T09:56:30Z</time>
      </trkpt>
      <trkpt lat="45.85131" lon="3.54615">
        <ele>328.6</ele>
        <time>2013-03-10T09:56:32Z</time>
      </trkpt>
      <trkpt lat="45.85132" lon="3.54617">
        <ele>329.4</ele>
        <time>2013-03-10T09:56:34Z</time>
      </trkpt>
      <trkpt lat="45.85132" lon="3.5462">
        <ele>329.3</ele>
        <time>2013-03-10T09:56:36Z</time>
      </trkpt>
      <trkpt lat="45.85132" lon="3.54624">
        <ele>329.7</ele>
        <time>2013-03-10T09:56:38Z</time>
      </trkpt>
      <trkpt lat="45.85133" lon="3.54627">
        <ele>330.1</ele>
        <time>2013-03-10T09:56:40Z</time>
      </trkpt>
      <trkpt lat="45.85133" lon="3.5463">
        <ele>330.6</ele>
        <time>2013-03-10T09:56:42Z</time>
      </trkpt>
      <trkpt lat="45.85133" lon="3.54633">
        <ele>330.9</ele>
        <time>2013-03-10T09:56:44Z</time>
      </trkpt>
      <trkpt lat="45.85134" lon="3.54637">
        <ele>331.2</ele>
        <time>2013-03-10T09:56:46Z</time>
      </trkpt>
      <trkpt lat="45.85133" lon="3.5464">
        <ele>330.9</ele>
        <time>2013-03-10T09:56:48Z</time>
      </trkpt>
      <trkpt lat="45.85134" lon="3.54642">
        <ele>330.9</ele>
        <time>2013-03-10T09:56:50Z</time>
      </trkpt>
      <trkpt lat="45.85136" lon="3.54643">
        <ele>331.5</ele>
        <time>2013-03-10T09:56:52Z</time>
      </trkpt>
      <trkpt lat="45.85137" lon="3.54645">
        <ele>332.2</ele>
        <time>2013-03-10T09:56:54Z</time>
      </trkpt>
      <trkpt lat="45.85139" lon="3.54645">
        <ele>333.1</ele>
        <time>2013-03-10T09:56:56Z</time>
      </trkpt>
      <trkpt lat="45.85142" lon="3.54647">
        <ele>333.9</ele>
        <time>2013-03-10T09:56:58Z</time>
      </trkpt>
      <trkpt lat="45.85146" lon="3.54651">
        <ele>334.3</ele>
        <time>2013-03-10T09:57:00Z</time>
      </trkpt>
      <trkpt lat="45.85148" lon="3.54656">
        <ele>334.4</ele>
        <time>2013-03-10T09:57:02Z</time>
      </trkpt>
      <trkpt lat="45.8515" lon="3.54661">
        <ele>333.8</ele>
        <time>2013-03-10T09:57:04Z</time>
      </trkpt>
      <trkpt lat="45.85152" lon="3.54669">
        <ele>333.4</ele>
        <time>2013-03-10T09:57:06Z</time>
      </trkpt>
      <trkpt lat="45.85153" lon="3.54677">
        <ele>332.6</ele>
        <time>2013-03-10T09:57:08Z</time>
      </trkpt>
      <trkpt lat="45.85152" lon="3.54684">
        <ele>331.2</ele>
        <time>2013-03-10T09:57:10Z</time>
      </trkpt>
      <trkpt lat="45.85151" lon="3.54692">
        <ele>330.2</ele>
        <time>2013-03-10T09:57:12Z</time>
      </trkpt>
      <trkpt lat="45.85149" lon="3.54702">
        <ele>328.9</ele>
        <time>2013-03-10T09:57:14Z</time>
      </trkpt>
      <trkpt lat="45.85147" lon="3.54708">
        <ele>328.2</ele>
        <time>2013-03-10T09:57:16Z</time>
      </trkpt>
      <trkpt lat="45.85144" lon="3.54715">
        <ele>327.1</ele>
        <time>2013-03-10T09:57:18Z</time>
      </trkpt>
      <trkpt lat="45.85141" lon="3.5472">
        <ele>326.1</ele>
        <time>2013-03-10T09:57:20Z</time>
      </trkpt>
      <trkpt lat="45.85139" lon="3.54726">
        <ele>325.9</ele>
        <time>2013-03-10T09:57:22Z</time>
      </trkpt>
      <trkpt lat="45.85136" lon="3.54731">
        <ele>325.8</ele>
        <time>2013-03-10T09:57:24Z</time>
      </trkpt>
      <trkpt lat="45.85134" lon="3.54737">
        <ele>326.5</ele>
        <time>2013-03-10T09:57:26Z</time>
      </trkpt>
      <trkpt lat="45.85133" lon="3.54743">
        <ele>327.4</ele>
        <time>2013-03-10T09:57:28Z</time>
      </trkpt>
      <trkpt lat="45.85133" lon="3.54749">
        <ele>328.7</ele>
        <time>2013-03-10T09:57:30Z</time>
      </trkpt>
      <trkpt lat="45.85132" lon="3.54756">
        <ele>329</ele>
        <time>2013-03-10T09:57:32Z</time>
      </trkpt>
      <trkpt lat="45.8513" lon="3.54758">
        <ele>328.8</ele>
        <time>2013-03-10T09:57:34Z</time>
      </trkpt>
      <trkpt lat="45.85127" lon="3.54764">
        <ele>328.5</ele>
        <time>2013-03-10T09:57:36Z</time>
      </trkpt>
      <trkpt lat="45.85124" lon="3.5477">
        <ele>328</ele>
        <time>2013-03-10T09:57:38Z</time>
      </trkpt>
      <trkpt lat="45.85121" lon="3.54775">
        <ele>327.4</ele>
        <time>2013-03-10T09:57:40Z</time>
      </trkpt>
      <trkpt lat="45.85118" lon="3.5478">
        <ele>327.1</ele>
        <time>2013-03-10T09:57:42Z</time>
      </trkpt>
      <trkpt lat="45.85116" lon="3.54786">
        <ele>327.6</ele>
        <time>2013-03-10T09:57:44Z</time>
      </trkpt>
      <trkpt lat="45.85113" lon="3.54791">
        <ele>328</ele>
        <time>2013-03-10T09:57:46Z</time>
      </trkpt>
      <trkpt lat="45.85111" lon="3.54797">
        <ele>328.3</ele>
        <time>2013-03-10T09:57:48Z</time>
      </trkpt>
      <trkpt lat="45.85108" lon="3.54802">
        <ele>328.9</ele>
        <time>2013-03-10T09:57:50Z</time>
      </trkpt>
      <trkpt lat="45.85105" lon="3.54808">
        <ele>329.7</ele>
        <time>2013-03-10T09:57:52Z</time>
      </trkpt>
      <trkpt lat="45.85102" lon="3.54811">
        <ele>329.7</ele>
        <time>2013-03-10T09:57:54Z</time>
      </trkpt>
      <trkpt lat="45.85097" lon="3.54808">
        <ele>326.2</ele>
        <time>2013-03-10T09:57:56Z</time>
      </trkpt>
      <trkpt lat="45.85092" lon="3.54805">
        <ele>322.8</ele>
        <time>2013-03-10T09:57:58Z</time>
      </trkpt>
      <trkpt lat="45.85088" lon="3.54804">
        <ele>320.7</ele>
        <time>2013-03-10T09:58:00Z</time>
      </trkpt>
      <trkpt lat="45.85083" lon="3.54803">
        <ele>319.2</ele>
        <time>2013-03-10T09:58:02Z</time>
      </trkpt>
      <trkpt lat="45.85078" lon="3.54802">
        <ele>320.7</ele>
        <time>2013-03-10T09:58:04Z</time>
      </trkpt>
      <trkpt lat="45.85073" lon="3.54801">
        <ele>322.4</ele>
        <time>2013-03-10T09:58:06Z</time>
      </trkpt>
      <trkpt lat="45.85069" lon="3.548">
        <ele>323.7</ele>
        <time>2013-03-10T09:58:08Z</time>
      </trkpt>
      <trkpt lat="45.85066" lon="3.54802">
        <ele>324.5</ele>
        <time>2013-03-10T09:58:10Z</time>
      </trkpt>
      <trkpt lat="45.85064" lon="3.54807">
        <ele>325.2</ele>
        <time>2013-03-10T09:58:12Z</time>
      </trkpt>
      <trkpt lat="45.85061" lon="3.54812">
        <ele>325.3</ele>
        <time>2013-03-10T09:58:14Z</time>
      </trkpt>
      <trkpt lat="45.85058" lon="3.54816">
        <ele>325.1</ele>
        <time>2013-03-10T09:58:16Z</time>
      </trkpt>
      <trkpt lat="45.85055" lon="3.5482">
        <ele>324.9</ele>
        <time>2013-03-10T09:58:18Z</time>
      </trkpt>
      <trkpt lat="45.85051" lon="3.54826">
        <ele>324.9</ele>
        <time>2013-03-10T09:58:20Z</time>
      </trkpt>
      <trkpt lat="45.85047" lon="3.54829">
        <ele>325.1</ele>
        <time>2013-03-10T09:58:22Z</time>
      </trkpt>
      <trkpt lat="45.85043" lon="3.54833">
        <ele>324.9</ele>
        <time>2013-03-10T09:58:24Z</time>
      </trkpt>
      <trkpt lat="45.8504" lon="3.54836">
        <ele>325.5</ele>
        <time>2013-03-10T09:58:26Z</time>
      </trkpt>
      <trkpt lat="45.85035" lon="3.54839">
        <ele>326.2</ele>
        <time>2013-03-10T09:58:28Z</time>
      </trkpt>
      <trkpt lat="45.8503" lon="3.54842">
        <ele>326.4</ele>
        <time>2013-03-10T09:58:30Z</time>
      </trkpt>
      <trkpt lat="45.85023" lon="3.54847">
        <ele>327.3</ele>
        <time>2013-03-10T09:58:32Z</time>
      </trkpt>
      <trkpt lat="45.85019" lon="3.5485">
        <ele>328.2</ele>
        <time>2013-03-10T09:58:34Z</time>
      </trkpt>
      <trkpt lat="45.85015" lon="3.54854">
        <ele>328.9</ele>
        <time>2013-03-10T09:58:36Z</time>
      </trkpt>
      <trkpt lat="45.85013" lon="3.54858">
        <ele>329.2</ele>
        <time>2013-03-10T09:58:38Z</time>
      </trkpt>
      <trkpt lat="45.85011" lon="3.54863">
        <ele>329.3</ele>
        <time>2013-03-10T09:58:40Z</time>
      </trkpt>
      <trkpt lat="45.8501" lon="3.5487">
        <ele>329.2</ele>
        <time>2013-03-10T09:58:42Z</time>
      </trkpt>
      <trkpt lat="45.85008" lon="3.54876">
        <ele>329.2</ele>
        <time>2013-03-10T09:58:44Z</time>
      </trkpt>
      <trkpt lat="45.85006" lon="3.54882">
        <ele>328.9</ele>
        <time>2013-03-10T09:58:46Z</time>
      </trkpt>
      <trkpt lat="45.85005" lon="3.54888">
        <ele>328.4</ele>
        <time>2013-03-10T09:58:48Z</time>
      </trkpt>
      <trkpt lat="45.85004" lon="3.54891">
        <ele>328.6</ele>
        <time>2013-03-10T09:58:50Z</time>
      </trkpt>
      <trkpt lat="45.85003" lon="3.54897">
        <ele>329.2</ele>
        <time>2013-03-10T09:58:52Z</time>
      </trkpt>
      <trkpt lat="45.85002" lon="3.54903">
        <ele>329.6</ele>
        <time>2013-03-10T09:58:54Z</time>
      </trkpt>
      <trkpt lat="45.85001" lon="3.54909">
        <ele>329.8</ele>
        <time>2013-03-10T09:58:56Z</time>
      </trkpt>
      <trkpt lat="45.85" lon="3.54915">
        <ele>330</ele>
        <time>2013-03-10T09:58:58Z</time>
      </trkpt>
      <trkpt lat="45.85" lon="3.54922">
        <ele>331.3</ele>
        <time>2013-03-10T09:59:00Z</time>
      </trkpt>
      <trkpt lat="45.85" lon="3.54928">
        <ele>332</ele>
        <time>2013-03-10T09:59:02Z</time>
      </trkpt>
      <trkpt lat="45.85001" lon="3.54935">
        <ele>332.7</ele>
        <time>2013-03-10T09:59:04Z</time>
      </trkpt>
      <trkpt lat="45.85002" lon="3.5494">
        <ele>333.5</ele>
        <time>2013-03-10T09:59:06Z</time>
      </trkpt>
      <trkpt lat="45.85006" lon="3.54939">
        <ele>333.8</ele>
        <time>2013-03-10T09:59:08Z</time>
      </trkpt>
      <trkpt lat="45.8501" lon="3.54936">
        <ele>334.1</ele>
        <time>2013-03-10T09:59:10Z</time>
      </trkpt>
      <trkpt lat="45.85013" lon="3.54935">
        <ele>334.4</ele>
        <time>2013-03-10T09:59:12Z</time>
      </trkpt>
      <trkpt lat="45.85012" lon="3.54936">
        <ele>334.2</ele>
        <time>2013-03-10T09:59:14Z</time>
      </trkpt>
      <trkpt lat="45.8501" lon="3.54935">
        <ele>333.9</ele>
        <time>2013-03-10T09:59:16Z</time>
      </trkpt>
      <trkpt lat="45.85008" lon="3.54935">
        <ele>333.7</ele>
        <time>2013-03-10T09:59:18Z</time>
      </trkpt>
      <trkpt lat="45.85008" lon="3.54936">
        <ele>333.7</ele>
        <time>2013-03-10T09:59:20Z</time>
      </trkpt>
      <trkpt lat="45.85008" lon="3.54936">
        <ele>333.8</ele>
        <time>2013-03-10T09:59:22Z</time>
      </trkpt>
      <trkpt lat="45.8501" lon="3.54936">
        <ele>334</ele>
        <time>2013-03-10T09:59:24Z</time>
      </trkpt>
      <trkpt lat="45.85012" lon="3.54935">
        <ele>334.2</ele>
        <time>2013-03-10T09:59:26Z</time>
      </trkpt>
      <trkpt lat="45.85015" lon="3.54931">
        <ele>334.4</ele>
        <time>2013-03-10T09:59:28Z</time>
      </trkpt>
      <trkpt lat="45.85018" lon="3.54929">
        <ele>334.8</ele>
        <time>2013-03-10T09:59:30Z</time>
      </trkpt>
      <trkpt lat="45.85022" lon="3.54925">
        <ele>335.5</ele>
        <time>2013-03-10T09:59:32Z</time>
      </trkpt>
      <trkpt lat="45.85026" lon="3.54925">
        <ele>336.3</ele>
        <time>2013-03-10T09:59:34Z</time>
      </trkpt>
      <trkpt lat="45.8503" lon="3.54927">
        <ele>338.1</ele>
        <time>2013-03-10T09:59:36Z</time>
      </trkpt>
      <trkpt lat="45.85032" lon="3.54931">
        <ele>340.1</ele>
        <time>2013-03-10T09:59:38Z</time>
      </trkpt>
      <trkpt lat="45.85035" lon="3.54936">
        <ele>341.9</ele>
        <time>2013-03-10T09:59:40Z</time>
      </trkpt>
      <trkpt lat="45.85036" lon="3.54941">
        <ele>343</ele>
        <time>2013-03-10T09:59:42Z</time>
      </trkpt>
      <trkpt lat="45.85038" lon="3.54947">
        <ele>343.2</ele>
        <time>2013-03-10T09:59:44Z</time>
      </trkpt>
      <trkpt lat="45.85039" lon="3.54953">
        <ele>342.1</ele>
        <time>2013-03-10T09:59:46Z</time>
      </trkpt>
      <trkpt lat="45.8504" lon="3.54958">
        <ele>341.7</ele>
        <time>2013-03-10T09:59:48Z</time>
      </trkpt>
      <trkpt lat="45.85043" lon="3.54964">
        <ele>341.3</ele>
        <time>2013-03-10T09:59:50Z</time>
      </trkpt>
      <trkpt lat="45.85046" lon="3.54965">
        <ele>342.1</ele>
        <time>2013-03-10T09:59:52Z</time>
      </trkpt>
      <trkpt lat="45.85049" lon="3.54966">
        <ele>343.5</ele>
        <time>2013-03-10T09:59:54Z</time>
      </trkpt>
      <trkpt lat="45.85054" lon="3.54967">
        <ele>345</ele>
        <time>2013-03-10T09:59:56Z</time>
      </trkpt>
      <trkpt lat="45.85058" lon="3.54971">
        <ele>345.7</ele>
        <time>2013-03-10T09:59:58Z</time>
      </trkpt>
      <trkpt lat="45.85061" lon="3.54975">
        <ele>346.7</ele>
        <time>2013-03-10T10:00:00Z</time>
      </trkpt>
      <trkpt lat="45.85064" lon="3.5498">
        <ele>348</ele>
        <time>2013-03-10T10:00:02Z</time>
      </trkpt>
      <trkpt lat="45.85067" lon="3.54986">
        <ele>348.3</ele>
        <time>2013-03-10T10:00:04Z</time>
      </trkpt>
      <trkpt lat="45.85069" lon="3.54991">
        <ele>348.1</ele>
        <time>2013-03-10T10:00:06Z</time>
      </trkpt>
      <trkpt lat="45.85069" lon="3.54994">
        <ele>347.7</ele>
        <time>2013-03-10T10:00:08Z</time>
      </trkpt>
      <trkpt lat="45.8507" lon="3.54999">
        <ele>346.6</ele>
        <time>2013-03-10T10:00:10Z</time>
      </trkpt>
      <trkpt lat="45.8507" lon="3.55001">
        <ele>346.6</ele>
        <time>2013-03-10T10:00:12Z</time>
      </trkpt>
      <trkpt lat="45.85071" lon="3.55005">
        <ele>347</ele>
        <time>2013-03-10T10:00:14Z</time>
      </trkpt>
      <trkpt lat="45.8507" lon="3.55009">
        <ele>347.1</ele>
        <time>2013-03-10T10:00:16Z</time>
      </trkpt>
      <trkpt lat="45.85071" lon="3.55012">
        <ele>347.3</ele>
        <time>2013-03-10T10:00:18Z</time>
      </trkpt>
      <trkpt lat="45.85071" lon="3.55017">
        <ele>347.9</ele>
        <time>2013-03-10T10:00:20Z</time>
      </trkpt>
      <trkpt lat="45.85072" lon="3.55019">
        <ele>348.5</ele>
        <time>2013-03-10T10:00:22Z</time>
      </trkpt>
      <trkpt lat="45.85074" lon="3.5502">
        <ele>349.6</ele>
        <time>2013-03-10T10:00:24Z</time>
      </trkpt>
      <trkpt lat="45.85076" lon="3.5502">
        <ele>351.1</ele>
        <time>2013-03-10T10:00:26Z</time>
      </trkpt>
      <trkpt lat="45.85078" lon="3.5502">
        <ele>352</ele>
        <time>2013-03-10T10:00:28Z</time>
      </trkpt>
      <trkpt lat="45.8508" lon="3.55021">
        <ele>353.1</ele>
        <time>2013-03-10T10:00:30Z</time>
      </trkpt>
      <trkpt lat="45.85082" lon="3.55021">
        <ele>354.2</ele>
        <time>2013-03-10T10:00:32Z</time>
      </trkpt>
      <trkpt lat="45.85082" lon="3.55023">
        <ele>354.1</ele>
        <time>2013-03-10T10:00:34Z</time>
      </trkpt>
      <trkpt lat="45.85081" lon="3.55025">
        <ele>353.6</ele>
        <time>2013-03-10T10:00:36Z</time>
      </trkpt>
      <trkpt lat="45.8508" lon="3.55026">
        <ele>353.4</ele>
        <time>2013-03-10T10:00:38Z</time>
      </trkpt>
      <trkpt lat="45.85079" lon="3.55028">
        <ele>352.7</ele>
        <time>2013-03-10T10:00:40Z</time>
      </trkpt>
      <trkpt lat="45.85078" lon="3.55033">
        <ele>352</ele>
        <time>2013-03-10T10:00:42Z</time>
      </trkpt>
      <trkpt lat="45.85079" lon="3.55035">
        <ele>352.3</ele>
        <time>2013-03-10T10:00:44Z</time>
      </trkpt>
      <trkpt lat="45.8508" lon="3.55036">
        <ele>352.8</ele>
        <time>2013-03-10T10:00:46Z</time>
      </trkpt>
      <trkpt lat="45.85082" lon="3.55037">
        <ele>353.6</ele>
        <time>2013-03-10T10:00:48Z</time>
      </trkpt>
      <trkpt lat="45.85085" lon="3.55039">
        <ele>354.7</ele>
        <time>2013-03-10T10:00:50Z</time>
      </trkpt>
      <trkpt lat="45.85088" lon="3.55038">
        <ele>355.8</ele>
        <time>2013-03-10T10:00:52Z</time>
      </trkpt>
      <trkpt lat="45.8509" lon="3.5504">
        <ele>356.5</ele>
        <time>2013-03-10T10:00:54Z</time>
      </trkpt>
      <trkpt lat="45.85092" lon="3.55044">
        <ele>356.8</ele>
        <time>2013-03-10T10:00:56Z</time>
      </trkpt>
      <trkpt lat="45.85092" lon="3.55048">
        <ele>356.7</ele>
        <time>2013-03-10T10:00:58Z</time>
      </trkpt>
      <trkpt lat="45.85094" lon="3.5505">
        <ele>357.2</ele>
        <time>2013-03-10T10:01:00Z</time>
      </trkpt>
      <trkpt lat="45.85095" lon="3.55051">
        <ele>357.5</ele>
        <time>2013-03-10T10:01:02Z</time>
      </trkpt>
      <trkpt lat="45.85097" lon="3.55053">
        <ele>358.1</ele>
        <time>2013-03-10T10:01:04Z</time>
      </trkpt>
      <trkpt lat="45.85098" lon="3.55054">
        <ele>358.2</ele>
        <time>2013-03-10T10:01:06Z</time>
      </trkpt>
      <trkpt lat="45.85101" lon="3.55058">
        <ele>358.5</ele>
        <time>2013-03-10T10:01:08Z</time>
      </trkpt>
      <trkpt lat="45.85105" lon="3.55064">
        <ele>357.4</ele>
        <time>2013-03-10T10:01:10Z</time>
      </trkpt>
      <trkpt lat="45.85108" lon="3.55073">
        <ele>354.7</ele>
        <time>2013-03-10T10:01:12Z</time>
      </trkpt>
      <trkpt lat="45.85112" lon="3.5508">
        <ele>352.5</ele>
        <time>2013-03-10T10:01:14Z</time>
      </trkpt>
      <trkpt lat="45.85116" lon="3.55086">
        <ele>349.1</ele>
        <time>2013-03-10T10:01:16Z</time>
      </trkpt>
      <trkpt lat="45.85119" lon="3.55091">
        <ele>347.4</ele>
        <time>2013-03-10T10:01:18Z</time>
      </trkpt>
      <trkpt lat="45.85119" lon="3.55098">
        <ele>346.3</ele>
        <time>2013-03-10T10:01:20Z</time>
      </trkpt>
      <trkpt lat="45.8512" lon="3.55105">
        <ele>345.1</ele>
        <time>2013-03-10T10:01:22Z</time>
      </trkpt>
      <trkpt lat="45.85124" lon="3.55104">
        <ele>344.6</ele>
        <time>2013-03-10T10:01:24Z</time>
      </trkpt>
      <trkpt lat="45.85127" lon="3.55101">
        <ele>344.5</ele>
        <time>2013-03-10T10:01:26Z</time>
      </trkpt>
      <trkpt lat="45.85131" lon="3.55095">
        <ele>344.3</ele>
        <time>2013-03-10T10:01:28Z</time>
      </trkpt>
      <trkpt lat="45.85135" lon="3.55088">
        <ele>344</ele>
        <time>2013-03-10T10:01:30Z</time>
      </trkpt>
      <trkpt lat="45.85138" lon="3.55082">
        <ele>343.4</ele>
        <time>2013-03-10T10:01:32Z</time>
      </trkpt>
      <trkpt lat="45.8514" lon="3.55077">
        <ele>343</ele>
        <time>2013-03-10T10:01:34Z</time>
      </trkpt>
      <trkpt lat="45.85142" lon="3.55076">
        <ele>343.2</ele>
        <time>2013-03-10T10:01:36Z</time>
      </trkpt>
      <trkpt lat="45.85146" lon="3.55074">
        <ele>343.5</ele>
        <time>2013-03-10T10:01:38Z</time>
      </trkpt>
      <trkpt lat="45.85151" lon="3.55073">
        <ele>343.9</ele>
        <time>2013-03-10T10:01:40Z</time>
      </trkpt>
      <trkpt lat="45.85155" lon="3.55073">
        <ele>344.2</ele>
        <time>2013-03-10T10:01:42Z</time>
      </trkpt>
      <trkpt lat="45.85161" lon="3.55073">
        <ele>344.6</ele>
        <time>2013-03-10T10:01:44Z</time>
      </trkpt>
      <trkpt lat="45.85166" lon="3.55072">
        <ele>345</ele>
        <time>2013-03-10T10:01:46Z</time>
      </trkpt>
      <trkpt lat="45.85171" lon="3.55072">
        <ele>345.4</ele>
        <time>2013-03-10T10:01:48Z</time>
      </trkpt>
      <trkpt lat="45.85175" lon="3.55074">
        <ele>345.9</ele>
        <time>2013-03-10T10:01:50Z</time>
      </trkpt>
      <trkpt lat="45.8518" lon="3.55077">
        <ele>346.5</ele>
        <time>2013-03-10T10:01:52Z</time>
      </trkpt>
      <trkpt lat="45.85184" lon="3.55081">
        <ele>347.3</ele>
        <time>2013-03-10T10:01:54Z</time>
      </trkpt>
      <trkpt lat="45.85188" lon="3.55084">
        <ele>348.1</ele>
        <time>2013-03-10T10:01:56Z</time>
      </trkpt>
      <trkpt lat="45.85191" lon="3.55088">
        <ele>348.9</ele>
        <time>2013-03-10T10:01:58Z</time>
      </trkpt>
      <trkpt lat="45.85192" lon="3.55092">
        <ele>349.3</ele>
        <time>2013-03-10T10:02:00Z</time>
      </trkpt>
      <trkpt lat="45.85193" lon="3.55093">
        <ele>349.5</ele>
        <time>2013-03-10T10:02:02Z</time>
      </trkpt>
      <trkpt lat="45.85193" lon="3.55095">
        <ele>349.6</ele>
        <time>2013-03-10T10:02:04Z</time>
      </trkpt>
      <trkpt lat="45.85193" lon="3.55096">
        <ele>349.7</ele>
        <time>2013-03-10T10:02:06Z</time>
      </trkpt>
      <trkpt lat="45.85194" lon="3.55099">
        <ele>350.1</ele>
        <time>2013-03-10T10:02:08Z</time>
      </trkpt>
      <trkpt lat="45.85192" lon="3.55104">
        <ele>350.2</ele>
        <time>2013-03-10T10:02:10Z</time>
      </trkpt>
      <trkpt lat="45.85189" lon="3.55112">
        <ele>350.5</ele>
        <time>2013-03-10T10:02:12Z</time>
      </trkpt>
      <trkpt lat="45.85185" lon="3.55119">
        <ele>351.7</ele>
        <time>2013-03-10T10:02:14Z</time>
      </trkpt>
      <trkpt lat="45.85181" lon="3.55126">
        <ele>352.3</ele>
        <time>2013-03-10T10:02:16Z</time>
      </trkpt>
      <trkpt lat="45.85177" lon="3.55131">
        <ele>352.3</ele>
        <time>2013-03-10T10:02:18Z</time>
      </trkpt>
      <trkpt lat="45.85173" lon="3.55136">
        <ele>351.7</ele>
        <time>2013-03-10T10:02:20Z</time>
      </trkpt>
      <trkpt lat="45.85168" lon="3.5514">
        <ele>350.7</ele>
        <time>2013-03-10T10:02:22Z</time>
      </trkpt>
      <trkpt lat="45.85161" lon="3.55145">
        <ele>350.7</ele>
        <time>2013-03-10T10:02:24Z</time>
      </trkpt>
      <trkpt lat="45.85157" lon="3.55149">
        <ele>350.7</ele>
        <time>2013-03-10T10:02:26Z</time>
      </trkpt>
      <trkpt lat="45.85153" lon="3.55152">
        <ele>350.5</ele>
        <time>2013-03-10T10:02:28Z</time>
      </trkpt>
      <trkpt lat="45.85149" lon="3.55156">
        <ele>350.1</ele>
        <time>2013-03-10T10:02:30Z</time>
      </trkpt>
      <trkpt lat="45.85146" lon="3.55158">
        <ele>349.6</ele>
        <time>2013-03-10T10:02:32Z</time>
      </trkpt>
      <trkpt lat="45.85143" lon="3.5516">
        <ele>349</ele>
        <time>2013-03-10T10:02:34Z</time>
      </trkpt>
      <trkpt lat="45.85141" lon="3.55161">
        <ele>348.5</ele>
        <time>2013-03-10T10:02:36Z</time>
      </trkpt>
      <trkpt lat="45.8514" lon="3.55162">
        <ele>348.3</ele>
        <time>2013-03-10T10:02:38Z</time>
      </trkpt>
      <trkpt lat="45.85137" lon="3.55163">
        <ele>348.1</ele>
        <time>2013-03-10T10:02:40Z</time>
      </trkpt>
      <trkpt lat="45.85135" lon="3.55165">
        <ele>348.2</ele>
        <time>2013-03-10T10:02:42Z</time>
      </trkpt>
      <trkpt lat="45.85133" lon="3.55167">
        <ele>348.9</ele>
        <time>2013-03-10T10:02:44Z</time>
      </trkpt>
      <trkpt lat="45.85131" lon="3.55169">
        <ele>349.9</ele>
        <time>2013-03-10T10:02:46Z</time>
      </trkpt>
      <trkpt lat="45.8513" lon="3.55172">
        <ele>351</ele>
        <time>2013-03-10T10:02:48Z</time>
      </trkpt>
      <trkpt lat="45.85128" lon="3.55174">
        <ele>352.3</ele>
        <time>2013-03-10T10:02:50Z</time>
      </trkpt>
      <trkpt lat="45.85126" lon="3.55178">
        <ele>353.8</ele>
        <time>2013-03-10T10:02:52Z</time>
      </trkpt>
      <trkpt lat="45.85124" lon="3.55179">
        <ele>354.4</ele>
        <time>2013-03-10T10:02:54Z</time>
      </trkpt>
      <trkpt lat="45.8512" lon="3.55181">
        <ele>354.8</ele>
        <time>2013-03-10T10:02:56Z</time>
      </trkpt>
      <trkpt lat="45.85115" lon="3.55183">
        <ele>355.4</ele>
        <time>2013-03-10T10:02:58Z</time>
      </trkpt>
      <trkpt lat="45.8511" lon="3.55183">
        <ele>355.4</ele>
        <time>2013-03-10T10:03:00Z</time>
      </trkpt>
      <trkpt lat="45.85107" lon="3.55185">
        <ele>356.3</ele>
        <time>2013-03-10T10:03:02Z</time>
      </trkpt>
      <trkpt lat="45.85104" lon="3.55187">
        <ele>357.1</ele>
        <time>2013-03-10T10:03:04Z</time>
      </trkpt>
      <trkpt lat="45.85101" lon="3.55188">
        <ele>357.6</ele>
        <time>2013-03-10T10:03:06Z</time>
      </trkpt>
      <trkpt lat="45.85099" lon="3.5519">
        <ele>358.2</ele>
        <time>2013-03-10T10:03:08Z</time>
      </trkpt>
      <trkpt lat="45.85097" lon="3.55191">
        <ele>358.6</ele>
        <time>2013-03-10T10:03:10Z</time>
      </trkpt>
      <trkpt lat="45.85094" lon="3.5519">
        <ele>358.4</ele>
        <time>2013-03-10T10:03:12Z</time>
      </trkpt>
      <trkpt lat="45.85094" lon="3.55189">
        <ele>358</ele>
        <time>2013-03-10T10:03:14Z</time>
      </trkpt>
      <trkpt lat="45.85094" lon="3.55189">
        <ele>357.9</ele>
        <time>2013-03-10T10:03:16Z</time>
      </trkpt>
      <trkpt lat="45.85094" lon="3.55189">
        <ele>357.7</ele>
        <time>2013-03-10T10:03:18Z</time>
      </trkpt>
      <trkpt lat="45.85094" lon="3.55188">
        <ele>357.5</ele>
        <time>2013-03-10T10:03:20Z</time>
      </trkpt>
      <trkpt lat="45.85094" lon="3.55188">
        <ele>357.3</ele>
        <time>2013-03-10T10:03:22Z</time>
      </trkpt>
      <trkpt lat="45.85094" lon="3.55187">
        <ele>357</ele>
        <time>2013-03-10T10:03:24Z</time>
      </trkpt>
      <trkpt lat="45.85094" lon="3.55187">
        <ele>356.8</ele>
        <time>2013-03-10T10:03:26Z</time>
      </trkpt>
      <trkpt lat="45.85094" lon="3.55187">
        <ele>356.8</ele>
        <time>2013-03-10T10:03:28Z</time>
      </trkpt>
      <trkpt lat="45.85094" lon="3.55187">
        <ele>356.9</ele>
        <time>2013-03-10T10:03:30Z</time>
      </trkpt>
      <trkpt lat="45.85092" lon="3.55188">
        <ele>357.2</ele>
        <time>2013-03-10T10:03:32Z</time>
      </trkpt>
      <trkpt lat="45.85091" lon="3.55188">
        <ele>357.4</ele>
        <time>2013-03-10T10:03:34Z</time>
      </trkpt>
      <trkpt lat="45.8509" lon="3.55188">
        <ele>357.4</ele>
        <time>2013-03-10T10:03:36Z</time>
      </trkpt>
      <trkpt lat="45.85088" lon="3.55188">
        <ele>357.3</ele>
        <time>2013-03-10T10:03:38Z</time>
      </trkpt>
      <trkpt lat="45.85085" lon="3.55189">
        <ele>357.8</ele>
        <time>2013-03-10T10:03:40Z</time>
      </trkpt>
      <trkpt lat="45.85083" lon="3.55191">
        <ele>358.8</ele>
        <time>2013-03-10T10:03:42Z</time>
      </trkpt>
      <trkpt lat="45.85081" lon="3.55194">
        <ele>360.5</ele>
        <time>2013-03-10T10:03:44Z</time>
      </trkpt>
      <trkpt lat="45.8508" lon="3.55196">
        <ele>361.9</ele>
        <time>2013-03-10T10:03:46Z</time>
      </trkpt>
      <trkpt lat="45.85079" lon="3.55197">
        <ele>362.7</ele>
        <time>2013-03-10T10:03:48Z</time>
      </trkpt>
      <trkpt lat="45.85078" lon="3.55199">
        <ele>363.8</ele>
        <time>2013-03-10T10:03:50Z</time>
      </trkpt>
      <trkpt lat="45.85077" lon="3.55202">
        <ele>365.5</ele>
        <time>2013-03-10T10:03:52Z</time>
      </trkpt>
      <trkpt lat="45.85075" lon="3.55204">
        <ele>367</ele>
        <time>2013-03-10T10:03:54Z</time>
      </trkpt>
      <trkpt lat="45.85075" lon="3.55206">
        <ele>368.1</ele>
        <time>2013-03-10T10:03:56Z</time>
      </trkpt>
      <trkpt lat="45.85074" lon="3.55208">
        <ele>369.2</ele>
        <time>2013-03-10T10:03:58Z</time>
      </trkpt>
      <trkpt lat="45.85073" lon="3.55208">
        <ele>369.8</ele>
        <time>2013-03-10T10:04:00Z</time>
      </trkpt>
      <trkpt lat="45.8507" lon="3.55208">
        <ele>370.7</ele>
        <time>2013-03-10T10:04:02Z</time>
      </trkpt>
      <trkpt lat="45.85067" lon="3.55207">
        <ele>370.8</ele>
        <time>2013-03-10T10:04:04Z</time>
      </trkpt>
      <trkpt lat="45.85066" lon="3.55205">
        <ele>370.2</ele>
        <time>2013-03-10T10:04:06Z</time>
      </trkpt>
      <trkpt lat="45.85064" lon="3.55202">
        <ele>369.4</ele>
        <time>2013-03-10T10:04:08Z</time>
      </trkpt>
      <trkpt lat="45.85062" lon="3.552">
        <ele>369.3</ele>
        <time>2013-03-10T10:04:10Z</time>
      </trkpt>
      <trkpt lat="45.85061" lon="3.55198">
        <ele>369</ele>
        <time>2013-03-10T10:04:12Z</time>
      </trkpt>
      <trkpt lat="45.8506" lon="3.55197">
        <ele>368.8</ele>
        <time>2013-03-10T10:04:14Z</time>
      </trkpt>
      <trkpt lat="45.85058" lon="3.55196">
        <ele>368.8</ele>
        <time>2013-03-10T10:04:16Z</time>
      </trkpt>
      <trkpt lat="45.85057" lon="3.55194">
        <ele>368.7</ele>
        <time>2013-03-10T10:04:18Z</time>
      </trkpt>
      <trkpt lat="45.85055" lon="3.5519">
        <ele>369.5</ele>
        <time>2013-03-10T10:04:20Z</time>
      </trkpt>
      <trkpt lat="45.85056" lon="3.55187">
        <ele>369.6</ele>
        <time>2013-03-10T10:04:22Z</time>
      </trkpt>
      <trkpt lat="45.85055" lon="3.55186">
        <ele>369.9</ele>
        <time>2013-03-10T10:04:24Z</time>
      </trkpt>
      <trkpt lat="45.85056" lon="3.55184">
        <ele>369.8</ele>
        <time>2013-03-10T10:04:26Z</time>
      </trkpt>
      <trkpt lat="45.85055" lon="3.55182">
        <ele>370.3</ele>
        <time>2013-03-10T10:04:28Z</time>
      </trkpt>
      <trkpt lat="45.85054" lon="3.55181">
        <ele>371.3</ele>
        <time>2013-03-10T10:04:30Z</time>
      </trkpt>
      <trkpt lat="45.85053" lon="3.55179">
        <ele>372.2</ele>
        <time>2013-03-10T10:04:32Z</time>
      </trkpt>
      <trkpt lat="45.85052" lon="3.55176">
        <ele>372.5</ele>
        <time>2013-03-10T10:04:34Z</time>
      </trkpt>
      <trkpt lat="45.85054" lon="3.55171">
        <ele>371.8</ele>
        <time>2013-03-10T10:04:36Z</time>
      </trkpt>
      <trkpt lat="45.85054" lon="3.55168">
        <ele>372</ele>
        <time>2013-03-10T10:04:38Z</time>
      </trkpt>
      <trkpt lat="45.85054" lon="3.55164">
        <ele>371.2</ele>
        <time>2013-03-10T10:04:40Z</time>
      </trkpt>
      <trkpt lat="45.85054" lon="3.55159">
        <ele>369.1</ele>
        <time>2013-03-10T10:04:42Z</time>
      </trkpt>
      <trkpt lat="45.85056" lon="3.55154">
        <ele>366.4</ele>
        <time>2013-03-10T10:04:44Z</time>
      </trkpt>
      <trkpt lat="45.85057" lon="3.5515">
        <ele>364.2</ele>
        <time>2013-03-10T10:04:46Z</time>
      </trkpt>
      <trkpt lat="45.85057" lon="3.55147">
        <ele>362.9</ele>
        <time>2013-03-10T10:04:48Z</time>
      </trkpt>
      <trkpt lat="45.85057" lon="3.55146">
        <ele>362.3</ele>
        <time>2013-03-10T10:04:50Z</time>
      </trkpt>
      <trkpt lat="45.85058" lon="3.55146">
        <ele>362.3</ele>
        <time>2013-03-10T10:04:52Z</time>
      </trkpt>
      <trkpt lat="45.85058" lon="3.55147">
        <ele>362.3</ele>
        <time>2013-03-10T10:04:54Z</time>
      </trkpt>
      <trkpt lat="45.85057" lon="3.55148">
        <ele>363.5</ele>
        <time>2013-03-10T10:04:56Z</time>
      </trkpt>
      <trkpt lat="45.85056" lon="3.55148">
        <ele>364.4</ele>
        <time>2013-03-10T10:04:58Z</time>
      </trkpt>
      <trkpt lat="45.85055" lon="3.55149">
        <ele>364.6</ele>
        <time>2013-03-10T10:05:00Z</time>
      </trkpt>
      <trkpt lat="45.85055" lon="3.55149">
        <ele>365.1</ele>
        <time>2013-03-10T10:05:02Z</time>
      </trkpt>
      <trkpt lat="45.85053" lon="3.5515">
        <ele>366.1</ele>
        <time>2013-03-10T10:05:04Z</time>
      </trkpt>
      <trkpt lat="45.85052" lon="3.5515">
        <ele>366.6</ele>
        <time>2013-03-10T10:05:06Z</time>
      </trkpt>
      <trkpt lat="45.85051" lon="3.55151">
        <ele>367.3</ele>
        <time>2013-03-10T10:05:08Z</time>
      </trkpt>
      <trkpt lat="45.8505" lon="3.55153">
        <ele>368.5</ele>
        <time>2013-03-10T10:05:10Z</time>
      </trkpt>
      <trkpt lat="45.85048" lon="3.55154">
        <ele>370</ele>
        <time>2013-03-10T10:05:12Z</time>
      </trkpt>
      <trkpt lat="45.85047" lon="3.55156">
        <ele>371.1</ele>
        <time>2013-03-10T10:05:14Z</time>
      </trkpt>
      <trkpt lat="45.85046" lon="3.55156">
        <ele>371.5</ele>
        <time>2013-03-10T10:05:16Z</time>
      </trkpt>
      <trkpt lat="45.85045" lon="3.55157">
        <ele>372.4</ele>
        <time>2013-03-10T10:05:18Z</time>
      </trkpt>
      <trkpt lat="45.85045" lon="3.55158">
        <ele>373</ele>
        <time>2013-03-10T10:05:20Z</time>
      </trkpt>
      <trkpt lat="45.85045" lon="3.55159">
        <ele>373.3</ele>
        <time>2013-03-10T10:05:22Z</time>
      </trkpt>
      <trkpt lat="45.85046" lon="3.55162">
        <ele>374.1</ele>
        <time>2013-03-10T10:05:24Z</time>
      </trkpt>
      <trkpt lat="45.85046" lon="3.55164">
        <ele>374.8</ele>
        <time>2013-03-10T10:05:26Z</time>
      </trkpt>
      <trkpt lat="45.85046" lon="3.55167">
        <ele>375.9</ele>
        <time>2013-03-10T10:05:28Z</time>
      </trkpt>
      <trkpt lat="45.85044" lon="3.55169">
        <ele>376.9</ele>
        <time>2013-03-10T10:05:30Z</time>
      </trkpt>
      <trkpt lat="45.85042" lon="3.5517">
        <ele>378.5</ele>
        <time>2013-03-10T10:05:32Z</time>
      </trkpt>
      <trkpt lat="45.8504" lon="3.55171">
        <ele>379.8</ele>
        <time>2013-03-10T10:05:34Z</time>
      </trkpt>
      <trkpt lat="45.85037" lon="3.55172">
        <ele>381.3</ele>
        <time>2013-03-10T10:05:36Z</time>
      </trkpt>
      <trkpt lat="45.85036" lon="3.55172">
        <ele>382.4</ele>
        <time>2013-03-10T10:05:38Z</time>
      </trkpt>
      <trkpt lat="45.85035" lon="3.55173">
        <ele>383.3</ele>
        <time>2013-03-10T10:05:40Z</time>
      </trkpt>
      <trkpt lat="45.85032" lon="3.55174">
        <ele>385.1</ele>
        <time>2013-03-10T10:05:42Z</time>
      </trkpt>
      <trkpt lat="45.85028" lon="3.55173">
        <ele>387</ele>
        <time>2013-03-10T10:05:44Z</time>
      </trkpt>
      <trkpt lat="45.85025" lon="3.55172">
        <ele>388.2</ele>
        <time>2013-03-10T10:05:46Z</time>
      </trkpt>
      <trkpt lat="45.85022" lon="3.55171">
        <ele>388.9</ele>
        <time>2013-03-10T10:05:48Z</time>
      </trkpt>
      <trkpt lat="45.85019" lon="3.5517">
        <ele>389.4</ele>
        <time>2013-03-10T10:05:50Z</time>
      </trkpt>
      <trkpt lat="45.85017" lon="3.55169">
        <ele>389.8</ele>
        <time>2013-03-10T10:05:52Z</time>
      </trkpt>
      <trkpt lat="45.85014" lon="3.55168">
        <ele>390.4</ele>
        <time>2013-03-10T10:05:54Z</time>
      </trkpt>
      <trkpt lat="45.85011" lon="3.55166">
        <ele>390.7</ele>
        <time>2013-03-10T10:05:56Z</time>
      </trkpt>
      <trkpt lat="45.85008" lon="3.55165">
        <ele>391.7</ele>
        <time>2013-03-10T10:05:58Z</time>
      </trkpt>
      <trkpt lat="45.85005" lon="3.55164">
        <ele>392.6</ele>
        <time>2013-03-10T10:06:00Z</time>
      </trkpt>
      <trkpt lat="45.85003" lon="3.55163">
        <ele>393.3</ele>
        <time>2013-03-10T10:06:02Z</time>
      </trkpt>
      <trkpt lat="45.85001" lon="3.5516">
        <ele>393.4</ele>
        <time>2013-03-10T10:06:04Z</time>
      </trkpt>
      <trkpt lat="45.85" lon="3.55155">
        <ele>393.1</ele>
        <time>2013-03-10T10:06:06Z</time>
      </trkpt>
      <trkpt lat="45.85" lon="3.5515">
        <ele>392.6</ele>
        <time>2013-03-10T10:06:08Z</time>
      </trkpt>
      <trkpt lat="45.85" lon="3.55145">
        <ele>392.1</ele>
        <time>2013-03-10T10:06:10Z</time>
      </trkpt>
      <trkpt lat="45.85" lon="3.5514">
        <ele>391.4</ele>
        <time>2013-03-10T10:06:12Z</time>
      </trkpt>
      <trkpt lat="45.84999" lon="3.55137">
        <ele>391.3</ele>
        <time>2013-03-10T10:06:14Z</time>
      </trkpt>
      <trkpt lat="45.84999" lon="3.55133">
        <ele>391.2</ele>
        <time>2013-03-10T10:06:16Z</time>
      </trkpt>
      <trkpt lat="45.84996" lon="3.5513">
        <ele>392.2</ele>
        <time>2013-03-10T10:06:18Z</time>
      </trkpt>
      <trkpt lat="45.84994" lon="3.55128">
        <ele>393.3</ele>
        <time>2013-03-10T10:06:20Z</time>
      </trkpt>
      <trkpt lat="45.8499" lon="3.55127">
        <ele>395.3</ele>
        <time>2013-03-10T10:06:22Z</time>
      </trkpt>
      <trkpt lat="45.84988" lon="3.55125">
        <ele>396.6</ele>
        <time>2013-03-10T10:06:24Z</time>
      </trkpt>
      <trkpt lat="45.84985" lon="3.55124">
        <ele>398</ele>
        <time>2013-03-10T10:06:26Z</time>
      </trkpt>
      <trkpt lat="45.84983" lon="3.55122">
        <ele>399</ele>
        <time>2013-03-10T10:06:28Z</time>
      </trkpt>
      <trkpt lat="45.84981" lon="3.55121">
        <ele>399.6</ele>
        <time>2013-03-10T10:06:30Z</time>
      </trkpt>
      <trkpt lat="45.8498" lon="3.55118">
        <ele>399.8</ele>
        <time>2013-03-10T10:06:32Z</time>
      </trkpt>
      <trkpt lat="45.8498" lon="3.55117">
        <ele>399.8</ele>
        <time>2013-03-10T10:06:34Z</time>
      </trkpt>
      <trkpt lat="45.84979" lon="3.55114">
        <ele>399.6</ele>
        <time>2013-03-10T10:06:36Z</time>
      </trkpt>
      <trkpt lat="45.84978" lon="3.55111">
        <ele>399.9</ele>
        <time>2013-03-10T10:06:38Z</time>
      </trkpt>
      <trkpt lat="45.84977" lon="3.55109">
        <ele>400.1</ele>
        <time>2013-03-10T10:06:40Z</time>
      </trkpt>
      <trkpt lat="45.84976" lon="3.55109">
        <ele>400.5</ele>
        <time>2013-03-10T10:06:42Z</time>
      </trkpt>
      <trkpt lat="45.84974" lon="3.55108">
        <ele>401.6</ele>
        <time>2013-03-10T10:06:44Z</time>
      </trkpt>
      <trkpt lat="45.84971" lon="3.55106">
        <ele>402.5</ele>
        <time>2013-03-10T10:06:46Z</time>
      </trkpt>
      <trkpt lat="45.84969" lon="3.55104">
        <ele>403.2</ele>
        <time>2013-03-10T10:06:48Z</time>
      </trkpt>
      <trkpt lat="45.84967" lon="3.55102">
        <ele>403.9</ele>
        <time>2013-03-10T10:06:50Z</time>
      </trkpt>
      <trkpt lat="45.84966" lon="3.551">
        <ele>404.2</ele>
        <time>2013-03-10T10:06:52Z</time>
      </trkpt>
      <trkpt lat="45.84965" lon="3.55097">
        <ele>404.1</ele>
        <time>2013-03-10T10:06:54Z</time>
      </trkpt>
      <trkpt lat="45.84964" lon="3.55094">
        <ele>404.2</ele>
        <time>2013-03-10T10:06:56Z</time>
      </trkpt>
      <trkpt lat="45.84962" lon="3.55091">
        <ele>404.6</ele>
        <time>2013-03-10T10:06:58Z</time>
      </trkpt>
      <trkpt lat="45.84959" lon="3.55089">
        <ele>405.4</ele>
        <time>2013-03-10T10:07:00Z</time>
      </trkpt>
      <trkpt lat="45.84957" lon="3.55088">
        <ele>406</ele>
        <time>2013-03-10T10:07:02Z</time>
      </trkpt>
      <trkpt lat="45.84956" lon="3.55087">
        <ele>406.5</ele>
        <time>2013-03-10T10:07:04Z</time>
      </trkpt>
      <trkpt lat="45.84954" lon="3.55085">
        <ele>407.1</ele>
        <time>2013-03-10T10:07:06Z</time>
      </trkpt>
      <trkpt lat="45.84952" lon="3.55084">
        <ele>407.7</ele>
        <time>2013-03-10T10:07:08Z</time>
      </trkpt>
      <trkpt lat="45.8495" lon="3.55082">
        <ele>407.9</ele>
        <time>2013-03-10T10:07:10Z</time>
      </trkpt>
      <trkpt lat="45.84948" lon="3.55081">
        <ele>408.4</ele>
        <time>2013-03-10T10:07:12Z</time>
      </trkpt>
      <trkpt lat="45.84947" lon="3.55079">
        <ele>408.6</ele>
        <time>2013-03-10T10:07:14Z</time>
      </trkpt>
      <trkpt lat="45.84944" lon="3.55077">
        <ele>408.9</ele>
        <time>2013-03-10T10:07:16Z</time>
      </trkpt>
      <trkpt lat="45.84942" lon="3.55076">
        <ele>409.6</ele>
        <time>2013-03-10T10:07:18Z</time>
      </trkpt>
      <trkpt lat="45.84941" lon="3.55075">
        <ele>410</ele>
        <time>2013-03-10T10:07:20Z</time>
      </trkpt>
      <trkpt lat="45.84939" lon="3.55072">
        <ele>410.1</ele>
        <time>2013-03-10T10:07:22Z</time>
      </trkpt>
      <trkpt lat="45.84938" lon="3.55069">
        <ele>409.4</ele>
        <time>2013-03-10T10:07:24Z</time>
      </trkpt>
      <trkpt lat="45.84937" lon="3.55066">
        <ele>409.5</ele>
        <time>2013-03-10T10:07:26Z</time>
      </trkpt>
      <trkpt lat="45.84934" lon="3.55064">
        <ele>410.1</ele>
        <time>2013-03-10T10:07:28Z</time>
      </trkpt>
      <trkpt lat="45.84932" lon="3.55061">
        <ele>410.7</ele>
        <time>2013-03-10T10:07:30Z</time>
      </trkpt>
      <trkpt lat="45.8493" lon="3.55059">
        <ele>411</ele>
        <time>2013-03-10T10:07:32Z</time>
      </trkpt>
      <trkpt lat="45.84929" lon="3.55056">
        <ele>411</ele>
        <time>2013-03-10T10:07:34Z</time>
      </trkpt>
      <trkpt lat="45.84926" lon="3.55054">
        <ele>412.3</ele>
        <time>2013-03-10T10:07:36Z</time>
      </trkpt>
      <trkpt lat="45.84924" lon="3.55054">
        <ele>413.6</ele>
        <time>2013-03-10T10:07:38Z</time>
      </trkpt>
      <trkpt lat="45.84923" lon="3.55053">
        <ele>414.1</ele>
        <time>2013-03-10T10:07:40Z</time>
      </trkpt>
      <trkpt lat="45.84921" lon="3.55051">
        <ele>414.9</ele>
        <time>2013-03-10T10:07:42Z</time>
      </trkpt>
      <trkpt lat="45.8492" lon="3.5505">
        <ele>415.3</ele>
        <time>2013-03-10T10:07:44Z</time>
      </trkpt>
      <trkpt lat="45.84919" lon="3.5505">
        <ele>415.8</ele>
        <time>2013-03-10T10:07:46Z</time>
      </trkpt>
      <trkpt lat="45.84919" lon="3.55049">
        <ele>415.8</ele>
        <time>2013-03-10T10:07:48Z</time>
      </trkpt>
      <trkpt lat="45.84917" lon="3.5505">
        <ele>416.7</ele>
        <time>2013-03-10T10:07:50Z</time>
      </trkpt>
      <trkpt lat="45.84915" lon="3.55049">
        <ele>417.5</ele>
        <time>2013-03-10T10:07:52Z</time>
      </trkpt>
      <trkpt lat="45.84914" lon="3.55048">
        <ele>418</ele>
        <time>2013-03-10T10:07:54Z</time>
      </trkpt>
      <trkpt lat="45.84912" lon="3.55047">
        <ele>418.3</ele>
        <time>2013-03-10T10:07:56Z</time>
      </trkpt>
      <trkpt lat="45.84911" lon="3.55046">
        <ele>418.5</ele>
        <time>2013-03-10T10:07:58Z</time>
      </trkpt>
      <trkpt lat="45.84911" lon="3.55045">
        <ele>418.5</ele>
        <time>2013-03-10T10:08:00Z</time>
      </trkpt>
      <trkpt lat="45.8491" lon="3.55043">
        <ele>418.5</ele>
        <time>2013-03-10T10:08:02Z</time>
      </trkpt>
      <trkpt lat="45.84908" lon="3.55041">
        <ele>418.9</ele>
        <time>2013-03-10T10:08:04Z</time>
      </trkpt>
      <trkpt lat="45.84907" lon="3.55041">
        <ele>419.3</ele>
        <time>2013-03-10T10:08:06Z</time>
      </trkpt>
      <trkpt lat="45.84907" lon="3.55041">
        <ele>419.3</ele>
        <time>2013-03-10T10:08:08Z</time>
      </trkpt>
      <trkpt lat="45.84906" lon="3.55041">
        <ele>419.5</ele>
        <time>2013-03-10T10:08:10Z</time>
      </trkpt>
      <trkpt lat="45.84906" lon="3.55041">
        <ele>419.7</ele>
        <time>2013-03-10T10:08:12Z</time>
      </trkpt>
      <trkpt lat="45.84905" lon="3.55041">
        <ele>419.9</ele>
        <time>2013-03-10T10:08:14Z</time>
      </trkpt>
      <trkpt lat="45.84906" lon="3.55041">
        <ele>419.9</ele>
        <time>2013-03-10T10:08:16Z</time>
      </trkpt>
      <trkpt lat="45.84907" lon="3.55042">
        <ele>419.6</ele>
        <time>2013-03-10T10:08:18Z</time>
      </trkpt>
      <trkpt lat="45.84908" lon="3.55042">
        <ele>419</ele>
        <time>2013-03-10T10:08:20Z</time>
      </trkpt>
      <trkpt lat="45.8491" lon="3.55045">
        <ele>418.6</ele>
        <time>2013-03-10T10:08:22Z</time>
      </trkpt>
      <trkpt lat="45.84912" lon="3.55047">
        <ele>418.3</ele>
        <time>2013-03-10T10:08:24Z</time>
      </trkpt>
      <trkpt lat="45.84915" lon="3.55051">
        <ele>418.2</ele>
        <time>2013-03-10T10:08:26Z</time>
      </trkpt>
      <trkpt lat="45.84917" lon="3.55056">
        <ele>418</ele>
        <time>2013-03-10T10:08:28Z</time>
      </trkpt>
      <trkpt lat="45.84919" lon="3.5506">
        <ele>417.4</ele>
        <time>2013-03-10T10:08:30Z</time>
      </trkpt>
      <trkpt lat="45.84923" lon="3.55065">
        <ele>416.6</ele>
        <time>2013-03-10T10:08:32Z</time>
      </trkpt>
      <trkpt lat="45.84926" lon="3.55069">
        <ele>415.9</ele>
        <time>2013-03-10T10:08:34Z</time>
      </trkpt>
      <trkpt lat="45.84929" lon="3.55073">
        <ele>414.9</ele>
        <time>2013-03-10T10:08:36Z</time>
      </trkpt>
      <trkpt lat="45.84933" lon="3.55076">
        <ele>414.2</ele>
        <time>2013-03-10T10:08:38Z</time>
      </trkpt>
      <trkpt lat="45.84936" lon="3.5508">
        <ele>413.8</ele>
        <time>2013-03-10T10:08:40Z</time>
      </trkpt>
      <trkpt lat="45.84939" lon="3.55083">
        <ele>413.2</ele>
        <time>2013-03-10T10:08:42Z</time>
      </trkpt>
      <trkpt lat="45.84942" lon="3.55086">
        <ele>412.7</ele>
        <time>2013-03-10T10:08:44Z</time>
      </trkpt>
      <trkpt lat="45.84945" lon="3.55089">
        <ele>412</ele>
        <time>2013-03-10T10:08:46Z</time>
      </trkpt>
      <trkpt lat="45.84949" lon="3.55094">
        <ele>411.3</ele>
        <time>2013-03-10T10:08:48Z</time>
      </trkpt>
      <trkpt lat="45.84953" lon="3.55098">
        <ele>410.4</ele>
        <time>2013-03-10T10:08:50Z</time>
      </trkpt>
      <trkpt lat="45.84957" lon="3.55103">
        <ele>409.5</ele>
        <time>2013-03-10T10:08:52Z</time>
      </trkpt>
      <trkpt lat="45.84962" lon="3.55111">
        <ele>408.5</ele>
        <time>2013-03-10T10:08:54Z</time>
      </trkpt>
      <trkpt lat="45.84965" lon="3.55116">
        <ele>408.1</ele>
        <time>2013-03-10T10:08:56Z</time>
      </trkpt>
      <trkpt lat="45.84968" lon="3.5512">
        <ele>407.6</ele>
        <time>2013-03-10T10:08:58Z</time>
      </trkpt>
      <trkpt lat="45.84971" lon="3.55126">
        <ele>407.1</ele>
        <time>2013-03-10T10:09:00Z</time>
      </trkpt>
      <trkpt lat="45.84973" lon="3.55131">
        <ele>407</ele>
        <time>2013-03-10T10:09:02Z</time>
      </trkpt>
      <trkpt lat="45.84975" lon="3.55138">
        <ele>406.7</ele>
        <time>2013-03-10T10:09:04Z</time>
      </trkpt>
      <trkpt lat="45.84977" lon="3.55145">
        <ele>406.7</ele>
        <time>2013-03-10T10:09:06Z</time>
      </trkpt>
      <trkpt lat="45.84979" lon="3.55151">
        <ele>406.5</ele>
        <time>2013-03-10T10:09:08Z</time>
      </trkpt>
      <trkpt lat="45.8498" lon="3.55154">
        <ele>406.4</ele>
        <time>2013-03-10T10:09:10Z</time>
      </trkpt>
      <trkpt lat="45.84981" lon="3.5516">
        <ele>406.3</ele>
        <time>2013-03-10T10:09:12Z</time>
      </trkpt>
      <trkpt lat="45.84984" lon="3.55167">
        <ele>405.5</ele>
        <time>2013-03-10T10:09:14Z</time>
      </trkpt>
      <trkpt lat="45.84987" lon="3.55173">
        <ele>406</ele>
        <time>2013-03-10T10:09:16Z</time>
      </trkpt>
      <trkpt lat="45.8499" lon="3.55178">
        <ele>406</ele>
        <time>2013-03-10T10:09:18Z</time>
      </trkpt>
      <trkpt lat="45.84993" lon="3.55183">
        <ele>406.3</ele>
        <time>2013-03-10T10:09:20Z</time>
      </trkpt>
      <trkpt lat="45.84996" lon="3.55187">
        <ele>406.2</ele>
        <time>2013-03-10T10:09:22Z</time>
      </trkpt>
      <trkpt lat="45.85" lon="3.5519">
        <ele>405.8</ele>
        <time>2013-03-10T10:09:24Z</time>
      </trkpt>
      <trkpt lat="45.85004" lon="3.55192">
        <ele>405.2</ele>
        <time>2013-03-10T10:09:26Z</time>
      </trkpt>
      <trkpt lat="45.85007" lon="3.55196">
        <ele>405.2</ele>
        <time>2013-03-10T10:09:28Z</time>
      </trkpt>
      <trkpt lat="45.8501" lon="3.552">
        <ele>405</ele>
        <time>2013-03-10T10:09:30Z</time>
      </trkpt>
      <trkpt lat="45.85013" lon="3.55205">
        <ele>404.9</ele>
        <time>2013-03-10T10:09:32Z</time>
      </trkpt>
      <trkpt lat="45.85016" lon="3.5521">
        <ele>404.8</ele>
        <time>2013-03-10T10:09:34Z</time>
      </trkpt>
      <trkpt lat="45.85019" lon="3.55216">
        <ele>404.7</ele>
        <time>2013-03-10T10:09:36Z</time>
      </trkpt>
      <trkpt lat="45.85022" lon="3.55223">
        <ele>405</ele>
        <time>2013-03-10T10:09:38Z</time>
      </trkpt>
      <trkpt lat="45.85025" lon="3.55229">
        <ele>405.3</ele>
        <time>2013-03-10T10:09:40Z</time>
      </trkpt>
      <trkpt lat="45.85028" lon="3.55235">
        <ele>405.6</ele>
        <time>2013-03-10T10:09:42Z</time>
      </trkpt>
      <trkpt lat="45.8503" lon="3.55241">
        <ele>404.9</ele>
        <time>2013-03-10T10:09:44Z</time>
      </trkpt>
      <trkpt lat="45.85032" lon="3.55247">
        <ele>405.1</ele>
        <time>2013-03-10T10:09:46Z</time>
      </trkpt>
      <trkpt lat="45.85033" lon="3.55254">
        <ele>405.2</ele>
        <time>2013-03-10T10:09:48Z</time>
      </trkpt>
      <trkpt lat="45.85034" lon="3.55261">
        <ele>405.2</ele>
        <time>2013-03-10T10:09:50Z</time>
      </trkpt>
      <trkpt lat="45.85034" lon="3.55268">
        <ele>405.6</ele>
        <time>2013-03-10T10:09:52Z</time>
      </trkpt>
      <trkpt lat="45.85035" lon="3.55274">
        <ele>405.9</ele>
        <time>2013-03-10T10:09:54Z</time>
      </trkpt>
      <trkpt lat="45.85037" lon="3.55281">
        <ele>406.4</ele>
        <time>2013-03-10T10:09:56Z</time>
      </trkpt>
      <trkpt lat="45.85038" lon="3.55288">
        <ele>408.1</ele>
        <time>2013-03-10T10:09:58Z</time>
      </trkpt>
      <trkpt lat="45.8504" lon="3.55295">
        <ele>409.2</ele>
        <time>2013-03-10T10:10:00Z</time>
      </trkpt>
      <trkpt lat="45.85043" lon="3.553">
        <ele>410</ele>
        <time>2013-03-10T10:10:02Z</time>
      </trkpt>
      <trkpt lat="45.85047" lon="3.55302">
        <ele>410</ele>
        <time>2013-03-10T10:10:04Z</time>
      </trkpt>
      <trkpt lat="45.85051" lon="3.55301">
        <ele>409.2</ele>
        <time>2013-03-10T10:10:06Z</time>
      </trkpt>
      <trkpt lat="45.85055" lon="3.55299">
        <ele>407.6</ele>
        <time>2013-03-10T10:10:08Z</time>
      </trkpt>
      <trkpt lat="45.8506" lon="3.55295">
        <ele>407.3</ele>
        <time>2013-03-10T10:10:10Z</time>
      </trkpt>
      <trkpt lat="45.85062" lon="3.5529">
        <ele>406.7</ele>
        <time>2013-03-10T10:10:12Z</time>
      </trkpt>
      <trkpt lat="45.85065" lon="3.55287">
        <ele>406.4</ele>
        <time>2013-03-10T10:10:14Z</time>
      </trkpt>
      <trkpt lat="45.85069" lon="3.55282">
        <ele>406</ele>
        <time>2013-03-10T10:10:16Z</time>
      </trkpt>
      <trkpt lat="45.85072" lon="3.55279">
        <ele>406.1</ele>
        <time>2013-03-10T10:10:18Z</time>
      </trkpt>
      <trkpt lat="45.85076" lon="3.55277">
        <ele>406.7</ele>
        <time>2013-03-10T10:10:20Z</time>
      </trkpt>
      <trkpt lat="45.8508" lon="3.55276">
        <ele>407.4</ele>
        <time>2013-03-10T10:10:22Z</time>
      </trkpt>
      <trkpt lat="45.85084" lon="3.55276">
        <ele>409.2</ele>
        <time>2013-03-10T10:10:24Z</time>
      </trkpt>
      <trkpt lat="45.85087" lon="3.55277">
        <ele>409.8</ele>
        <time>2013-03-10T10:10:26Z</time>
      </trkpt>
      <trkpt lat="45.85089" lon="3.55277">
        <ele>409.9</ele>
        <time>2013-03-10T10:10:28Z</time>
      </trkpt>
      <trkpt lat="45.85093" lon="3.55277">
        <ele>410.5</ele>
        <time>2013-03-10T10:10:30Z</time>
      </trkpt>
      <trkpt lat="45.85096" lon="3.55276">
        <ele>410.5</ele>
        <time>2013-03-10T10:10:32Z</time>
      </trkpt>
      <trkpt lat="45.85099" lon="3.55276">
        <ele>410.6</ele>
        <time>2013-03-10T10:10:34Z</time>
      </trkpt>
      <trkpt lat="45.85099" lon="3.55276">
        <ele>410.6</ele>
        <time>2013-03-10T10:10:36Z</time>
      </trkpt>
      <trkpt lat="45.851" lon="3.55276">
        <ele>410.7</ele>
        <time>2013-03-10T10:10:38Z</time>
      </trkpt>
      <trkpt lat="45.85102" lon="3.55276">
        <ele>410.9</ele>
        <time>2013-03-10T10:10:40Z</time>
      </trkpt>
      <trkpt lat="45.85104" lon="3.55277">
        <ele>411.8</ele>
        <time>2013-03-10T10:10:42Z</time>
      </trkpt>
      <trkpt lat="45.85107" lon="3.55278">
        <ele>412.4</ele>
        <time>2013-03-10T10:10:44Z</time>
      </trkpt>
      <trkpt lat="45.85109" lon="3.55279">
        <ele>413.1</ele>
        <time>2013-03-10T10:10:46Z</time>
      </trkpt>
      <trkpt lat="45.85112" lon="3.55279">
        <ele>413.5</ele>
        <time>2013-03-10T10:10:48Z</time>
      </trkpt>
      <trkpt lat="45.85115" lon="3.5528">
        <ele>413.3</ele>
        <time>2013-03-10T10:10:50Z</time>
      </trkpt>
      <trkpt lat="45.85117" lon="3.55282">
        <ele>413.5</ele>
        <time>2013-03-10T10:10:52Z</time>
      </trkpt>
      <trkpt lat="45.85119" lon="3.55283">
        <ele>413.7</ele>
        <time>2013-03-10T10:10:54Z</time>
      </trkpt>
      <trkpt lat="45.85121" lon="3.55284">
        <ele>413.9</ele>
        <time>2013-03-10T10:10:56Z</time>
      </trkpt>
      <trkpt lat="45.85124" lon="3.55286">
        <ele>414.1</ele>
        <time>2013-03-10T10:10:58Z</time>
      </trkpt>
      <trkpt lat="45.85126" lon="3.55288">
        <ele>414.5</ele>
        <time>2013-03-10T10:11:00Z</time>
      </trkpt>
      <trkpt lat="45.85128" lon="3.55289">
        <ele>414.8</ele>
        <time>2013-03-10T10:11:02Z</time>
      </trkpt>
      <trkpt lat="45.8513" lon="3.5529">
        <ele>414.9</ele>
        <time>2013-03-10T10:11:04Z</time>
      </trkpt>
      <trkpt lat="45.85133" lon="3.55291">
        <ele>414.8</ele>
        <time>2013-03-10T10:11:06Z</time>
      </trkpt>
      <trkpt lat="45.85135" lon="3.55293">
        <ele>415.2</ele>
        <time>2013-03-10T10:11:08Z</time>
      </trkpt>
      <trkpt lat="45.85137" lon="3.55293">
        <ele>415</ele>
        <time>2013-03-10T10:11:10Z</time>
      </trkpt>
      <trkpt lat="45.85138" lon="3.55294">
        <ele>415.2</ele>
        <time>2013-03-10T10:11:12Z</time>
      </trkpt>
      <trkpt lat="45.85138" lon="3.55294">
        <ele>415.3</ele>
        <time>2013-03-10T10:11:14Z</time>
      </trkpt>
      <trkpt lat="45.8514" lon="3.55295">
        <ele>415.3</ele>
        <time>2013-03-10T10:11:16Z</time>
      </trkpt>
      <trkpt lat="45.85143" lon="3.55296">
        <ele>415.6</ele>
        <time>2013-03-10T10:11:18Z</time>
      </trkpt>
      <trkpt lat="45.85145" lon="3.55296">
        <ele>415.3</ele>
        <time>2013-03-10T10:11:20Z</time>
      </trkpt>
      <trkpt lat="45.85148" lon="3.55297">
        <ele>415.4</ele>
        <time>2013-03-10T10:11:22Z</time>
      </trkpt>
      <trkpt lat="45.85152" lon="3.55296">
        <ele>414.9</ele>
        <time>2013-03-10T10:11:24Z</time>
      </trkpt>
      <trkpt lat="45.85156" lon="3.55297">
        <ele>414.7</ele>
        <time>2013-03-10T10:11:26Z</time>
      </trkpt>
      <trkpt lat="45.85161" lon="3.55298">
        <ele>414.6</ele>
        <time>2013-03-10T10:11:28Z</time>
      </trkpt>
      <trkpt lat="45.85164" lon="3.55299">
        <ele>414.9</ele>
        <time>2013-03-10T10:11:30Z</time>
      </trkpt>
      <trkpt lat="45.85166" lon="3.55301">
        <ele>415.2</ele>
        <time>2013-03-10T10:11:32Z</time>
      </trkpt>
      <trkpt lat="45.85169" lon="3.55302">
        <ele>415.5</ele>
        <time>2013-03-10T10:11:34Z</time>
      </trkpt>
      <trkpt lat="45.85172" lon="3.55303">
        <ele>415.8</ele>
        <time>2013-03-10T10:11:36Z</time>
      </trkpt>
      <trkpt lat="45.85175" lon="3.55304">
        <ele>415.9</ele>
        <time>2013-03-10T10:11:38Z</time>
      </trkpt>
      <trkpt lat="45.85178" lon="3.55305">
        <ele>415.9</ele>
        <time>2013-03-10T10:11:40Z</time>
      </trkpt>
      <trkpt lat="45.85181" lon="3.55305">
        <ele>415.7</ele>
        <time>2013-03-10T10:11:42Z</time>
      </trkpt>
      <trkpt lat="45.85184" lon="3.55306">
        <ele>415.8</ele>
        <time>2013-03-10T10:11:44Z</time>
      </trkpt>
      <trkpt lat="45.85186" lon="3.55306">
        <ele>415.9</ele>
        <time>2013-03-10T10:11:46Z</time>
      </trkpt>
      <trkpt lat="45.85188" lon="3.55307">
        <ele>416</ele>
        <time>2013-03-10T10:11:48Z</time>
      </trkpt>
      <trkpt lat="45.85191" lon="3.55308">
        <ele>416.1</ele>
        <time>2013-03-10T10:11:50Z</time>
      </trkpt>
      <trkpt lat="45.85191" lon="3.55308">
        <ele>416.2</ele>
        <time>2013-03-10T10:11:52Z</time>
      </trkpt>
      <trkpt lat="45.85194" lon="3.55308">
        <ele>416.1</ele>
        <time>2013-03-10T10:11:54Z</time>
      </trkpt>
      <trkpt lat="45.85196" lon="3.55308">
        <ele>416</ele>
        <time>2013-03-10T10:11:56Z</time>
      </trkpt>
      <trkpt lat="45.85198" lon="3.55307">
        <ele>415.6</ele>
        <time>2013-03-10T10:11:58Z</time>
      </trkpt>
      <trkpt lat="45.85199" lon="3.55306">
        <ele>415.3</ele>
        <time>2013-03-10T10:12:00Z</time>
      </trkpt>
      <trkpt lat="45.85199" lon="3.55306">
        <ele>415.2</ele>
        <time>2013-03-10T10:12:02Z</time>
      </trkpt>
      <trkpt lat="45.852" lon="3.55306">
        <ele>415.2</ele>
        <time>2013-03-10T10:12:04Z</time>
      </trkpt>
      <trkpt lat="45.85201" lon="3.55306">
        <ele>415.3</ele>
        <time>2013-03-10T10:12:06Z</time>
      </trkpt>
      <trkpt lat="45.85203" lon="3.55305">
        <ele>415.1</ele>
        <time>2013-03-10T10:12:08Z</time>
      </trkpt>
      <trkpt lat="45.85206" lon="3.55305">
        <ele>415.3</ele>
        <time>2013-03-10T10:12:10Z</time>
      </trkpt>
      <trkpt lat="45.85209" lon="3.55306">
        <ele>415.7</ele>
        <time>2013-03-10T10:12:12Z</time>
      </trkpt>
      <trkpt lat="45.85211" lon="3.55307">
        <ele>416.1</ele>
        <time>2013-03-10T10:12:14Z</time>
      </trkpt>
      <trkpt lat="45.85214" lon="3.55308">
        <ele>416.5</ele>
        <time>2013-03-10T10:12:16Z</time>
      </trkpt>
      <trkpt lat="45.85217" lon="3.55309">
        <ele>416.8</ele>
        <time>2013-03-10T10:12:18Z</time>
      </trkpt>
      <trkpt lat="45.8522" lon="3.5531">
        <ele>417.3</ele>
        <time>2013-03-10T10:12:20Z</time>
      </trkpt>
      <trkpt lat="45.85224" lon="3.55314">
        <ele>418.3</ele>
        <time>2013-03-10T10:12:22Z</time>
      </trkpt>
      <trkpt lat="45.85227" lon="3.55317">
        <ele>419.2</ele>
        <time>2013-03-10T10:12:24Z</time>
      </trkpt>
      <trkpt lat="45.8523" lon="3.55319">
        <ele>419.7</ele>
        <time>2013-03-10T10:12:26Z</time>
      </trkpt>
      <trkpt lat="45.85234" lon="3.55323">
        <ele>420.5</ele>
        <time>2013-03-10T10:12:28Z</time>
      </trkpt>
      <trkpt lat="45.85236" lon="3.55327">
        <ele>421.3</ele>
        <time>2013-03-10T10:12:30Z</time>
      </trkpt>
      <trkpt lat="45.8524" lon="3.55329">
        <ele>421.6</ele>
        <time>2013-03-10T10:12:32Z</time>
      </trkpt>
      <trkpt lat="45.85244" lon="3.55331">
        <ele>422</ele>
        <time>2013-03-10T10:12:34Z</time>
      </trkpt>
      <trkpt lat="45.85248" lon="3.55333">
        <ele>422</ele>
        <time>2013-03-10T10:12:36Z</time>
      </trkpt>
      <trkpt lat="45.85252" lon="3.55334">
        <ele>422</ele>
        <time>2013-03-10T10:12:38Z</time>
      </trkpt>
      <trkpt lat="45.85254" lon="3.55336">
        <ele>422.5</ele>
        <time>2013-03-10T10:12:40Z</time>
      </trkpt>
      <trkpt lat="45.85256" lon="3.55339">
        <ele>422.9</ele>
        <time>2013-03-10T10:12:42Z</time>
      </trkpt>
      <trkpt lat="45.85256" lon="3.55341">
        <ele>423.5</ele>
        <time>2013-03-10T10:12:44Z</time>
      </trkpt>
      <trkpt lat="45.85257" lon="3.55347">
        <ele>424.8</ele>
        <time>2013-03-10T10:12:46Z</time>
      </trkpt>
      <trkpt lat="45.85259" lon="3.5535">
        <ele>425.6</ele>
        <time>2013-03-10T10:12:48Z</time>
      </trkpt>
      <trkpt lat="45.8526" lon="3.55355">
        <ele>426.7</ele>
        <time>2013-03-10T10:12:50Z</time>
      </trkpt>
      <trkpt lat="45.85261" lon="3.55359">
        <ele>427.6</ele>
        <time>2013-03-10T10:12:52Z</time>
      </trkpt>
      <trkpt lat="45.85264" lon="3.55363">
        <ele>428.4</ele>
        <time>2013-03-10T10:12:54Z</time>
      </trkpt>
      <trkpt lat="45.85265" lon="3.55367">
        <ele>429.6</ele>
        <time>2013-03-10T10:12:56Z</time>
      </trkpt>
      <trkpt lat="45.85267" lon="3.55372">
        <ele>430.5</ele>
        <time>2013-03-10T10:12:58Z</time>
      </trkpt>
      <trkpt lat="45.85268" lon="3.55375">
        <ele>431.2</ele>
        <time>2013-03-10T10:13:00Z</time>
      </trkpt>
      <trkpt lat="45.85271" lon="3.55377">
        <ele>431.4</ele>
        <time>2013-03-10T10:13:02Z</time>
      </trkpt>
      <trkpt lat="45.85272" lon="3.5538">
        <ele>432</ele>
        <time>2013-03-10T10:13:04Z</time>
      </trkpt>
      <trkpt lat="45.85272" lon="3.55385">
        <ele>433</ele>
        <time>2013-03-10T10:13:06Z</time>
      </trkpt>
      <trkpt lat="45.85272" lon="3.55389">
        <ele>433.9</ele>
        <time>2013-03-10T10:13:08Z</time>
      </trkpt>
      <trkpt lat="45.85273" lon="3.55391">
        <ele>434.4</ele>
        <time>2013-03-10T10:13:10Z</time>
      </trkpt>
      <trkpt lat="45.85273" lon="3.55395">
        <ele>435.2</ele>
        <time>2013-03-10T10:13:12Z</time>
      </trkpt>
      <trkpt lat="45.85274" lon="3.55398">
        <ele>436</ele>
        <time>2013-03-10T10:13:14Z</time>
      </trkpt>
      <trkpt lat="45.85274" lon="3.55402">
        <ele>436.9</ele>
        <time>2013-03-10T10:13:16Z</time>
      </trkpt>
      <trkpt lat="45.85276" lon="3.55406">
        <ele>437.6</ele>
        <time>2013-03-10T10:13:18Z</time>
      </trkpt>
      <trkpt lat="45.85277" lon="3.55409">
        <ele>438.3</ele>
        <time>2013-03-10T10:13:20Z</time>
      </trkpt>
      <trkpt lat="45.85278" lon="3.55412">
        <ele>438.8</ele>
        <time>2013-03-10T10:13:22Z</time>
      </trkpt>
      <trkpt lat="45.85279" lon="3.55415">
        <ele>439.3</ele>
        <time>2013-03-10T10:13:24Z</time>
      </trkpt>
      <trkpt lat="45.85281" lon="3.55417">
        <ele>439.9</ele>
        <time>2013-03-10T10:13:26Z</time>
      </trkpt>
      <trkpt lat="45.85282" lon="3.5542">
        <ele>440.6</ele>
        <time>2013-03-10T10:13:28Z</time>
      </trkpt>
      <trkpt lat="45.85283" lon="3.55422">
        <ele>441.2</ele>
        <time>2013-03-10T10:13:30Z</time>
      </trkpt>
      <trkpt lat="45.85284" lon="3.55426">
        <ele>442</ele>
        <time>2013-03-10T10:13:32Z</time>
      </trkpt>
      <trkpt lat="45.85285" lon="3.55429">
        <ele>442.8</ele>
        <time>2013-03-10T10:13:34Z</time>
      </trkpt>
      <trkpt lat="45.85286" lon="3.55432">
        <ele>443.7</ele>
        <time>2013-03-10T10:13:36Z</time>
      </trkpt>
      <trkpt lat="45.85287" lon="3.55434">
        <ele>444.3</ele>
        <time>2013-03-10T10:13:38Z</time>
      </trkpt>
      <trkpt lat="45.85288" lon="3.55437">
        <ele>444.9</ele>
        <time>2013-03-10T10:13:40Z</time>
      </trkpt>
      <trkpt lat="45.85289" lon="3.55439">
        <ele>445.4</ele>
        <time>2013-03-10T10:13:42Z</time>
      </trkpt>
      <trkpt lat="45.8529" lon="3.55441">
        <ele>445.8</ele>
        <time>2013-03-10T10:13:44Z</time>
      </trkpt>
      <trkpt lat="45.85292" lon="3.55444">
        <ele>446.3</ele>
        <time>2013-03-10T10:13:46Z</time>
      </trkpt>
      <trkpt lat="45.85293" lon="3.55446">
        <ele>446.8</ele>
        <time>2013-03-10T10:13:48Z</time>
      </trkpt>
      <trkpt lat="45.85294" lon="3.55449">
        <ele>447.2</ele>
        <time>2013-03-10T10:13:50Z</time>
      </trkpt>
      <trkpt lat="45.85295" lon="3.55451">
        <ele>447.6</ele>
        <time>2013-03-10T10:13:52Z</time>
      </trkpt>
      <trkpt lat="45.85295" lon="3.55453">
        <ele>448.2</ele>
        <time>2013-03-10T10:13:54Z</time>
      </trkpt>
      <trkpt lat="45.85297" lon="3.55456">
        <ele>448.6</ele>
        <time>2013-03-10T10:13:56Z</time>
      </trkpt>
      <trkpt lat="45.85298" lon="3.55458">
        <ele>449.1</ele>
        <time>2013-03-10T10:13:58Z</time>
      </trkpt>
      <trkpt lat="45.85298" lon="3.55461">
        <ele>449.5</ele>
        <time>2013-03-10T10:14:00Z</time>
      </trkpt>
      <trkpt lat="45.85299" lon="3.55464">
        <ele>450.2</ele>
        <time>2013-03-10T10:14:02Z</time>
      </trkpt>
      <trkpt lat="45.853" lon="3.55468">
        <ele>451.1</ele>
        <time>2013-03-10T10:14:04Z</time>
      </trkpt>
      <trkpt lat="45.853" lon="3.5547">
        <ele>451.6</ele>
        <time>2013-03-10T10:14:06Z</time>
      </trkpt>
      <trkpt lat="45.85301" lon="3.55472">
        <ele>451.9</ele>
        <time>2013-03-10T10:14:08Z</time>
      </trkpt>
      <trkpt lat="45.85302" lon="3.55473">
        <ele>452.2</ele>
        <time>2013-03-10T10:14:10Z</time>
      </trkpt>
      <trkpt lat="45.85302" lon="3.55475">
        <ele>452.6</ele>
        <time>2013-03-10T10:14:12Z</time>
      </trkpt>
      <trkpt lat="45.85301" lon="3.55476">
        <ele>453.2</ele>
        <time>2013-03-10T10:14:14Z</time>
      </trkpt>
      <trkpt lat="45.853" lon="3.55477">
        <ele>453.5</ele>
        <time>2013-03-10T10:14:16Z</time>
      </trkpt>
      <trkpt lat="45.85299" lon="3.55478">
        <ele>453.9</ele>
        <time>2013-03-10T10:14:18Z</time>
      </trkpt>
      <trkpt lat="45.85298" lon="3.55478">
        <ele>454.2</ele>
        <time>2013-03-10T10:14:20Z</time>
      </trkpt>
      <trkpt lat="45.85297" lon="3.55479">
        <ele>454.7</ele>
        <time>2013-03-10T10:14:22Z</time>
      </trkpt>
      <trkpt lat="45.85296" lon="3.5548">
        <ele>455.1</ele>
        <time>2013-03-10T10:14:24Z</time>
      </trkpt>
      <trkpt lat="45.85296" lon="3.5548">
        <ele>455.3</ele>
        <time>2013-03-10T10:14:26Z</time>
      </trkpt>
      <trkpt lat="45.85296" lon="3.55482">
        <ele>455.6</ele>
        <time>2013-03-10T10:14:28Z</time>
      </trkpt>
      <trkpt lat="45.85296" lon="3.55484">
        <ele>456.1</ele>
        <time>2013-03-10T10:14:30Z</time>
      </trkpt>
      <trkpt lat="45.85296" lon="3.55486">
        <ele>456.9</ele>
        <time>2013-03-10T10:14:32Z</time>
      </trkpt>
      <trkpt lat="45.85297" lon="3.55487">
        <ele>457</ele>
        <time>2013-03-10T10:14:34Z</time>
      </trkpt>
      <trkpt lat="45.85299" lon="3.5549">
        <ele>457.4</ele>
        <time>2013-03-10T10:14:36Z</time>
      </trkpt>
      <trkpt lat="45.853" lon="3.55492">
        <ele>457.8</ele>
        <time>2013-03-10T10:14:38Z</time>
      </trkpt>
      <trkpt lat="45.853" lon="3.55493">
        <ele>457.9</ele>
        <time>2013-03-10T10:14:40Z</time>
      </trkpt>
      <trkpt lat="45.85302" lon="3.55496">
        <ele>458.4</ele>
        <time>2013-03-10T10:14:42Z</time>
      </trkpt>
      <trkpt lat="45.85304" lon="3.55499">
        <ele>459</ele>
        <time>2013-03-10T10:14:44Z</time>
      </trkpt>
      <trkpt lat="45.85307" lon="3.55502">
        <ele>459.2</ele>
        <time>2013-03-10T10:14:46Z</time>
      </trkpt>
      <trkpt lat="45.85309" lon="3.55505">
        <ele>459.5</ele>
        <time>2013-03-10T10:14:48Z</time>
      </trkpt>
      <trkpt lat="45.8531" lon="3.55508">
        <ele>459.8</ele>
        <time>2013-03-10T10:14:50Z</time>
      </trkpt>
      <trkpt lat="45.85313" lon="3.5551">
        <ele>459.9</ele>
        <time>2013-03-10T10:14:52Z</time>
      </trkpt>
      <trkpt lat="45.85314" lon="3.55513">
        <ele>460.2</ele>
        <time>2013-03-10T10:14:54Z</time>
      </trkpt>
      <trkpt lat="45.85316" lon="3.55515">
        <ele>460.4</ele>
        <time>2013-03-10T10:14:56Z</time>
      </trkpt>
      <trkpt lat="45.85318" lon="3.55518">
        <ele>460.7</ele>
        <time>2013-03-10T10:14:58Z</time>
      </trkpt>
      <trkpt lat="45.85319" lon="3.55521">
        <ele>461</ele>
        <time>2013-03-10T10:15:00Z</time>
      </trkpt>
      <trkpt lat="45.85322" lon="3.55523">
        <ele>461.1</ele>
        <time>2013-03-10T10:15:02Z</time>
      </trkpt>
      <trkpt lat="45.85324" lon="3.55525">
        <ele>461.2</ele>
        <time>2013-03-10T10:15:04Z</time>
      </trkpt>
      <trkpt lat="45.85325" lon="3.55528">
        <ele>461.5</ele>
        <time>2013-03-10T10:15:06Z</time>
      </trkpt>
      <trkpt lat="45.85327" lon="3.5553">
        <ele>461.8</ele>
        <time>2013-03-10T10:15:08Z</time>
      </trkpt>
      <trkpt lat="45.85329" lon="3.55533">
        <ele>462</ele>
        <time>2013-03-10T10:15:10Z</time>
      </trkpt>
      <trkpt lat="45.85331" lon="3.55535">
        <ele>462.1</ele>
        <time>2013-03-10T10:15:12Z</time>
      </trkpt>
      <trkpt lat="45.85333" lon="3.55537">
        <ele>462.1</ele>
        <time>2013-03-10T10:15:14Z</time>
      </trkpt>
      <trkpt lat="45.85335" lon="3.5554">
        <ele>462.6</ele>
        <time>2013-03-10T10:15:16Z</time>
      </trkpt>
      <trkpt lat="45.85337" lon="3.55543">
        <ele>463.4</ele>
        <time>2013-03-10T10:15:18Z</time>
      </trkpt>
      <trkpt lat="45.85339" lon="3.55545">
        <ele>464</ele>
        <time>2013-03-10T10:15:20Z</time>
      </trkpt>
      <trkpt lat="45.85342" lon="3.55548">
        <ele>464.7</ele>
        <time>2013-03-10T10:15:22Z</time>
      </trkpt>
      <trkpt lat="45.85344" lon="3.5555">
        <ele>465.1</ele>
        <time>2013-03-10T10:15:24Z</time>
      </trkpt>
      <trkpt lat="45.85347" lon="3.55551">
        <ele>465.5</ele>
        <time>2013-03-10T10:15:26Z</time>
      </trkpt>
      <trkpt lat="45.85349" lon="3.55552">
        <ele>465.8</ele>
        <time>2013-03-10T10:15:28Z</time>
      </trkpt>
      <trkpt lat="45.85352" lon="3.55553">
        <ele>466.1</ele>
        <time>2013-03-10T10:15:30Z</time>
      </trkpt>
      <trkpt lat="45.85355" lon="3.55553">
        <ele>466.3</ele>
        <time>2013-03-10T10:15:32Z</time>
      </trkpt>
      <trkpt lat="45.85359" lon="3.55554">
        <ele>466.5</ele>
        <time>2013-03-10T10:15:34Z</time>
      </trkpt>
      <trkpt lat="45.85364" lon="3.55553">
        <ele>466.8</ele>
        <time>2013-03-10T10:15:36Z</time>
      </trkpt>
      <trkpt lat="45.85368" lon="3.55552">
        <ele>467.2</ele>
        <time>2013-03-10T10:15:38Z</time>
      </trkpt>
      <trkpt lat="45.85372" lon="3.55551">
        <ele>467.5</ele>
        <time>2013-03-10T10:15:40Z</time>
      </trkpt>
      <trkpt lat="45.85374" lon="3.5555">
        <ele>467.5</ele>
        <time>2013-03-10T10:15:42Z</time>
      </trkpt>
      <trkpt lat="45.8538" lon="3.55547">
        <ele>467.8</ele>
        <time>2013-03-10T10:15:44Z</time>
      </trkpt>
      <trkpt lat="45.85382" lon="3.55546">
        <ele>467.9</ele>
        <time>2013-03-10T10:15:46Z</time>
      </trkpt>
      <trkpt lat="45.85385" lon="3.55545">
        <ele>468</ele>
        <time>2013-03-10T10:15:48Z</time>
      </trkpt>
      <trkpt lat="45.85387" lon="3.55544">
        <ele>468.1</ele>
        <time>2013-03-10T10:15:50Z</time>
      </trkpt>
      <trkpt lat="45.8539" lon="3.55542">
        <ele>468.2</ele>
        <time>2013-03-10T10:15:52Z</time>
      </trkpt>
      <trkpt lat="45.85394" lon="3.55542">
        <ele>468.2</ele>
        <time>2013-03-10T10:15:54Z</time>
      </trkpt>
      <trkpt lat="45.85398" lon="3.55541">
        <ele>468.2</ele>
        <time>2013-03-10T10:15:56Z</time>
      </trkpt>
      <trkpt lat="45.85402" lon="3.55541">
        <ele>468.3</ele>
        <time>2013-03-10T10:15:58Z</time>
      </trkpt>
      <trkpt lat="45.85407" lon="3.55541">
        <ele>468.5</ele>
        <time>2013-03-10T10:16:00Z</time>
      </trkpt>
      <trkpt lat="45.85411" lon="3.55542">
        <ele>468.8</ele>
        <time>2013-03-10T10:16:02Z</time>
      </trkpt>
      <trkpt lat="45.85416" lon="3.55543">
        <ele>469.2</ele>
        <time>2013-03-10T10:16:04Z</time>
      </trkpt>
      <trkpt lat="45.85421" lon="3.55546">
        <ele>469.6</ele>
        <time>2013-03-10T10:16:06Z</time>
      </trkpt>
      <trkpt lat="45.85426" lon="3.5555">
        <ele>470.2</ele>
        <time>2013-03-10T10:16:08Z</time>
      </trkpt>
      <trkpt lat="45.8543" lon="3.55555">
        <ele>471</ele>
        <time>2013-03-10T10:16:10Z</time>
      </trkpt>
      <trkpt lat="45.85433" lon="3.55562">
        <ele>470.8</ele>
        <time>2013-03-10T10:16:12Z</time>
      </trkpt>
      <trkpt lat="45.85435" lon="3.55569">
        <ele>470.4</ele>
        <time>2013-03-10T10:16:14Z</time>
      </trkpt>
      <trkpt lat="45.85436" lon="3.55577">
        <ele>470</ele>
        <time>2013-03-10T10:16:16Z</time>
      </trkpt>
      <trkpt lat="45.85435" lon="3.55585">
        <ele>469.7</ele>
        <time>2013-03-10T10:16:18Z</time>
      </trkpt>
      <trkpt lat="45.85434" lon="3.55592">
        <ele>468.9</ele>
        <time>2013-03-10T10:16:20Z</time>
      </trkpt>
      <trkpt lat="45.85433" lon="3.55599">
        <ele>468</ele>
        <time>2013-03-10T10:16:22Z</time>
      </trkpt>
      <trkpt lat="45.85432" lon="3.55606">
        <ele>467</ele>
        <time>2013-03-10T10:16:24Z</time>
      </trkpt>
      <trkpt lat="45.8543" lon="3.55612">
        <ele>466.5</ele>
        <time>2013-03-10T10:16:26Z</time>
      </trkpt>
      <trkpt lat="45.85426" lon="3.55619">
        <ele>466.2</ele>
        <time>2013-03-10T10:16:28Z</time>
      </trkpt>
      <trkpt lat="45.85422" lon="3.55626">
        <ele>465.7</ele>
        <time>2013-03-10T10:16:30Z</time>
      </trkpt>
      <trkpt lat="45.8542" lon="3.55633">
        <ele>464.8</ele>
        <time>2013-03-10T10:16:32Z</time>
      </trkpt>
      <trkpt lat="45.85418" lon="3.5564">
        <ele>463.9</ele>
        <time>2013-03-10T10:16:34Z</time>
      </trkpt>
      <trkpt lat="45.85417" lon="3.55647">
        <ele>464.3</ele>
        <time>2013-03-10T10:16:36Z</time>
      </trkpt>
      <trkpt lat="45.85419" lon="3.55657">
        <ele>464.5</ele>
        <time>2013-03-10T10:16:38Z</time>
      </trkpt>
      <trkpt lat="45.85423" lon="3.55661">
        <ele>464.5</ele>
        <time>2013-03-10T10:16:40Z</time>
      </trkpt>
      <trkpt lat="45.85428" lon="3.55663">
        <ele>464.4</ele>
        <time>2013-03-10T10:16:42Z</time>
      </trkpt>
      <trkpt lat="45.85433" lon="3.55663">
        <ele>464.2</ele>
        <time>2013-03-10T10:16:44Z</time>
      </trkpt>
      <trkpt lat="45.85437" lon="3.55664">
        <ele>464.1</ele>
        <time>2013-03-10T10:16:46Z</time>
      </trkpt>
      <trkpt lat="45.85442" lon="3.55664">
        <ele>463.9</ele>
        <time>2013-03-10T10:16:48Z</time>
      </trkpt>
      <trkpt lat="45.85446" lon="3.55666">
        <ele>463.9</ele>
        <time>2013-03-10T10:16:50Z</time>
      </trkpt>
      <trkpt lat="45.8545" lon="3.55666">
        <ele>463.7</ele>
        <time>2013-03-10T10:16:52Z</time>
      </trkpt>
      <trkpt lat="45.85455" lon="3.55666">
        <ele>463.5</ele>
        <time>2013-03-10T10:16:54Z</time>
      </trkpt>
      <trkpt lat="45.8546" lon="3.55666">
        <ele>463.2</ele>
        <time>2013-03-10T10:16:56Z</time>
      </trkpt>
      <trkpt lat="45.85465" lon="3.55665">
        <ele>462.7</ele>
        <time>2013-03-10T10:16:58Z</time>
      </trkpt>
      <trkpt lat="45.85469" lon="3.55662">
        <ele>461.6</ele>
        <time>2013-03-10T10:17:00Z</time>
      </trkpt>
      <trkpt lat="45.85471" lon="3.55662">
        <ele>461.2</ele>
        <time>2013-03-10T10:17:02Z</time>
      </trkpt>
      <trkpt lat="45.85476" lon="3.5566">
        <ele>460.8</ele>
        <time>2013-03-10T10:17:04Z</time>
      </trkpt>
      <trkpt lat="45.85482" lon="3.5566">
        <ele>460.9</ele>
        <time>2013-03-10T10:17:06Z</time>
      </trkpt>
      <trkpt lat="45.85487" lon="3.55659">
        <ele>461</ele>
        <time>2013-03-10T10:17:08Z</time>
      </trkpt>
      <trkpt lat="45.85492" lon="3.55657">
        <ele>460.7</ele>
        <time>2013-03-10T10:17:10Z</time>
      </trkpt>
      <trkpt lat="45.85495" lon="3.55657">
        <ele>460.6</ele>
        <time>2013-03-10T10:17:12Z</time>
      </trkpt>
      <trkpt lat="45.85501" lon="3.55654">
        <ele>460</ele>
        <time>2013-03-10T10:17:14Z</time>
      </trkpt>
      <trkpt lat="45.85506" lon="3.55652">
        <ele>459.8</ele>
        <time>2013-03-10T10:17:16Z</time>
      </trkpt>
      <trkpt lat="45.85511" lon="3.55651">
        <ele>459.6</ele>
        <time>2013-03-10T10:17:18Z</time>
      </trkpt>
      <trkpt lat="45.85516" lon="3.55649">
        <ele>459.1</ele>
        <time>2013-03-10T10:17:20Z</time>
      </trkpt>
      <trkpt lat="45.85521" lon="3.55646">
        <ele>458.7</ele>
        <time>2013-03-10T10:17:22Z</time>
      </trkpt>
      <trkpt lat="45.85526" lon="3.55644">
        <ele>458.3</ele>
        <time>2013-03-10T10:17:24Z</time>
      </trkpt>
      <trkpt lat="45.85531" lon="3.5564">
        <ele>457.9</ele>
        <time>2013-03-10T10:17:26Z</time>
      </trkpt>
      <trkpt lat="45.85535" lon="3.55638">
        <ele>457.5</ele>
        <time>2013-03-10T10:17:28Z</time>
      </trkpt>
      <trkpt lat="45.85539" lon="3.55635">
        <ele>457.2</ele>
        <time>2013-03-10T10:17:30Z</time>
      </trkpt>
      <trkpt lat="45.85543" lon="3.55633">
        <ele>457.1</ele>
        <time>2013-03-10T10:17:32Z</time>
      </trkpt>
      <trkpt lat="45.85548" lon="3.55631">
        <ele>457</ele>
        <time>2013-03-10T10:17:34Z</time>
      </trkpt>
      <trkpt lat="45.85552" lon="3.55628">
        <ele>456.9</ele>
        <time>2013-03-10T10:17:36Z</time>
      </trkpt>
      <trkpt lat="45.85556" lon="3.55624">
        <ele>456.4</ele>
        <time>2013-03-10T10:17:38Z</time>
      </trkpt>
      <trkpt lat="45.8556" lon="3.5562">
        <ele>456</ele>
        <time>2013-03-10T10:17:40Z</time>
      </trkpt>
      <trkpt lat="45.85564" lon="3.55617">
        <ele>456.2</ele>
        <time>2013-03-10T10:17:42Z</time>
      </trkpt>
      <trkpt lat="45.85569" lon="3.55614">
        <ele>456.2</ele>
        <time>2013-03-10T10:17:44Z</time>
      </trkpt>
      <trkpt lat="45.85572" lon="3.5561">
        <ele>456</ele>
        <time>2013-03-10T10:17:46Z</time>
      </trkpt>
      <trkpt lat="45.85575" lon="3.55606">
        <ele>456</ele>
        <time>2013-03-10T10:17:48Z</time>
      </trkpt>
      <trkpt lat="45.85579" lon="3.55602">
        <ele>456.4</ele>
        <time>2013-03-10T10:17:50Z</time>
      </trkpt>
      <trkpt lat="45.85584" lon="3.55599">
        <ele>457.2</ele>
        <time>2013-03-10T10:17:52Z</time>
      </trkpt>
      <trkpt lat="45.85588" lon="3.55597">
        <ele>457</ele>
        <time>2013-03-10T10:17:54Z</time>
      </trkpt>
      <trkpt lat="45.85594" lon="3.55595">
        <ele>456.8</ele>
        <time>2013-03-10T10:17:56Z</time>
      </trkpt>
      <trkpt lat="45.85598" lon="3.55595">
        <ele>456.8</ele>
        <time>2013-03-10T10:17:58Z</time>
      </trkpt>
      <trkpt lat="45.85601" lon="3.55592">
        <ele>456.5</ele>
        <time>2013-03-10T10:18:00Z</time>
      </trkpt>
      <trkpt lat="45.85601" lon="3.55587">
        <ele>455.6</ele>
        <time>2013-03-10T10:18:02Z</time>
      </trkpt>
      <trkpt lat="45.85601" lon="3.55582">
        <ele>454.7</ele>
        <time>2013-03-10T10:18:04Z</time>
      </trkpt>
      <trkpt lat="45.85601" lon="3.55577">
        <ele>453.4</ele>
        <time>2013-03-10T10:18:06Z</time>
      </trkpt>
      <trkpt lat="45.85601" lon="3.55571">
        <ele>452.1</ele>
        <time>2013-03-10T10:18:08Z</time>
      </trkpt>
      <trkpt lat="45.85601" lon="3.55567">
        <ele>451.1</ele>
        <time>2013-03-10T10:18:10Z</time>
      </trkpt>
      <trkpt lat="45.856" lon="3.55562">
        <ele>449.9</ele>
        <time>2013-03-10T10:18:12Z</time>
      </trkpt>
      <trkpt lat="45.85602" lon="3.55558">
        <ele>448.8</ele>
        <time>2013-03-10T10:18:14Z</time>
      </trkpt>
      <trkpt lat="45.85607" lon="3.55556">
        <ele>448.4</ele>
        <time>2013-03-10T10:18:16Z</time>
      </trkpt>
      <trkpt lat="45.85612" lon="3.55558">
        <ele>448.4</ele>
        <time>2013-03-10T10:18:18Z</time>
      </trkpt>
      <trkpt lat="45.85615" lon="3.55558">
        <ele>447.8</ele>
        <time>2013-03-10T10:18:20Z</time>
      </trkpt>
      <trkpt lat="45.8562" lon="3.55558">
        <ele>446.7</ele>
        <time>2013-03-10T10:18:22Z</time>
      </trkpt>
      <trkpt lat="45.85625" lon="3.55555">
        <ele>444.8</ele>
        <time>2013-03-10T10:18:24Z</time>
      </trkpt>
      <trkpt lat="45.85628" lon="3.55548">
        <ele>443</ele>
        <time>2013-03-10T10:18:26Z</time>
      </trkpt>
      <trkpt lat="45.8563" lon="3.55544">
        <ele>442.2</ele>
        <time>2013-03-10T10:18:28Z</time>
      </trkpt>
      <trkpt lat="45.85631" lon="3.55539">
        <ele>441.4</ele>
        <time>2013-03-10T10:18:30Z</time>
      </trkpt>
      <trkpt lat="45.85632" lon="3.55536">
        <ele>440.8</ele>
        <time>2013-03-10T10:18:32Z</time>
      </trkpt>
      <trkpt lat="45.85633" lon="3.55532">
        <ele>440.3</ele>
        <time>2013-03-10T10:18:34Z</time>
      </trkpt>
      <trkpt lat="45.85636" lon="3.55527">
        <ele>439.7</ele>
        <time>2013-03-10T10:18:36Z</time>
      </trkpt>
      <trkpt lat="45.8564" lon="3.55522">
        <ele>438.7</ele>
        <time>2013-03-10T10:18:38Z</time>
      </trkpt>
      <trkpt lat="45.85642" lon="3.55516">
        <ele>436.5</ele>
        <time>2013-03-10T10:18:40Z</time>
      </trkpt>
      <trkpt lat="45.85645" lon="3.5551">
        <ele>434.4</ele>
        <time>2013-03-10T10:18:42Z</time>
      </trkpt>
      <trkpt lat="45.85648" lon="3.55504">
        <ele>432.4</ele>
        <time>2013-03-10T10:18:44Z</time>
      </trkpt>
      <trkpt lat="45.8565" lon="3.55499">
        <ele>430.6</ele>
        <time>2013-03-10T10:18:46Z</time>
      </trkpt>
      <trkpt lat="45.85648" lon="3.55493">
        <ele>429.8</ele>
        <time>2013-03-10T10:18:48Z</time>
      </trkpt>
      <trkpt lat="45.85647" lon="3.55486">
        <ele>428.6</ele>
        <time>2013-03-10T10:18:50Z</time>
      </trkpt>
      <trkpt lat="45.85645" lon="3.55478">
        <ele>427.6</ele>
        <time>2013-03-10T10:18:52Z</time>
      </trkpt>
      <trkpt lat="45.85644" lon="3.55471">
        <ele>426.6</ele>
        <time>2013-03-10T10:18:54Z</time>
      </trkpt>
      <trkpt lat="45.85643" lon="3.55465">
        <ele>425.5</ele>
        <time>2013-03-10T10:18:56Z</time>
      </trkpt>
      <trkpt lat="45.85641" lon="3.55459">
        <ele>425.7</ele>
        <time>2013-03-10T10:18:58Z</time>
      </trkpt>
      <trkpt lat="45.85639" lon="3.55453">
        <ele>425.8</ele>
        <time>2013-03-10T10:19:00Z</time>
      </trkpt>
      <trkpt lat="45.85637" lon="3.55448">
        <ele>424.2</ele>
        <time>2013-03-10T10:19:02Z</time>
      </trkpt>
      <trkpt lat="45.85635" lon="3.55445">
        <ele>422.8</ele>
        <time>2013-03-10T10:19:04Z</time>
      </trkpt>
      <trkpt lat="45.85633" lon="3.55442">
        <ele>421.7</ele>
        <time>2013-03-10T10:19:06Z</time>
      </trkpt>
      <trkpt lat="45.85632" lon="3.55436">
        <ele>419.6</ele>
        <time>2013-03-10T10:19:08Z</time>
      </trkpt>
      <trkpt lat="45.8563" lon="3.55431">
        <ele>417.6</ele>
        <time>2013-03-10T10:19:10Z</time>
      </trkpt>
      <trkpt lat="45.85628" lon="3.55425">
        <ele>415.7</ele>
        <time>2013-03-10T10:19:12Z</time>
      </trkpt>
      <trkpt lat="45.85625" lon="3.55416">
        <ele>413.3</ele>
        <time>2013-03-10T10:19:14Z</time>
      </trkpt>
      <trkpt lat="45.85623" lon="3.55411">
        <ele>412</ele>
        <time>2013-03-10T10:19:16Z</time>
      </trkpt>
      <trkpt lat="45.85621" lon="3.55406">
        <ele>410.9</ele>
        <time>2013-03-10T10:19:18Z</time>
      </trkpt>
      <trkpt lat="45.85619" lon="3.554">
        <ele>410</ele>
        <time>2013-03-10T10:19:20Z</time>
      </trkpt>
      <trkpt lat="45.85619" lon="3.55397">
        <ele>409.7</ele>
        <time>2013-03-10T10:19:22Z</time>
      </trkpt>
      <trkpt lat="45.85616" lon="3.55394">
        <ele>409.7</ele>
        <time>2013-03-10T10:19:24Z</time>
      </trkpt>
      <trkpt lat="45.85614" lon="3.5539">
        <ele>410.1</ele>
        <time>2013-03-10T10:19:26Z</time>
      </trkpt>
      <trkpt lat="45.85612" lon="3.55386">
        <ele>410.1</ele>
        <time>2013-03-10T10:19:28Z</time>
      </trkpt>
      <trkpt lat="45.85611" lon="3.55382">
        <ele>409.8</ele>
        <time>2013-03-10T10:19:30Z</time>
      </trkpt>
      <trkpt lat="45.85611" lon="3.55378">
        <ele>408.8</ele>
        <time>2013-03-10T10:19:32Z</time>
      </trkpt>
      <trkpt lat="45.85611" lon="3.55373">
        <ele>408.2</ele>
        <time>2013-03-10T10:19:34Z</time>
      </trkpt>
      <trkpt lat="45.85611" lon="3.55369">
        <ele>407.2</ele>
        <time>2013-03-10T10:19:36Z</time>
      </trkpt>
      <trkpt lat="45.85612" lon="3.55366">
        <ele>406.5</ele>
        <time>2013-03-10T10:19:38Z</time>
      </trkpt>
      <trkpt lat="45.85612" lon="3.55363">
        <ele>405.7</ele>
        <time>2013-03-10T10:19:40Z</time>
      </trkpt>
      <trkpt lat="45.85613" lon="3.5536">
        <ele>404.7</ele>
        <time>2013-03-10T10:19:42Z</time>
      </trkpt>
      <trkpt lat="45.85613" lon="3.55356">
        <ele>403.3</ele>
        <time>2013-03-10T10:19:44Z</time>
      </trkpt>
      <trkpt lat="45.85614" lon="3.55353">
        <ele>401.9</ele>
        <time>2013-03-10T10:19:46Z</time>
      </trkpt>
      <trkpt lat="45.85615" lon="3.5535">
        <ele>400.4</ele>
        <time>2013-03-10T10:19:48Z</time>
      </trkpt>
      <trkpt lat="45.85616" lon="3.55346">
        <ele>398.9</ele>
        <time>2013-03-10T10:19:50Z</time>
      </trkpt>
      <trkpt lat="45.85616" lon="3.55344">
        <ele>398.1</ele>
        <time>2013-03-10T10:19:52Z</time>
      </trkpt>
      <trkpt lat="45.85617" lon="3.5534">
        <ele>396.9</ele>
        <time>2013-03-10T10:19:54Z</time>
      </trkpt>
      <trkpt lat="45.85617" lon="3.55336">
        <ele>395.6</ele>
        <time>2013-03-10T10:19:56Z</time>
      </trkpt>
      <trkpt lat="45.85618" lon="3.55331">
        <ele>394.4</ele>
        <time>2013-03-10T10:19:58Z</time>
      </trkpt>
      <trkpt lat="45.85619" lon="3.55326">
        <ele>393.2</ele>
        <time>2013-03-10T10:20:00Z</time>
      </trkpt>
      <trkpt lat="45.85621" lon="3.5532">
        <ele>392.2</ele>
        <time>2013-03-10T10:20:02Z</time>
      </trkpt>
      <trkpt lat="45.85624" lon="3.55315">
        <ele>390.9</ele>
        <time>2013-03-10T10:20:04Z</time>
      </trkpt>
      <trkpt lat="45.85627" lon="3.55309">
        <ele>390.2</ele>
        <time>2013-03-10T10:20:06Z</time>
      </trkpt>
      <trkpt lat="45.85629" lon="3.55304">
        <ele>389.9</ele>
        <time>2013-03-10T10:20:08Z</time>
      </trkpt>
      <trkpt lat="45.85631" lon="3.55299">
        <ele>390.2</ele>
        <time>2013-03-10T10:20:10Z</time>
      </trkpt>
      <trkpt lat="45.85632" lon="3.55297">
        <ele>390.2</ele>
        <time>2013-03-10T10:20:12Z</time>
      </trkpt>
      <trkpt lat="45.85632" lon="3.55298">
        <ele>390.1</ele>
        <time>2013-03-10T10:20:14Z</time>
      </trkpt>
      <trkpt lat="45.85632" lon="3.55298">
        <ele>390</ele>
        <time>2013-03-10T10:20:16Z</time>
      </trkpt>
      <trkpt lat="45.85632" lon="3.55299">
        <ele>389.9</ele>
        <time>2013-03-10T10:20:18Z</time>
      </trkpt>
      <trkpt lat="45.85632" lon="3.55301">
        <ele>389.7</ele>
        <time>2013-03-10T10:20:20Z</time>
      </trkpt>
      <trkpt lat="45.85632" lon="3.55301">
        <ele>389.7</ele>
        <time>2013-03-10T10:20:22Z</time>
      </trkpt>
      <trkpt lat="45.85633" lon="3.55301">
        <ele>389.7</ele>
        <time>2013-03-10T10:20:24Z</time>
      </trkpt>
      <trkpt lat="45.85632" lon="3.55301">
        <ele>389.7</ele>
        <time>2013-03-10T10:20:26Z</time>
      </trkpt>
      <trkpt lat="45.85632" lon="3.553">
        <ele>389.8</ele>
        <time>2013-03-10T10:20:28Z</time>
      </trkpt>
      <trkpt lat="45.85632" lon="3.553">
        <ele>389.9</ele>
        <time>2013-03-10T10:20:30Z</time>
      </trkpt>
      <trkpt lat="45.85631" lon="3.55299">
        <ele>390</ele>
        <time>2013-03-10T10:20:32Z</time>
      </trkpt>
      <trkpt lat="45.8563" lon="3.55299">
        <ele>390.1</ele>
        <time>2013-03-10T10:20:34Z</time>
      </trkpt>
      <trkpt lat="45.8563" lon="3.55299">
        <ele>390.2</ele>
        <time>2013-03-10T10:20:36Z</time>
      </trkpt>
      <trkpt lat="45.8563" lon="3.55299">
        <ele>390.2</ele>
        <time>2013-03-10T10:20:38Z</time>
      </trkpt>
      <trkpt lat="45.8563" lon="3.55299">
        <ele>390.2</ele>
        <time>2013-03-10T10:20:40Z</time>
      </trkpt>
      <trkpt lat="45.85629" lon="3.55299">
        <ele>390.3</ele>
        <time>2013-03-10T10:20:42Z</time>
      </trkpt>
      <trkpt lat="45.85628" lon="3.55299">
        <ele>390.5</ele>
        <time>2013-03-10T10:20:44Z</time>
      </trkpt>
      <trkpt lat="45.85625" lon="3.55299">
        <ele>390.7</ele>
        <time>2013-03-10T10:20:46Z</time>
      </trkpt>
      <trkpt lat="45.85622" lon="3.55296">
        <ele>391.1</ele>
        <time>2013-03-10T10:20:48Z</time>
      </trkpt>
      <trkpt lat="45.85618" lon="3.55291">
        <ele>391.2</ele>
        <time>2013-03-10T10:20:50Z</time>
      </trkpt>
      <trkpt lat="45.85616" lon="3.55286">
        <ele>391</ele>
        <time>2013-03-10T10:20:52Z</time>
      </trkpt>
      <trkpt lat="45.85614" lon="3.55284">
        <ele>390.8</ele>
        <time>2013-03-10T10:20:54Z</time>
      </trkpt>
      <trkpt lat="45.85611" lon="3.55278">
        <ele>389.8</ele>
        <time>2013-03-10T10:20:56Z</time>
      </trkpt>
      <trkpt lat="45.85607" lon="3.55274">
        <ele>387.7</ele>
        <time>2013-03-10T10:20:58Z</time>
      </trkpt>
      <trkpt lat="45.85603" lon="3.55272">
        <ele>385.9</ele>
        <time>2013-03-10T10:21:00Z</time>
      </trkpt>
      <trkpt lat="45.85599" lon="3.55276">
        <ele>384.4</ele>
        <time>2013-03-10T10:21:02Z</time>
      </trkpt>
      <trkpt lat="45.85595" lon="3.55281">
        <ele>383.6</ele>
        <time>2013-03-10T10:21:04Z</time>
      </trkpt>
      <trkpt lat="45.85593" lon="3.55288">
        <ele>383.5</ele>
        <time>2013-03-10T10:21:06Z</time>
      </trkpt>
      <trkpt lat="45.8559" lon="3.55295">
        <ele>383.2</ele>
        <time>2013-03-10T10:21:08Z</time>
      </trkpt>
      <trkpt lat="45.85587" lon="3.55299">
        <ele>382.5</ele>
        <time>2013-03-10T10:21:10Z</time>
      </trkpt>
      <trkpt lat="45.85584" lon="3.55304">
        <ele>381.9</ele>
        <time>2013-03-10T10:21:12Z</time>
      </trkpt>
      <trkpt lat="45.8558" lon="3.55306">
        <ele>381.5</ele>
        <time>2013-03-10T10:21:14Z</time>
      </trkpt>
      <trkpt lat="45.85575" lon="3.55309">
        <ele>381.2</ele>
        <time>2013-03-10T10:21:16Z</time>
      </trkpt>
      <trkpt lat="45.85572" lon="3.55311">
        <ele>381</ele>
        <time>2013-03-10T10:21:18Z</time>
      </trkpt>
      <trkpt lat="45.85568" lon="3.55312">
        <ele>380.5</ele>
        <time>2013-03-10T10:21:20Z</time>
      </trkpt>
      <trkpt lat="45.85564" lon="3.55313">
        <ele>379.9</ele>
        <time>2013-03-10T10:21:22Z</time>
      </trkpt>
      <trkpt lat="45.85562" lon="3.55311">
        <ele>379.2</ele>
        <time>2013-03-10T10:21:24Z</time>
      </trkpt>
      <trkpt lat="45.85561" lon="3.55309">
        <ele>378.6</ele>
        <time>2013-03-10T10:21:26Z</time>
      </trkpt>
      <trkpt lat="45.85559" lon="3.55304">
        <ele>377.4</ele>
        <time>2013-03-10T10:21:28Z</time>
      </trkpt>
      <trkpt lat="45.85559" lon="3.55297">
        <ele>376.3</ele>
        <time>2013-03-10T10:21:30Z</time>
      </trkpt>
      <trkpt lat="45.85559" lon="3.5529">
        <ele>375.2</ele>
        <time>2013-03-10T10:21:32Z</time>
      </trkpt>
      <trkpt lat="45.85559" lon="3.55283">
        <ele>374.3</ele>
        <time>2013-03-10T10:21:34Z</time>
      </trkpt>
      <trkpt lat="45.85561" lon="3.55274">
        <ele>373.4</ele>
        <time>2013-03-10T10:21:36Z</time>
      </trkpt>
      <trkpt lat="45.85563" lon="3.55267">
        <ele>372.6</ele>
        <time>2013-03-10T10:21:38Z</time>
      </trkpt>
      <trkpt lat="45.85564" lon="3.5526">
        <ele>371.8</ele>
        <time>2013-03-10T10:21:40Z</time>
      </trkpt>
      <trkpt lat="45.85567" lon="3.55254">
        <ele>371.2</ele>
        <time>2013-03-10T10:21:42Z</time>
      </trkpt>
      <trkpt lat="45.85568" lon="3.55247">
        <ele>370.4</ele>
        <time>2013-03-10T10:21:44Z</time>
      </trkpt>
      <trkpt lat="45.85568" lon="3.55241">
        <ele>369.4</ele>
        <time>2013-03-10T10:21:46Z</time>
      </trkpt>
      <trkpt lat="45.85567" lon="3.55235">
        <ele>368.3</ele>
        <time>2013-03-10T10:21:48Z</time>
      </trkpt>
      <trkpt lat="45.85566" lon="3.55225">
        <ele>366.6</ele>
        <time>2013-03-10T10:21:50Z</time>
      </trkpt>
      <trkpt lat="45.85565" lon="3.55218">
        <ele>365.5</ele>
        <time>2013-03-10T10:21:52Z</time>
      </trkpt>
      <trkpt lat="45.85564" lon="3.55211">
        <ele>364.3</ele>
        <time>2013-03-10T10:21:54Z</time>
      </trkpt>
      <trkpt lat="45.85563" lon="3.55204">
        <ele>363</ele>
        <time>2013-03-10T10:21:56Z</time>
      </trkpt>
      <trkpt lat="45.85561" lon="3.55197">
        <ele>361.9</ele>
        <time>2013-03-10T10:21:58Z</time>
      </trkpt>
      <trkpt lat="45.8556" lon="3.5519">
        <ele>360.9</ele>
        <time>2013-03-10T10:22:00Z</time>
      </trkpt>
      <trkpt lat="45.85558" lon="3.55183">
        <ele>359.9</ele>
        <time>2013-03-10T10:22:02Z</time>
      </trkpt>
      <trkpt lat="45.85554" lon="3.55177">
        <ele>359.1</ele>
        <time>2013-03-10T10:22:04Z</time>
      </trkpt>
      <trkpt lat="45.85551" lon="3.55172">
        <ele>358.4</ele>
        <time>2013-03-10T10:22:06Z</time>
      </trkpt>
      <trkpt lat="45.85549" lon="3.55166">
        <ele>357.3</ele>
        <time>2013-03-10T10:22:08Z</time>
      </trkpt>
      <trkpt lat="45.85548" lon="3.5516">
        <ele>356.1</ele>
        <time>2013-03-10T10:22:10Z</time>
      </trkpt>
      <trkpt lat="45.85547" lon="3.55157">
        <ele>355.6</ele>
        <time>2013-03-10T10:22:12Z</time>
      </trkpt>
      <trkpt lat="45.85547" lon="3.5515">
        <ele>354.3</ele>
        <time>2013-03-10T10:22:14Z</time>
      </trkpt>
      <trkpt lat="45.85546" lon="3.55145">
        <ele>353.3</ele>
        <time>2013-03-10T10:22:16Z</time>
      </trkpt>
      <trkpt lat="45.85544" lon="3.55138">
        <ele>352.3</ele>
        <time>2013-03-10T10:22:18Z</time>
      </trkpt>
      <trkpt lat="45.85544" lon="3.55133">
        <ele>352.9</ele>
        <time>2013-03-10T10:22:20Z</time>
      </trkpt>
      <trkpt lat="45.85543" lon="3.55126">
        <ele>353.8</ele>
        <time>2013-03-10T10:22:22Z</time>
      </trkpt>
      <trkpt lat="45.85542" lon="3.5512">
        <ele>354.7</ele>
        <time>2013-03-10T10:22:24Z</time>
      </trkpt>
      <trkpt lat="45.8554" lon="3.55115">
        <ele>355.7</ele>
        <time>2013-03-10T10:22:26Z</time>
      </trkpt>
      <trkpt lat="45.85539" lon="3.55109">
        <ele>357.5</ele>
        <time>2013-03-10T10:22:28Z</time>
      </trkpt>
      <trkpt lat="45.85536" lon="3.55105">
        <ele>359.5</ele>
        <time>2013-03-10T10:22:30Z</time>
      </trkpt>
      <trkpt lat="45.85533" lon="3.55106">
        <ele>359.9</ele>
        <time>2013-03-10T10:22:32Z</time>
      </trkpt>
      <trkpt lat="45.85529" lon="3.55109">
        <ele>359.7</ele>
        <time>2013-03-10T10:22:34Z</time>
      </trkpt>
      <trkpt lat="45.85526" lon="3.5511">
        <ele>358.8</ele>
        <time>2013-03-10T10:22:36Z</time>
      </trkpt>
      <trkpt lat="45.85523" lon="3.55112">
        <ele>357.8</ele>
        <time>2013-03-10T10:22:38Z</time>
      </trkpt>
      <trkpt lat="45.85519" lon="3.55113">
        <ele>356.7</ele>
        <time>2013-03-10T10:22:40Z</time>
      </trkpt>
      <trkpt lat="45.85515" lon="3.55113">
        <ele>355.8</ele>
        <time>2013-03-10T10:22:42Z</time>
      </trkpt>
      <trkpt lat="45.85511" lon="3.55111">
        <ele>355.3</ele>
        <time>2013-03-10T10:22:44Z</time>
      </trkpt>
      <trkpt lat="45.85508" lon="3.55109">
        <ele>355.4</ele>
        <time>2013-03-10T10:22:46Z</time>
      </trkpt>
      <trkpt lat="45.85504" lon="3.55106">
        <ele>355.6</ele>
        <time>2013-03-10T10:22:48Z</time>
      </trkpt>
      <trkpt lat="45.855" lon="3.55103">
        <ele>356</ele>
        <time>2013-03-10T10:22:50Z</time>
      </trkpt>
      <trkpt lat="45.85496" lon="3.55099">
        <ele>356.4</ele>
        <time>2013-03-10T10:22:52Z</time>
      </trkpt>
      <trkpt lat="45.85493" lon="3.55094">
        <ele>357</ele>
        <time>2013-03-10T10:22:54Z</time>
      </trkpt>
      <trkpt lat="45.8549" lon="3.55087">
        <ele>357.8</ele>
        <time>2013-03-10T10:22:56Z</time>
      </trkpt>
      <trkpt lat="45.85486" lon="3.55081">
        <ele>357.2</ele>
        <time>2013-03-10T10:22:58Z</time>
      </trkpt>
      <trkpt lat="45.85481" lon="3.55076">
        <ele>356.4</ele>
        <time>2013-03-10T10:23:00Z</time>
      </trkpt>
      <trkpt lat="45.85477" lon="3.55071">
        <ele>355.3</ele>
        <time>2013-03-10T10:23:02Z</time>
      </trkpt>
      <trkpt lat="45.85473" lon="3.55067">
        <ele>354</ele>
        <time>2013-03-10T10:23:04Z</time>
      </trkpt>
      <trkpt lat="45.85469" lon="3.55063">
        <ele>354.2</ele>
        <time>2013-03-10T10:23:06Z</time>
      </trkpt>
      <trkpt lat="45.85464" lon="3.55056">
        <ele>354.3</ele>
        <time>2013-03-10T10:23:08Z</time>
      </trkpt>
      <trkpt lat="45.85461" lon="3.55051">
        <ele>354.4</ele>
        <time>2013-03-10T10:23:10Z</time>
      </trkpt>
      <trkpt lat="45.85457" lon="3.55047">
        <ele>354.4</ele>
        <time>2013-03-10T10:23:12Z</time>
      </trkpt>
      <trkpt lat="45.85454" lon="3.55042">
        <ele>354.4</ele>
        <time>2013-03-10T10:23:14Z</time>
      </trkpt>
      <trkpt lat="45.85451" lon="3.55038">
        <ele>354.4</ele>
        <time>2013-03-10T10:23:16Z</time>
      </trkpt>
      <trkpt lat="45.85447" lon="3.55033">
        <ele>354</ele>
        <time>2013-03-10T10:23:18Z</time>
      </trkpt>
      <trkpt lat="45.85444" lon="3.55028">
        <ele>353.8</ele>
        <time>2013-03-10T10:23:20Z</time>
      </trkpt>
      <trkpt lat="45.8544" lon="3.55024">
        <ele>354.5</ele>
        <time>2013-03-10T10:23:22Z</time>
      </trkpt>
      <trkpt lat="45.85436" lon="3.5502">
        <ele>354.7</ele>
        <time>2013-03-10T10:23:24Z</time>
      </trkpt>
      <trkpt lat="45.85432" lon="3.55017">
        <ele>354.5</ele>
        <time>2013-03-10T10:23:26Z</time>
      </trkpt>
      <trkpt lat="45.85427" lon="3.55015">
        <ele>353.7</ele>
        <time>2013-03-10T10:23:28Z</time>
      </trkpt>
      <trkpt lat="45.85425" lon="3.55014">
        <ele>353.3</ele>
        <time>2013-03-10T10:23:30Z</time>
      </trkpt>
      <trkpt lat="45.8542" lon="3.55013">
        <ele>352.1</ele>
        <time>2013-03-10T10:23:32Z</time>
      </trkpt>
      <trkpt lat="45.85414" lon="3.55012">
        <ele>351.4</ele>
        <time>2013-03-10T10:23:34Z</time>
      </trkpt>
      <trkpt lat="45.85408" lon="3.55011">
        <ele>351.6</ele>
        <time>2013-03-10T10:23:36Z</time>
      </trkpt>
      <trkpt lat="45.85402" lon="3.55012">
        <ele>351.6</ele>
        <time>2013-03-10T10:23:38Z</time>
      </trkpt>
      <trkpt lat="45.85398" lon="3.55013">
        <ele>351.6</ele>
        <time>2013-03-10T10:23:40Z</time>
      </trkpt>
      <trkpt lat="45.85393" lon="3.55014">
        <ele>351.4</ele>
        <time>2013-03-10T10:23:42Z</time>
      </trkpt>
      <trkpt lat="45.85388" lon="3.55015">
        <ele>351.3</ele>
        <time>2013-03-10T10:23:44Z</time>
      </trkpt>
      <trkpt lat="45.85385" lon="3.55016">
        <ele>351.1</ele>
        <time>2013-03-10T10:23:46Z</time>
      </trkpt>
      <trkpt lat="45.85381" lon="3.55019">
        <ele>350.5</ele>
        <time>2013-03-10T10:23:48Z</time>
      </trkpt>
      <trkpt lat="45.85376" lon="3.55021">
        <ele>349.9</ele>
        <time>2013-03-10T10:23:50Z</time>
      </trkpt>
      <trkpt lat="45.85371" lon="3.55019">
        <ele>350.3</ele>
        <time>2013-03-10T10:23:52Z</time>
      </trkpt>
      <trkpt lat="45.85366" lon="3.55017">
        <ele>350.7</ele>
        <time>2013-03-10T10:23:54Z</time>
      </trkpt>
      <trkpt lat="45.85362" lon="3.55015">
        <ele>351.2</ele>
        <time>2013-03-10T10:23:56Z</time>
      </trkpt>
      <trkpt lat="45.85358" lon="3.55012">
        <ele>351.8</ele>
        <time>2013-03-10T10:23:58Z</time>
      </trkpt>
      <trkpt lat="45.85354" lon="3.55011">
        <ele>352.1</ele>
        <time>2013-03-10T10:24:00Z</time>
      </trkpt>
      <trkpt lat="45.85351" lon="3.5501">
        <ele>352.3</ele>
        <time>2013-03-10T10:24:02Z</time>
      </trkpt>
      <trkpt lat="45.85348" lon="3.55009">
        <ele>352.4</ele>
        <time>2013-03-10T10:24:04Z</time>
      </trkpt>
      <trkpt lat="45.85344" lon="3.55009">
        <ele>352.4</ele>
        <time>2013-03-10T10:24:06Z</time>
      </trkpt>
      <trkpt lat="45.85341" lon="3.55008">
        <ele>352.4</ele>
        <time>2013-03-10T10:24:08Z</time>
      </trkpt>
      <trkpt lat="45.85338" lon="3.55006">
        <ele>352.8</ele>
        <time>2013-03-10T10:24:10Z</time>
      </trkpt>
      <trkpt lat="45.85334" lon="3.55006">
        <ele>352.7</ele>
        <time>2013-03-10T10:24:12Z</time>
      </trkpt>
      <trkpt lat="45.85332" lon="3.55007">
        <ele>352.5</ele>
        <time>2013-03-10T10:24:14Z</time>
      </trkpt>
      <trkpt lat="45.85331" lon="3.55007">
        <ele>352.5</ele>
        <time>2013-03-10T10:24:16Z</time>
      </trkpt>
      <trkpt lat="45.8533" lon="3.55007">
        <ele>352.5</ele>
        <time>2013-03-10T10:24:18Z</time>
      </trkpt>
      <trkpt lat="45.85328" lon="3.55008">
        <ele>352.3</ele>
        <time>2013-03-10T10:24:20Z</time>
      </trkpt>
      <trkpt lat="45.85326" lon="3.55008">
        <ele>352.3</ele>
        <time>2013-03-10T10:24:22Z</time>
      </trkpt>
      <trkpt lat="45.85325" lon="3.55007">
        <ele>352.5</ele>
        <time>2013-03-10T10:24:24Z</time>
      </trkpt>
      <trkpt lat="45.85324" lon="3.55005">
        <ele>352.9</ele>
        <time>2013-03-10T10:24:26Z</time>
      </trkpt>
      <trkpt lat="45.85323" lon="3.55004">
        <ele>353.1</ele>
        <time>2013-03-10T10:24:28Z</time>
      </trkpt>
      <trkpt lat="45.85323" lon="3.55003">
        <ele>353.4</ele>
        <time>2013-03-10T10:24:30Z</time>
      </trkpt>
      <trkpt lat="45.85322" lon="3.55">
        <ele>354.1</ele>
        <time>2013-03-10T10:24:32Z</time>
      </trkpt>
      <trkpt lat="45.85323" lon="3.54995">
        <ele>356.3</ele>
        <time>2013-03-10T10:24:34Z</time>
      </trkpt>
      <trkpt lat="45.85325" lon="3.54992">
        <ele>357.9</ele>
        <time>2013-03-10T10:24:36Z</time>
      </trkpt>
      <trkpt lat="45.85328" lon="3.54989">
        <ele>358.9</ele>
        <time>2013-03-10T10:24:38Z</time>
      </trkpt>
      <trkpt lat="45.85331" lon="3.54987">
        <ele>359.8</ele>
        <time>2013-03-10T10:24:40Z</time>
      </trkpt>
      <trkpt lat="45.85333" lon="3.54985">
        <ele>360.6</ele>
        <time>2013-03-10T10:24:42Z</time>
      </trkpt>
      <trkpt lat="45.85336" lon="3.54983">
        <ele>361.4</ele>
        <time>2013-03-10T10:24:44Z</time>
      </trkpt>
      <trkpt lat="45.85337" lon="3.54982">
        <ele>361.8</ele>
        <time>2013-03-10T10:24:46Z</time>
      </trkpt>
      <trkpt lat="45.85339" lon="3.54981">
        <ele>362.5</ele>
        <time>2013-03-10T10:24:48Z</time>
      </trkpt>
      <trkpt lat="45.85341" lon="3.54979">
        <ele>363.3</ele>
        <time>2013-03-10T10:24:50Z</time>
      </trkpt>
      <trkpt lat="45.85344" lon="3.54978">
        <ele>363.9</ele>
        <time>2013-03-10T10:24:52Z</time>
      </trkpt>
      <trkpt lat="45.85346" lon="3.54977">
        <ele>364.3</ele>
        <time>2013-03-10T10:24:54Z</time>
      </trkpt>
      <trkpt lat="45.85348" lon="3.54976">
        <ele>365.1</ele>
        <time>2013-03-10T10:24:56Z</time>
      </trkpt>
      <trkpt lat="45.85351" lon="3.54974">
        <ele>365.8</ele>
        <time>2013-03-10T10:24:58Z</time>
      </trkpt>
      <trkpt lat="45.85353" lon="3.54972">
        <ele>366.7</ele>
        <time>2013-03-10T10:25:00Z</time>
      </trkpt>
      <trkpt lat="45.85355" lon="3.54971">
        <ele>367.4</ele>
        <time>2013-03-10T10:25:02Z</time>
      </trkpt>
      <trkpt lat="45.85357" lon="3.54969">
        <ele>368.1</ele>
        <time>2013-03-10T10:25:04Z</time>
      </trkpt>
      <trkpt lat="45.85358" lon="3.54967">
        <ele>368.7</ele>
        <time>2013-03-10T10:25:06Z</time>
      </trkpt>
      <trkpt lat="45.85359" lon="3.54966">
        <ele>369.3</ele>
        <time>2013-03-10T10:25:08Z</time>
      </trkpt>
      <trkpt lat="45.8536" lon="3.54964">
        <ele>370.1</ele>
        <time>2013-03-10T10:25:10Z</time>
      </trkpt>
      <trkpt lat="45.85361" lon="3.54962">
        <ele>370.8</ele>
        <time>2013-03-10T10:25:12Z</time>
      </trkpt>
      <trkpt lat="45.85363" lon="3.5496">
        <ele>371.5</ele>
        <time>2013-03-10T10:25:14Z</time>
      </trkpt>
      <trkpt lat="45.85364" lon="3.54958">
        <ele>372.2</ele>
        <time>2013-03-10T10:25:16Z</time>
      </trkpt>
      <trkpt lat="45.85366" lon="3.54957">
        <ele>372.8</ele>
        <time>2013-03-10T10:25:18Z</time>
      </trkpt>
      <trkpt lat="45.85369" lon="3.54956">
        <ele>373.2</ele>
        <time>2013-03-10T10:25:20Z</time>
      </trkpt>
      <trkpt lat="45.85371" lon="3.54956">
        <ele>373.6</ele>
        <time>2013-03-10T10:25:22Z</time>
      </trkpt>
      <trkpt lat="45.85374" lon="3.54955">
        <ele>374</ele>
        <time>2013-03-10T10:25:24Z</time>
      </trkpt>
      <trkpt lat="45.85376" lon="3.54954">
        <ele>374.4</ele>
        <time>2013-03-10T10:25:26Z</time>
      </trkpt>
      <trkpt lat="45.85379" lon="3.54954">
        <ele>374.6</ele>
        <time>2013-03-10T10:25:28Z</time>
      </trkpt>
      <trkpt lat="45.85381" lon="3.54954">
        <ele>374.9</ele>
        <time>2013-03-10T10:25:30Z</time>
      </trkpt>
      <trkpt lat="45.85383" lon="3.54953">
        <ele>375.1</ele>
        <time>2013-03-10T10:25:32Z</time>
      </trkpt>
      <trkpt lat="45.85386" lon="3.54954">
        <ele>375.2</ele>
        <time>2013-03-10T10:25:34Z</time>
      </trkpt>
      <trkpt lat="45.85388" lon="3.54954">
        <ele>375.3</ele>
        <time>2013-03-10T10:25:36Z</time>
      </trkpt>
      <trkpt lat="45.85391" lon="3.54952">
        <ele>376</ele>
        <time>2013-03-10T10:25:38Z</time>
      </trkpt>
      <trkpt lat="45.85392" lon="3.5495">
        <ele>376.9</ele>
        <time>2013-03-10T10:25:40Z</time>
      </trkpt>
      <trkpt lat="45.85391" lon="3.54947">
        <ele>378</ele>
        <time>2013-03-10T10:25:42Z</time>
      </trkpt>
      <trkpt lat="45.85389" lon="3.54947">
        <ele>378.2</ele>
        <time>2013-03-10T10:25:44Z</time>
      </trkpt>
      <trkpt lat="45.85387" lon="3.54945">
        <ele>378.7</ele>
        <time>2013-03-10T10:25:46Z</time>
      </trkpt>
      <trkpt lat="45.85386" lon="3.54944">
        <ele>379</ele>
        <time>2013-03-10T10:25:48Z</time>
      </trkpt>
      <trkpt lat="45.85384" lon="3.54942">
        <ele>379.3</ele>
        <time>2013-03-10T10:25:50Z</time>
      </trkpt>
      <trkpt lat="45.85382" lon="3.54941">
        <ele>379.7</ele>
        <time>2013-03-10T10:25:52Z</time>
      </trkpt>
      <trkpt lat="45.85381" lon="3.5494">
        <ele>380.1</ele>
        <time>2013-03-10T10:25:54Z</time>
      </trkpt>
      <trkpt lat="45.85379" lon="3.54939">
        <ele>380.3</ele>
        <time>2013-03-10T10:25:56Z</time>
      </trkpt>
      <trkpt lat="45.85378" lon="3.54938">
        <ele>380.6</ele>
        <time>2013-03-10T10:25:58Z</time>
      </trkpt>
      <trkpt lat="45.85377" lon="3.54936">
        <ele>381.3</ele>
        <time>2013-03-10T10:26:00Z</time>
      </trkpt>
      <trkpt lat="45.85378" lon="3.54934">
        <ele>381.9</ele>
        <time>2013-03-10T10:26:02Z</time>
      </trkpt>
      <trkpt lat="45.85379" lon="3.54934">
        <ele>382</ele>
        <time>2013-03-10T10:26:04Z</time>
      </trkpt>
      <trkpt lat="45.85382" lon="3.54934">
        <ele>382</ele>
        <time>2013-03-10T10:26:06Z</time>
      </trkpt>
      <trkpt lat="45.85386" lon="3.54935">
        <ele>382.1</ele>
        <time>2013-03-10T10:26:08Z</time>
      </trkpt>
      <trkpt lat="45.8539" lon="3.54935">
        <ele>382.2</ele>
        <time>2013-03-10T10:26:10Z</time>
      </trkpt>
      <trkpt lat="45.85395" lon="3.54935">
        <ele>382.6</ele>
        <time>2013-03-10T10:26:12Z</time>
      </trkpt>
      <trkpt lat="45.85397" lon="3.54933">
        <ele>383.2</ele>
        <time>2013-03-10T10:26:14Z</time>
      </trkpt>
      <trkpt lat="45.85399" lon="3.54933">
        <ele>383.4</ele>
        <time>2013-03-10T10:26:16Z</time>
      </trkpt>
      <trkpt lat="45.85402" lon="3.54934">
        <ele>383.5</ele>
        <time>2013-03-10T10:26:18Z</time>
      </trkpt>
      <trkpt lat="45.85404" lon="3.54933">
        <ele>383.7</ele>
        <time>2013-03-10T10:26:20Z</time>
      </trkpt>
      <trkpt lat="45.85408" lon="3.54934">
        <ele>383.7</ele>
        <time>2013-03-10T10:26:22Z</time>
      </trkpt>
      <trkpt lat="45.85413" lon="3.54937">
        <ele>383.3</ele>
        <time>2013-03-10T10:26:24Z</time>
      </trkpt>
      <trkpt lat="45.85418" lon="3.54939">
        <ele>383</ele>
        <time>2013-03-10T10:26:26Z</time>
      </trkpt>
      <trkpt lat="45.85423" lon="3.54941">
        <ele>382.8</ele>
        <time>2013-03-10T10:26:28Z</time>
      </trkpt>
      <trkpt lat="45.85427" lon="3.54942">
        <ele>383.1</ele>
        <time>2013-03-10T10:26:30Z</time>
      </trkpt>
      <trkpt lat="45.85429" lon="3.54939">
        <ele>384.2</ele>
        <time>2013-03-10T10:26:32Z</time>
      </trkpt>
      <trkpt lat="45.85431" lon="3.54936">
        <ele>385.1</ele>
        <time>2013-03-10T10:26:34Z</time>
      </trkpt>
      <trkpt lat="45.85433" lon="3.54933">
        <ele>385.9</ele>
        <time>2013-03-10T10:26:36Z</time>
      </trkpt>
      <trkpt lat="45.85434" lon="3.54931">
        <ele>386.5</ele>
        <time>2013-03-10T10:26:38Z</time>
      </trkpt>
      <trkpt lat="45.85436" lon="3.54929">
        <ele>386.9</ele>
        <time>2013-03-10T10:26:40Z</time>
      </trkpt>
      <trkpt lat="45.85437" lon="3.54927">
        <ele>387.3</ele>
        <time>2013-03-10T10:26:42Z</time>
      </trkpt>
      <trkpt lat="45.85439" lon="3.54925">
        <ele>387.7</ele>
        <time>2013-03-10T10:26:44Z</time>
      </trkpt>
      <trkpt lat="45.8544" lon="3.54923">
        <ele>388</ele>
        <time>2013-03-10T10:26:46Z</time>
      </trkpt>
      <trkpt lat="45.8544" lon="3.54921">
        <ele>388.4</ele>
        <time>2013-03-10T10:26:48Z</time>
      </trkpt>
      <trkpt lat="45.8544" lon="3.54921">
        <ele>388.5</ele>
        <time>2013-03-10T10:26:50Z</time>
      </trkpt>
      <trkpt lat="45.85438" lon="3.5492">
        <ele>388.6</ele>
        <time>2013-03-10T10:26:52Z</time>
      </trkpt>
      <trkpt lat="45.8544" lon="3.54922">
        <ele>388.3</ele>
        <time>2013-03-10T10:26:54Z</time>
      </trkpt>
      <trkpt lat="45.8544" lon="3.54923">
        <ele>388.1</ele>
        <time>2013-03-10T10:26:56Z</time>
      </trkpt>
      <trkpt lat="45.85439" lon="3.54924">
        <ele>387.9</ele>
        <time>2013-03-10T10:26:58Z</time>
      </trkpt>
      <trkpt lat="45.85438" lon="3.54925">
        <ele>387.7</ele>
        <time>2013-03-10T10:27:00Z</time>
      </trkpt>
      <trkpt lat="45.85437" lon="3.54926">
        <ele>387.6</ele>
        <time>2013-03-10T10:27:02Z</time>
      </trkpt>
      <trkpt lat="45.85453" lon="3.54909">
        <ele>392.7</ele>
        <time>2013-03-10T10:27:04Z</time>
      </trkpt>
      <trkpt lat="45.85447" lon="3.5491">
        <ele>391</ele>
        <time>2013-03-10T10:27:06Z</time>
      </trkpt>
      <trkpt lat="45.85443" lon="3.54908">
        <ele>390.5</ele>
        <time>2013-03-10T10:27:08Z</time>
      </trkpt>
      <trkpt lat="45.85443" lon="3.54902">
        <ele>391.7</ele>
        <time>2013-03-10T10:27:10Z</time>
      </trkpt>
      <trkpt lat="45.85443" lon="3.54898">
        <ele>392.4</ele>
        <time>2013-03-10T10:27:12Z</time>
      </trkpt>
      <trkpt lat="45.85442" lon="3.54895">
        <ele>393.1</ele>
        <time>2013-03-10T10:27:14Z</time>
      </trkpt>
      <trkpt lat="45.85441" lon="3.54891">
        <ele>393.8</ele>
        <time>2013-03-10T10:27:16Z</time>
      </trkpt>
      <trkpt lat="45.8544" lon="3.54886">
        <ele>394.7</ele>
        <time>2013-03-10T10:27:18Z</time>
      </trkpt>
      <trkpt lat="45.85439" lon="3.5488">
        <ele>395.6</ele>
        <time>2013-03-10T10:27:20Z</time>
      </trkpt>
      <trkpt lat="45.85438" lon="3.54879">
        <ele>395.9</ele>
        <time>2013-03-10T10:27:22Z</time>
      </trkpt>
      <trkpt lat="45.85435" lon="3.54875">
        <ele>396.5</ele>
        <time>2013-03-10T10:27:24Z</time>
      </trkpt>
      <trkpt lat="45.85434" lon="3.54871">
        <ele>397.1</ele>
        <time>2013-03-10T10:27:26Z</time>
      </trkpt>
      <trkpt lat="45.85433" lon="3.54866">
        <ele>397.9</ele>
        <time>2013-03-10T10:27:28Z</time>
      </trkpt>
      <trkpt lat="45.85432" lon="3.54863">
        <ele>398.4</ele>
        <time>2013-03-10T10:27:30Z</time>
      </trkpt>
      <trkpt lat="45.85431" lon="3.5486">
        <ele>398.8</ele>
        <time>2013-03-10T10:27:32Z</time>
      </trkpt>
      <trkpt lat="45.85427" lon="3.54858">
        <ele>399</ele>
        <time>2013-03-10T10:27:34Z</time>
      </trkpt>
      <trkpt lat="45.85426" lon="3.54854">
        <ele>399.6</ele>
        <time>2013-03-10T10:27:36Z</time>
      </trkpt>
      <trkpt lat="45.85424" lon="3.54849">
        <ele>400.3</ele>
        <time>2013-03-10T10:27:38Z</time>
      </trkpt>
      <trkpt lat="45.85423" lon="3.54844">
        <ele>400.9</ele>
        <time>2013-03-10T10:27:40Z</time>
      </trkpt>
      <trkpt lat="45.85421" lon="3.54841">
        <ele>401.3</ele>
        <time>2013-03-10T10:27:42Z</time>
      </trkpt>
      <trkpt lat="45.85421" lon="3.54841">
        <ele>401.3</ele>
        <time>2013-03-10T10:27:44Z</time>
      </trkpt>
      <trkpt lat="45.85423" lon="3.54842">
        <ele>401.3</ele>
        <time>2013-03-10T10:27:46Z</time>
      </trkpt>
      <trkpt lat="45.85424" lon="3.54842">
        <ele>401.5</ele>
        <time>2013-03-10T10:27:48Z</time>
      </trkpt>
      <trkpt lat="45.85427" lon="3.54841">
        <ele>401.9</ele>
        <time>2013-03-10T10:27:50Z</time>
      </trkpt>
      <trkpt lat="45.8543" lon="3.54838">
        <ele>402.6</ele>
        <time>2013-03-10T10:27:52Z</time>
      </trkpt>
      <trkpt lat="45.85432" lon="3.54833">
        <ele>403.6</ele>
        <time>2013-03-10T10:27:54Z</time>
      </trkpt>
      <trkpt lat="45.85433" lon="3.5483">
        <ele>403.9</ele>
        <time>2013-03-10T10:27:56Z</time>
      </trkpt>
      <trkpt lat="45.85432" lon="3.54826">
        <ele>403.9</ele>
        <time>2013-03-10T10:27:58Z</time>
      </trkpt>
      <trkpt lat="45.85431" lon="3.54823">
        <ele>403.7</ele>
        <time>2013-03-10T10:28:00Z</time>
      </trkpt>
      <trkpt lat="45.85431" lon="3.5482">
        <ele>403.8</ele>
        <time>2013-03-10T10:28:02Z</time>
      </trkpt>
      <trkpt lat="45.85433" lon="3.54818">
        <ele>404.2</ele>
        <time>2013-03-10T10:28:04Z</time>
      </trkpt>
      <trkpt lat="45.85436" lon="3.54817">
        <ele>404.8</ele>
        <time>2013-03-10T10:28:06Z</time>
      </trkpt>
      <trkpt lat="45.85441" lon="3.54814">
        <ele>405.8</ele>
        <time>2013-03-10T10:28:08Z</time>
      </trkpt>
      <trkpt lat="45.85445" lon="3.5481">
        <ele>406.7</ele>
        <time>2013-03-10T10:28:10Z</time>
      </trkpt>
      <trkpt lat="45.85448" lon="3.54808">
        <ele>407.1</ele>
        <time>2013-03-10T10:28:12Z</time>
      </trkpt>
      <trkpt lat="45.85454" lon="3.54808">
        <ele>407.5</ele>
        <time>2013-03-10T10:28:14Z</time>
      </trkpt>
      <trkpt lat="45.85458" lon="3.54807">
        <ele>407.8</ele>
        <time>2013-03-10T10:28:16Z</time>
      </trkpt>
      <trkpt lat="45.85463" lon="3.54805">
        <ele>408.3</ele>
        <time>2013-03-10T10:28:18Z</time>
      </trkpt>
      <trkpt lat="45.85465" lon="3.54804">
        <ele>408.4</ele>
        <time>2013-03-10T10:28:20Z</time>
      </trkpt>
      <trkpt lat="45.85467" lon="3.54801">
        <ele>408.4</ele>
        <time>2013-03-10T10:28:22Z</time>
      </trkpt>
      <trkpt lat="45.85468" lon="3.54796">
        <ele>408.3</ele>
        <time>2013-03-10T10:28:24Z</time>
      </trkpt>
      <trkpt lat="45.85465" lon="3.54793">
        <ele>407.9</ele>
        <time>2013-03-10T10:28:26Z</time>
      </trkpt>
      <trkpt lat="45.85464" lon="3.54792">
        <ele>407.7</ele>
        <time>2013-03-10T10:28:28Z</time>
      </trkpt>
      <trkpt lat="45.85462" lon="3.5479">
        <ele>407.5</ele>
        <time>2013-03-10T10:28:30Z</time>
      </trkpt>
      <trkpt lat="45.85461" lon="3.54789">
        <ele>407.4</ele>
        <time>2013-03-10T10:28:32Z</time>
      </trkpt>
      <trkpt lat="45.8546" lon="3.54789">
        <ele>407.3</ele>
        <time>2013-03-10T10:28:34Z</time>
      </trkpt>
      <trkpt lat="45.85459" lon="3.5479">
        <ele>407.2</ele>
        <time>2013-03-10T10:28:36Z</time>
      </trkpt>
      <trkpt lat="45.85456" lon="3.5479">
        <ele>407</ele>
        <time>2013-03-10T10:28:38Z</time>
      </trkpt>
      <trkpt lat="45.85455" lon="3.5479">
        <ele>406.8</ele>
        <time>2013-03-10T10:28:40Z</time>
      </trkpt>
      <trkpt lat="45.85452" lon="3.54789">
        <ele>406.5</ele>
        <time>2013-03-10T10:28:42Z</time>
      </trkpt>
      <trkpt lat="45.85448" lon="3.54789">
        <ele>406.2</ele>
        <time>2013-03-10T10:28:44Z</time>
      </trkpt>
      <trkpt lat="45.85444" lon="3.54789">
        <ele>405.7</ele>
        <time>2013-03-10T10:28:46Z</time>
      </trkpt>
      <trkpt lat="45.85441" lon="3.54786">
        <ele>404.9</ele>
        <time>2013-03-10T10:28:48Z</time>
      </trkpt>
      <trkpt lat="45.85438" lon="3.54782">
        <ele>404.1</ele>
        <time>2013-03-10T10:28:50Z</time>
      </trkpt>
      <trkpt lat="45.85435" lon="3.5478">
        <ele>403.5</ele>
        <time>2013-03-10T10:28:52Z</time>
      </trkpt>
      <trkpt lat="45.85432" lon="3.54779">
        <ele>402.9</ele>
        <time>2013-03-10T10:28:54Z</time>
      </trkpt>
      <trkpt lat="45.85428" lon="3.54777">
        <ele>402</ele>
        <time>2013-03-10T10:28:56Z</time>
      </trkpt>
      <trkpt lat="45.8542" lon="3.54774">
        <ele>400.6</ele>
        <time>2013-03-10T10:28:58Z</time>
      </trkpt>
      <trkpt lat="45.85415" lon="3.54772">
        <ele>399.9</ele>
        <time>2013-03-10T10:29:00Z</time>
      </trkpt>
      <trkpt lat="45.85412" lon="3.54769">
        <ele>399.6</ele>
        <time>2013-03-10T10:29:02Z</time>
      </trkpt>
      <trkpt lat="45.85408" lon="3.54767">
        <ele>399.1</ele>
        <time>2013-03-10T10:29:04Z</time>
      </trkpt>
      <trkpt lat="45.85404" lon="3.54764">
        <ele>398.4</ele>
        <time>2013-03-10T10:29:06Z</time>
      </trkpt>
      <trkpt lat="45.85399" lon="3.5476">
        <ele>397.4</ele>
        <time>2013-03-10T10:29:08Z</time>
      </trkpt>
      <trkpt lat="45.85396" lon="3.54757">
        <ele>396.4</ele>
        <time>2013-03-10T10:29:10Z</time>
      </trkpt>
      <trkpt lat="45.85393" lon="3.54755">
        <ele>395.6</ele>
        <time>2013-03-10T10:29:12Z</time>
      </trkpt>
      <trkpt lat="45.85389" lon="3.54754">
        <ele>394.7</ele>
        <time>2013-03-10T10:29:14Z</time>
      </trkpt>
      <trkpt lat="45.85387" lon="3.54751">
        <ele>394.1</ele>
        <time>2013-03-10T10:29:16Z</time>
      </trkpt>
      <trkpt lat="45.85386" lon="3.54748">
        <ele>393.5</ele>
        <time>2013-03-10T10:29:18Z</time>
      </trkpt>
      <trkpt lat="45.85386" lon="3.54744">
        <ele>392.9</ele>
        <time>2013-03-10T10:29:20Z</time>
      </trkpt>
      <trkpt lat="45.85385" lon="3.54738">
        <ele>392</ele>
        <time>2013-03-10T10:29:22Z</time>
      </trkpt>
      <trkpt lat="45.85385" lon="3.54732">
        <ele>391</ele>
        <time>2013-03-10T10:29:24Z</time>
      </trkpt>
      <trkpt lat="45.85384" lon="3.54726">
        <ele>390</ele>
        <time>2013-03-10T10:29:26Z</time>
      </trkpt>
      <trkpt lat="45.85381" lon="3.54722">
        <ele>389.1</ele>
        <time>2013-03-10T10:29:28Z</time>
      </trkpt>
      <trkpt lat="45.85379" lon="3.54719">
        <ele>388.5</ele>
        <time>2013-03-10T10:29:30Z</time>
      </trkpt>
      <trkpt lat="45.85377" lon="3.54714">
        <ele>387.8</ele>
        <time>2013-03-10T10:29:32Z</time>
      </trkpt>
      <trkpt lat="45.85376" lon="3.54707">
        <ele>386.9</ele>
        <time>2013-03-10T10:29:34Z</time>
      </trkpt>
      <trkpt lat="45.85372" lon="3.54703">
        <ele>386.1</ele>
        <time>2013-03-10T10:29:36Z</time>
      </trkpt>
      <trkpt lat="45.85369" lon="3.54703">
        <ele>385.8</ele>
        <time>2013-03-10T10:29:38Z</time>
      </trkpt>
      <trkpt lat="45.85367" lon="3.54702">
        <ele>385.5</ele>
        <time>2013-03-10T10:29:40Z</time>
      </trkpt>
      <trkpt lat="45.85365" lon="3.54702">
        <ele>385.2</ele>
        <time>2013-03-10T10:29:42Z</time>
      </trkpt>
      <trkpt lat="45.85363" lon="3.547">
        <ele>384.8</ele>
        <time>2013-03-10T10:29:44Z</time>
      </trkpt>
      <trkpt lat="45.85361" lon="3.54699">
        <ele>384.5</ele>
        <time>2013-03-10T10:29:46Z</time>
      </trkpt>
      <trkpt lat="45.85362" lon="3.54699">
        <ele>384.6</ele>
        <time>2013-03-10T10:29:48Z</time>
      </trkpt>
      <trkpt lat="45.85365" lon="3.54699">
        <ele>384.9</ele>
        <time>2013-03-10T10:29:50Z</time>
      </trkpt>
      <trkpt lat="45.85368" lon="3.54696">
        <ele>384.9</ele>
        <time>2013-03-10T10:29:52Z</time>
      </trkpt>
      <trkpt lat="45.85367" lon="3.54694">
        <ele>384.5</ele>
        <time>2013-03-10T10:29:54Z</time>
      </trkpt>
      <trkpt lat="45.85364" lon="3.54694">
        <ele>384.2</ele>
        <time>2013-03-10T10:29:56Z</time>
      </trkpt>
      <trkpt lat="45.85355" lon="3.54692">
        <ele>382.6</ele>
        <time>2013-03-10T10:29:58Z</time>
      </trkpt>
      <trkpt lat="45.85351" lon="3.54692">
        <ele>381.9</ele>
        <time>2013-03-10T10:30:00Z</time>
      </trkpt>
      <trkpt lat="45.85347" lon="3.54692">
        <ele>381</ele>
        <time>2013-03-10T10:30:02Z</time>
      </trkpt>
      <trkpt lat="45.85342" lon="3.5469">
        <ele>380.1</ele>
        <time>2013-03-10T10:30:04Z</time>
      </trkpt>
      <trkpt lat="45.85339" lon="3.54689">
        <ele>379.3</ele>
        <time>2013-03-10T10:30:06Z</time>
      </trkpt>
      <trkpt lat="45.85335" lon="3.54689">
        <ele>378.6</ele>
        <time>2013-03-10T10:30:08Z</time>
      </trkpt>
      <trkpt lat="45.8533" lon="3.54688">
        <ele>377.8</ele>
        <time>2013-03-10T10:30:10Z</time>
      </trkpt>
      <trkpt lat="45.85326" lon="3.54688">
        <ele>377.1</ele>
        <time>2013-03-10T10:30:12Z</time>
      </trkpt>
      <trkpt lat="45.85322" lon="3.54687">
        <ele>376.3</ele>
        <time>2013-03-10T10:30:14Z</time>
      </trkpt>
      <trkpt lat="45.85318" lon="3.54686">
        <ele>375.5</ele>
        <time>2013-03-10T10:30:16Z</time>
      </trkpt>
      <trkpt lat="45.85314" lon="3.54684">
        <ele>374.5</ele>
        <time>2013-03-10T10:30:18Z</time>
      </trkpt>
      <trkpt lat="45.85312" lon="3.54683">
        <ele>373.9</ele>
        <time>2013-03-10T10:30:20Z</time>
      </trkpt>
      <trkpt lat="45.8531" lon="3.54681">
        <ele>373.4</ele>
        <time>2013-03-10T10:30:22Z</time>
      </trkpt>
      <trkpt lat="45.85308" lon="3.54679">
        <ele>372.6</ele>
        <time>2013-03-10T10:30:24Z</time>
      </trkpt>
      <trkpt lat="45.85306" lon="3.54676">
        <ele>371.7</ele>
        <time>2013-03-10T10:30:26Z</time>
      </trkpt>
      <trkpt lat="45.85305" lon="3.54674">
        <ele>371.2</ele>
        <time>2013-03-10T10:30:28Z</time>
      </trkpt>
      <trkpt lat="45.85303" lon="3.54671">
        <ele>370.8</ele>
        <time>2013-03-10T10:30:30Z</time>
      </trkpt>
      <trkpt lat="45.853" lon="3.54668">
        <ele>370.2</ele>
        <time>2013-03-10T10:30:32Z</time>
      </trkpt>
      <trkpt lat="45.85299" lon="3.54666">
        <ele>369.8</ele>
        <time>2013-03-10T10:30:34Z</time>
      </trkpt>
      <trkpt lat="45.85298" lon="3.54663">
        <ele>369.3</ele>
        <time>2013-03-10T10:30:36Z</time>
      </trkpt>
      <trkpt lat="45.85297" lon="3.54658">
        <ele>368.3</ele>
        <time>2013-03-10T10:30:38Z</time>
      </trkpt>
      <trkpt lat="45.85297" lon="3.54654">
        <ele>367.5</ele>
        <time>2013-03-10T10:30:40Z</time>
      </trkpt>
      <trkpt lat="45.85298" lon="3.54651">
        <ele>366.8</ele>
        <time>2013-03-10T10:30:42Z</time>
      </trkpt>
      <trkpt lat="45.85296" lon="3.54648">
        <ele>366.1</ele>
        <time>2013-03-10T10:30:44Z</time>
      </trkpt>
      <trkpt lat="45.85293" lon="3.54647">
        <ele>365.8</ele>
        <time>2013-03-10T10:30:46Z</time>
      </trkpt>
      <trkpt lat="45.85289" lon="3.54648">
        <ele>365.7</ele>
        <time>2013-03-10T10:30:48Z</time>
      </trkpt>
      <trkpt lat="45.85285" lon="3.54646">
        <ele>365.1</ele>
        <time>2013-03-10T10:30:50Z</time>
      </trkpt>
      <trkpt lat="45.85281" lon="3.54645">
        <ele>364.7</ele>
        <time>2013-03-10T10:30:52Z</time>
      </trkpt>
      <trkpt lat="45.85274" lon="3.54642">
        <ele>363.8</ele>
        <time>2013-03-10T10:30:54Z</time>
      </trkpt>
      <trkpt lat="45.85269" lon="3.54639">
        <ele>363.1</ele>
        <time>2013-03-10T10:30:56Z</time>
      </trkpt>
      <trkpt lat="45.85265" lon="3.54638">
        <ele>362.9</ele>
        <time>2013-03-10T10:30:58Z</time>
      </trkpt>
      <trkpt lat="45.85259" lon="3.54644">
        <ele>363.7</ele>
        <time>2013-03-10T10:31:00Z</time>
      </trkpt>
      <trkpt lat="45.85257" lon="3.54652">
        <ele>364.5</ele>
        <time>2013-03-10T10:31:02Z</time>
      </trkpt>
      <trkpt lat="45.85253" lon="3.54658">
        <ele>364.7</ele>
        <time>2013-03-10T10:31:04Z</time>
      </trkpt>
      <trkpt lat="45.85249" lon="3.54663">
        <ele>364.7</ele>
        <time>2013-03-10T10:31:06Z</time>
      </trkpt>
      <trkpt lat="45.85247" lon="3.54667">
        <ele>364.9</ele>
        <time>2013-03-10T10:31:08Z</time>
      </trkpt>
      <trkpt lat="45.85243" lon="3.54669">
        <ele>365</ele>
        <time>2013-03-10T10:31:10Z</time>
      </trkpt>
      <trkpt lat="45.85238" lon="3.54667">
        <ele>364.6</ele>
        <time>2013-03-10T10:31:12Z</time>
      </trkpt>
      <trkpt lat="45.85236" lon="3.54666">
        <ele>364.5</ele>
        <time>2013-03-10T10:31:14Z</time>
      </trkpt>
      <trkpt lat="45.85231" lon="3.54665">
        <ele>364.2</ele>
        <time>2013-03-10T10:31:16Z</time>
      </trkpt>
      <trkpt lat="45.85226" lon="3.54663">
        <ele>363.7</ele>
        <time>2013-03-10T10:31:18Z</time>
      </trkpt>
      <trkpt lat="45.85222" lon="3.54658">
        <ele>362.9</ele>
        <time>2013-03-10T10:31:20Z</time>
      </trkpt>
      <trkpt lat="45.85218" lon="3.54651">
        <ele>361.3</ele>
        <time>2013-03-10T10:31:22Z</time>
      </trkpt>
      <trkpt lat="45.85216" lon="3.54644">
        <ele>360.1</ele>
        <time>2013-03-10T10:31:24Z</time>
      </trkpt>
      <trkpt lat="45.85216" lon="3.54637">
        <ele>359.4</ele>
        <time>2013-03-10T10:31:26Z</time>
      </trkpt>
      <trkpt lat="45.85218" lon="3.54631">
        <ele>359.4</ele>
        <time>2013-03-10T10:31:28Z</time>
      </trkpt>
      <trkpt lat="45.85222" lon="3.54627">
        <ele>359.7</ele>
        <time>2013-03-10T10:31:30Z</time>
      </trkpt>
      <trkpt lat="45.85226" lon="3.54624">
        <ele>359.6</ele>
        <time>2013-03-10T10:31:32Z</time>
      </trkpt>
      <trkpt lat="45.85232" lon="3.54622">
        <ele>359.7</ele>
        <time>2013-03-10T10:31:34Z</time>
      </trkpt>
      <trkpt lat="45.85236" lon="3.5462">
        <ele>359.5</ele>
        <time>2013-03-10T10:31:36Z</time>
      </trkpt>
      <trkpt lat="45.8524" lon="3.54618">
        <ele>359.5</ele>
        <time>2013-03-10T10:31:38Z</time>
      </trkpt>
      <trkpt lat="45.85245" lon="3.54615">
        <ele>359.3</ele>
        <time>2013-03-10T10:31:40Z</time>
      </trkpt>
      <trkpt lat="45.8525" lon="3.54612">
        <ele>359</ele>
        <time>2013-03-10T10:31:42Z</time>
      </trkpt>
      <trkpt lat="45.85253" lon="3.54609">
        <ele>358.6</ele>
        <time>2013-03-10T10:31:44Z</time>
      </trkpt>
      <trkpt lat="45.85258" lon="3.54607">
        <ele>358.2</ele>
        <time>2013-03-10T10:31:46Z</time>
      </trkpt>
      <trkpt lat="45.85263" lon="3.54605">
        <ele>357.8</ele>
        <time>2013-03-10T10:31:48Z</time>
      </trkpt>
      <trkpt lat="45.85268" lon="3.54601">
        <ele>357</ele>
        <time>2013-03-10T10:31:50Z</time>
      </trkpt>
      <trkpt lat="45.85272" lon="3.54596">
        <ele>356.2</ele>
        <time>2013-03-10T10:31:52Z</time>
      </trkpt>
      <trkpt lat="45.85277" lon="3.54592">
        <ele>355.5</ele>
        <time>2013-03-10T10:31:54Z</time>
      </trkpt>
      <trkpt lat="45.85282" lon="3.54589">
        <ele>354.9</ele>
        <time>2013-03-10T10:31:56Z</time>
      </trkpt>
      <trkpt lat="45.85287" lon="3.54586">
        <ele>354.2</ele>
        <time>2013-03-10T10:31:58Z</time>
      </trkpt>
      <trkpt lat="45.85293" lon="3.54584">
        <ele>353.6</ele>
        <time>2013-03-10T10:32:00Z</time>
      </trkpt>
      <trkpt lat="45.85297" lon="3.54581">
        <ele>352.6</ele>
        <time>2013-03-10T10:32:02Z</time>
      </trkpt>
      <trkpt lat="45.85302" lon="3.54577">
        <ele>351.7</ele>
        <time>2013-03-10T10:32:04Z</time>
      </trkpt>
      <trkpt lat="45.85307" lon="3.54574">
        <ele>350.9</ele>
        <time>2013-03-10T10:32:06Z</time>
      </trkpt>
      <trkpt lat="45.85311" lon="3.5457">
        <ele>350.1</ele>
        <time>2013-03-10T10:32:08Z</time>
      </trkpt>
      <trkpt lat="45.85318" lon="3.54566">
        <ele>349.4</ele>
        <time>2013-03-10T10:32:10Z</time>
      </trkpt>
      <trkpt lat="45.85322" lon="3.54563">
        <ele>348.8</ele>
        <time>2013-03-10T10:32:12Z</time>
      </trkpt>
      <trkpt lat="45.85326" lon="3.54558">
        <ele>348.1</ele>
        <time>2013-03-10T10:32:14Z</time>
      </trkpt>
      <trkpt lat="45.85331" lon="3.54555">
        <ele>347.7</ele>
        <time>2013-03-10T10:32:16Z</time>
      </trkpt>
      <trkpt lat="45.85336" lon="3.54552">
        <ele>347</ele>
        <time>2013-03-10T10:32:18Z</time>
      </trkpt>
      <trkpt lat="45.85341" lon="3.5455">
        <ele>346.4</ele>
        <time>2013-03-10T10:32:20Z</time>
      </trkpt>
      <trkpt lat="45.85346" lon="3.5455">
        <ele>346</ele>
        <time>2013-03-10T10:32:22Z</time>
      </trkpt>
      <trkpt lat="45.85351" lon="3.54549">
        <ele>345.8</ele>
        <time>2013-03-10T10:32:24Z</time>
      </trkpt>
      <trkpt lat="45.85354" lon="3.54549">
        <ele>345.5</ele>
        <time>2013-03-10T10:32:26Z</time>
      </trkpt>
      <trkpt lat="45.85357" lon="3.54546">
        <ele>344.8</ele>
        <time>2013-03-10T10:32:28Z</time>
      </trkpt>
      <trkpt lat="45.85359" lon="3.54543">
        <ele>344</ele>
        <time>2013-03-10T10:32:30Z</time>
      </trkpt>
      <trkpt lat="45.8536" lon="3.54542">
        <ele>343.7</ele>
        <time>2013-03-10T10:32:32Z</time>
      </trkpt>
      <trkpt lat="45.85362" lon="3.5454">
        <ele>343.3</ele>
        <time>2013-03-10T10:32:34Z</time>
      </trkpt>
      <trkpt lat="45.85364" lon="3.54535">
        <ele>343</ele>
        <time>2013-03-10T10:32:36Z</time>
      </trkpt>
      <trkpt lat="45.85366" lon="3.54531">
        <ele>342.6</ele>
        <time>2013-03-10T10:32:38Z</time>
      </trkpt>
      <trkpt lat="45.85368" lon="3.54526">
        <ele>342.4</ele>
        <time>2013-03-10T10:32:40Z</time>
      </trkpt>
      <trkpt lat="45.8537" lon="3.54521">
        <ele>342.3</ele>
        <time>2013-03-10T10:32:42Z</time>
      </trkpt>
      <trkpt lat="45.85372" lon="3.54516">
        <ele>341.6</ele>
        <time>2013-03-10T10:32:44Z</time>
      </trkpt>
      <trkpt lat="45.85374" lon="3.5451">
        <ele>340.6</ele>
        <time>2013-03-10T10:32:46Z</time>
      </trkpt>
      <trkpt lat="45.85376" lon="3.54504">
        <ele>339.3</ele>
        <time>2013-03-10T10:32:48Z</time>
      </trkpt>
      <trkpt lat="45.85377" lon="3.54497">
        <ele>338.1</ele>
        <time>2013-03-10T10:32:50Z</time>
      </trkpt>
      <trkpt lat="45.85378" lon="3.54491">
        <ele>337.7</ele>
        <time>2013-03-10T10:32:52Z</time>
      </trkpt>
      <trkpt lat="45.85379" lon="3.54484">
        <ele>337.3</ele>
        <time>2013-03-10T10:32:54Z</time>
      </trkpt>
      <trkpt lat="45.85379" lon="3.54478">
        <ele>336.7</ele>
        <time>2013-03-10T10:32:56Z</time>
      </trkpt>
      <trkpt lat="45.85378" lon="3.54471">
        <ele>336.1</ele>
        <time>2013-03-10T10:32:58Z</time>
      </trkpt>
      <trkpt lat="45.85377" lon="3.54464">
        <ele>335.3</ele>
        <time>2013-03-10T10:33:00Z</time>
      </trkpt>
      <trkpt lat="45.85376" lon="3.54458">
        <ele>334.5</ele>
        <time>2013-03-10T10:33:02Z</time>
      </trkpt>
      <trkpt lat="45.85375" lon="3.54451">
        <ele>333.7</ele>
        <time>2013-03-10T10:33:04Z</time>
      </trkpt>
      <trkpt lat="45.85374" lon="3.54444">
        <ele>332.9</ele>
        <time>2013-03-10T10:33:06Z</time>
      </trkpt>
      <trkpt lat="45.85373" lon="3.54437">
        <ele>332.5</ele>
        <time>2013-03-10T10:33:08Z</time>
      </trkpt>
      <trkpt lat="45.8537" lon="3.5443">
        <ele>331.9</ele>
        <time>2013-03-10T10:33:10Z</time>
      </trkpt>
      <trkpt lat="45.85368" lon="3.54424">
        <ele>331.4</ele>
        <time>2013-03-10T10:33:12Z</time>
      </trkpt>
      <trkpt lat="45.85366" lon="3.54418">
        <ele>330.8</ele>
        <time>2013-03-10T10:33:14Z</time>
      </trkpt>
      <trkpt lat="45.85363" lon="3.54412">
        <ele>330.3</ele>
        <time>2013-03-10T10:33:16Z</time>
      </trkpt>
      <trkpt lat="45.85361" lon="3.54406">
        <ele>330</ele>
        <time>2013-03-10T10:33:18Z</time>
      </trkpt>
      <trkpt lat="45.85358" lon="3.544">
        <ele>329.7</ele>
        <time>2013-03-10T10:33:20Z</time>
      </trkpt>
      <trkpt lat="45.85354" lon="3.54394">
        <ele>329.1</ele>
        <time>2013-03-10T10:33:22Z</time>
      </trkpt>
      <trkpt lat="45.85351" lon="3.5439">
        <ele>328.6</ele>
        <time>2013-03-10T10:33:24Z</time>
      </trkpt>
      <trkpt lat="45.85349" lon="3.54385">
        <ele>328.4</ele>
        <time>2013-03-10T10:33:26Z</time>
      </trkpt>
      <trkpt lat="45.85345" lon="3.54376">
        <ele>327.9</ele>
        <time>2013-03-10T10:33:28Z</time>
      </trkpt>
      <trkpt lat="45.85342" lon="3.54369">
        <ele>327.2</ele>
        <time>2013-03-10T10:33:30Z</time>
      </trkpt>
      <trkpt lat="45.85339" lon="3.54363">
        <ele>326</ele>
        <time>2013-03-10T10:33:32Z</time>
      </trkpt>
      <trkpt lat="45.85336" lon="3.54357">
        <ele>324.6</ele>
        <time>2013-03-10T10:33:34Z</time>
      </trkpt>
      <trkpt lat="45.85332" lon="3.54351">
        <ele>323.5</ele>
        <time>2013-03-10T10:33:36Z</time>
      </trkpt>
      <trkpt lat="45.85328" lon="3.54346">
        <ele>323</ele>
        <time>2013-03-10T10:33:38Z</time>
      </trkpt>
      <trkpt lat="45.85325" lon="3.5434">
        <ele>322.4</ele>
        <time>2013-03-10T10:33:40Z</time>
      </trkpt>
      <trkpt lat="45.85323" lon="3.54334">
        <ele>321.9</ele>
        <time>2013-03-10T10:33:42Z</time>
      </trkpt>
      <trkpt lat="45.85319" lon="3.54328">
        <ele>321.3</ele>
        <time>2013-03-10T10:33:44Z</time>
      </trkpt>
      <trkpt lat="45.85316" lon="3.54322">
        <ele>320.6</ele>
        <time>2013-03-10T10:33:46Z</time>
      </trkpt>
      <trkpt lat="45.85314" lon="3.54315">
        <ele>319.9</ele>
        <time>2013-03-10T10:33:48Z</time>
      </trkpt>
      <trkpt lat="45.85312" lon="3.54312">
        <ele>319.5</ele>
        <time>2013-03-10T10:33:50Z</time>
      </trkpt>
      <trkpt lat="45.8531" lon="3.54305">
        <ele>318.8</ele>
        <time>2013-03-10T10:33:52Z</time>
      </trkpt>
      <trkpt lat="45.85307" lon="3.54299">
        <ele>317.9</ele>
        <time>2013-03-10T10:33:54Z</time>
      </trkpt>
      <trkpt lat="45.85304" lon="3.54293">
        <ele>317</ele>
        <time>2013-03-10T10:33:56Z</time>
      </trkpt>
      <trkpt lat="45.85301" lon="3.54286">
        <ele>316.5</ele>
        <time>2013-03-10T10:33:58Z</time>
      </trkpt>
      <trkpt lat="45.85299" lon="3.5428">
        <ele>315.9</ele>
        <time>2013-03-10T10:34:00Z</time>
      </trkpt>
      <trkpt lat="45.85296" lon="3.54272">
        <ele>315.7</ele>
        <time>2013-03-10T10:34:02Z</time>
      </trkpt>
      <trkpt lat="45.85293" lon="3.54266">
        <ele>315.6</ele>
        <time>2013-03-10T10:34:04Z</time>
      </trkpt>
      <trkpt lat="45.85288" lon="3.54261">
        <ele>315.2</ele>
        <time>2013-03-10T10:34:06Z</time>
      </trkpt>
      <trkpt lat="45.85284" lon="3.54256">
        <ele>314.8</ele>
        <time>2013-03-10T10:34:08Z</time>
      </trkpt>
      <trkpt lat="45.8528" lon="3.54253">
        <ele>314.3</ele>
        <time>2013-03-10T10:34:10Z</time>
      </trkpt>
      <trkpt lat="45.85275" lon="3.54249">
        <ele>313.9</ele>
        <time>2013-03-10T10:34:12Z</time>
      </trkpt>
      <trkpt lat="45.85271" lon="3.54245">
        <ele>313.9</ele>
        <time>2013-03-10T10:34:14Z</time>
      </trkpt>
      <trkpt lat="45.85267" lon="3.54238">
        <ele>314</ele>
        <time>2013-03-10T10:34:16Z</time>
      </trkpt>
      <trkpt lat="45.85263" lon="3.54233">
        <ele>313.8</ele>
        <time>2013-03-10T10:34:18Z</time>
      </trkpt>
      <trkpt lat="45.85258" lon="3.5423">
        <ele>313.2</ele>
        <time>2013-03-10T10:34:20Z</time>
      </trkpt>
      <trkpt lat="45.85254" lon="3.54226">
        <ele>312.6</ele>
        <time>2013-03-10T10:34:22Z</time>
      </trkpt>
      <trkpt lat="45.85249" lon="3.54221">
        <ele>312</ele>
        <time>2013-03-10T10:34:24Z</time>
      </trkpt>
      <trkpt lat="45.85245" lon="3.54218">
        <ele>311.8</ele>
        <time>2013-03-10T10:34:26Z</time>
      </trkpt>
      <trkpt lat="45.85242" lon="3.54214">
        <ele>311.6</ele>
        <time>2013-03-10T10:34:28Z</time>
      </trkpt>
      <trkpt lat="45.85237" lon="3.54211">
        <ele>311.3</ele>
        <time>2013-03-10T10:34:30Z</time>
      </trkpt>
      <trkpt lat="45.85231" lon="3.54208">
        <ele>310.8</ele>
        <time>2013-03-10T10:34:32Z</time>
      </trkpt>
      <trkpt lat="45.85226" lon="3.54202">
        <ele>310.3</ele>
        <time>2013-03-10T10:34:34Z</time>
      </trkpt>
      <trkpt lat="45.85222" lon="3.54196">
        <ele>310</ele>
        <time>2013-03-10T10:34:36Z</time>
      </trkpt>
      <trkpt lat="45.85218" lon="3.54189">
        <ele>310.1</ele>
        <time>2013-03-10T10:34:38Z</time>
      </trkpt>
      <trkpt lat="45.85216" lon="3.54181">
        <ele>310.2</ele>
        <time>2013-03-10T10:34:40Z</time>
      </trkpt>
      <trkpt lat="45.85214" lon="3.54172">
        <ele>310.5</ele>
        <time>2013-03-10T10:34:42Z</time>
      </trkpt>
      <trkpt lat="45.85211" lon="3.54166">
        <ele>310.6</ele>
        <time>2013-03-10T10:34:44Z</time>
      </trkpt>
      <trkpt lat="45.85202" lon="3.54164">
        <ele>310.2</ele>
        <time>2013-03-10T10:34:46Z</time>
      </trkpt>
      <trkpt lat="45.85196" lon="3.54164">
        <ele>310.1</ele>
        <time>2013-03-10T10:34:48Z</time>
      </trkpt>
      <trkpt lat="45.8519" lon="3.54165">
        <ele>309.5</ele>
        <time>2013-03-10T10:34:50Z</time>
      </trkpt>
      <trkpt lat="45.85184" lon="3.54165">
        <ele>308.9</ele>
        <time>2013-03-10T10:34:52Z</time>
      </trkpt>
      <trkpt lat="45.85179" lon="3.54165">
        <ele>308.4</ele>
        <time>2013-03-10T10:34:54Z</time>
      </trkpt>
      <trkpt lat="45.85174" lon="3.54165">
        <ele>307.8</ele>
        <time>2013-03-10T10:34:56Z</time>
      </trkpt>
      <trkpt lat="45.85169" lon="3.54166">
        <ele>307.3</ele>
        <time>2013-03-10T10:34:58Z</time>
      </trkpt>
      <trkpt lat="45.85164" lon="3.54167">
        <ele>307.2</ele>
        <time>2013-03-10T10:35:00Z</time>
      </trkpt>
      <trkpt lat="45.85159" lon="3.54168">
        <ele>307.6</ele>
        <time>2013-03-10T10:35:02Z</time>
      </trkpt>
      <trkpt lat="45.85153" lon="3.5417">
        <ele>308</ele>
        <time>2013-03-10T10:35:04Z</time>
      </trkpt>
      <trkpt lat="45.85151" lon="3.54172">
        <ele>308.2</ele>
        <time>2013-03-10T10:35:06Z</time>
      </trkpt>
      <trkpt lat="45.85146" lon="3.54174">
        <ele>308.5</ele>
        <time>2013-03-10T10:35:08Z</time>
      </trkpt>
      <trkpt lat="45.85142" lon="3.54177">
        <ele>308.8</ele>
        <time>2013-03-10T10:35:10Z</time>
      </trkpt>
      <trkpt lat="45.85139" lon="3.54182">
        <ele>309</ele>
        <time>2013-03-10T10:35:12Z</time>
      </trkpt>
      <trkpt lat="45.85136" lon="3.5419">
        <ele>309</ele>
        <time>2013-03-10T10:35:14Z</time>
      </trkpt>
      <trkpt lat="45.85135" lon="3.54197">
        <ele>309</ele>
        <time>2013-03-10T10:35:16Z</time>
      </trkpt>
      <trkpt lat="45.85133" lon="3.54206">
        <ele>309.1</ele>
        <time>2013-03-10T10:35:18Z</time>
      </trkpt>
      <trkpt lat="45.85133" lon="3.54214">
        <ele>309.2</ele>
        <time>2013-03-10T10:35:20Z</time>
      </trkpt>
      <trkpt lat="45.85134" lon="3.54222">
        <ele>309.2</ele>
        <time>2013-03-10T10:35:22Z</time>
      </trkpt>
      <trkpt lat="45.85134" lon="3.54231">
        <ele>309.2</ele>
        <time>2013-03-10T10:35:24Z</time>
      </trkpt>
      <trkpt lat="45.85133" lon="3.54239">
        <ele>309.2</ele>
        <time>2013-03-10T10:35:26Z</time>
      </trkpt>
      <trkpt lat="45.85133" lon="3.54247">
        <ele>309.2</ele>
        <time>2013-03-10T10:35:28Z</time>
      </trkpt>
      <trkpt lat="45.85135" lon="3.54255">
        <ele>309.2</ele>
        <time>2013-03-10T10:35:30Z</time>
      </trkpt>
      <trkpt lat="45.85134" lon="3.54263">
        <ele>309.2</ele>
        <time>2013-03-10T10:35:32Z</time>
      </trkpt>
      <trkpt lat="45.85133" lon="3.54269">
        <ele>309.2</ele>
        <time>2013-03-10T10:35:34Z</time>
      </trkpt>
      <trkpt lat="45.85128" lon="3.54272">
        <ele>309.4</ele>
        <time>2013-03-10T10:35:36Z</time>
      </trkpt>
      <trkpt lat="45.85124" lon="3.54271">
        <ele>309.5</ele>
        <time>2013-03-10T10:35:38Z</time>
      </trkpt>
      <trkpt lat="45.8512" lon="3.54272">
        <ele>309.7</ele>
        <time>2013-03-10T10:35:40Z</time>
      </trkpt>
      <trkpt lat="45.85114" lon="3.54274">
        <ele>309.9</ele>
        <time>2013-03-10T10:35:42Z</time>
      </trkpt>
      <trkpt lat="45.85109" lon="3.54277">
        <ele>310</ele>
        <time>2013-03-10T10:35:44Z</time>
      </trkpt>
      <trkpt lat="45.85104" lon="3.5428">
        <ele>310</ele>
        <time>2013-03-10T10:35:46Z</time>
      </trkpt>
      <trkpt lat="45.85099" lon="3.54282">
        <ele>310.1</ele>
        <time>2013-03-10T10:35:48Z</time>
      </trkpt>
      <trkpt lat="45.85094" lon="3.54285">
        <ele>310.1</ele>
        <time>2013-03-10T10:35:50Z</time>
      </trkpt>
      <trkpt lat="45.85088" lon="3.54286">
        <ele>310.1</ele>
        <time>2013-03-10T10:35:52Z</time>
      </trkpt>
      <trkpt lat="45.85083" lon="3.54286">
        <ele>310</ele>
        <time>2013-03-10T10:35:54Z</time>
      </trkpt>
      <trkpt lat="45.85078" lon="3.54287">
        <ele>310</ele>
        <time>2013-03-10T10:35:56Z</time>
      </trkpt>
      <trkpt lat="45.85073" lon="3.54288">
        <ele>310</ele>
        <time>2013-03-10T10:35:58Z</time>
      </trkpt>
      <trkpt lat="45.85068" lon="3.5429">
        <ele>310</ele>
        <time>2013-03-10T10:36:00Z</time>
      </trkpt>
      <trkpt lat="45.85063" lon="3.54293">
        <ele>310</ele>
        <time>2013-03-10T10:36:02Z</time>
      </trkpt>
      <trkpt lat="45.85057" lon="3.54302">
        <ele>310</ele>
        <time>2013-03-10T10:36:04Z</time>
      </trkpt>
      <trkpt lat="45.85054" lon="3.54308">
        <ele>310.2</ele>
        <time>2013-03-10T10:36:06Z</time>
      </trkpt>
      <trkpt lat="45.85051" lon="3.54314">
        <ele>310.5</ele>
        <time>2013-03-10T10:36:08Z</time>
      </trkpt>
      <trkpt lat="45.85048" lon="3.5432">
        <ele>310.8</ele>
        <time>2013-03-10T10:36:10Z</time>
      </trkpt>
      <trkpt lat="45.85046" lon="3.54326">
        <ele>311.1</ele>
        <time>2013-03-10T10:36:12Z</time>
      </trkpt>
      <trkpt lat="45.85046" lon="3.5433">
        <ele>311.2</ele>
        <time>2013-03-10T10:36:14Z</time>
      </trkpt>
      <trkpt lat="45.85044" lon="3.5434">
        <ele>311.5</ele>
        <time>2013-03-10T10:36:16Z</time>
      </trkpt>
      <trkpt lat="45.85044" lon="3.54346">
        <ele>311.7</ele>
        <time>2013-03-10T10:36:18Z</time>
      </trkpt>
      <trkpt lat="45.85045" lon="3.54352">
        <ele>311.8</ele>
        <time>2013-03-10T10:36:20Z</time>
      </trkpt>
      <trkpt lat="45.85046" lon="3.5436">
        <ele>312</ele>
        <time>2013-03-10T10:36:22Z</time>
      </trkpt>
      <trkpt lat="45.85047" lon="3.54363">
        <ele>312</ele>
        <time>2013-03-10T10:36:24Z</time>
      </trkpt>
      <trkpt lat="45.85048" lon="3.54371">
        <ele>312.1</ele>
        <time>2013-03-10T10:36:26Z</time>
      </trkpt>
      <trkpt lat="45.85049" lon="3.54378">
        <ele>312.1</ele>
        <time>2013-03-10T10:36:28Z</time>
      </trkpt>
      <trkpt lat="45.8505" lon="3.54385">
        <ele>312.2</ele>
        <time>2013-03-10T10:36:30Z</time>
      </trkpt>
      <trkpt lat="45.8505" lon="3.54392">
        <ele>312.2</ele>
        <time>2013-03-10T10:36:32Z</time>
      </trkpt>
      <trkpt lat="45.85051" lon="3.54399">
        <ele>312.2</ele>
        <time>2013-03-10T10:36:34Z</time>
      </trkpt>
      <trkpt lat="45.85052" lon="3.54405">
        <ele>312.1</ele>
        <time>2013-03-10T10:36:36Z</time>
      </trkpt>
      <trkpt lat="45.85054" lon="3.5441">
        <ele>312</ele>
        <time>2013-03-10T10:36:38Z</time>
      </trkpt>
      <trkpt lat="45.85058" lon="3.54413">
        <ele>312</ele>
        <time>2013-03-10T10:36:40Z</time>
      </trkpt>
      <trkpt lat="45.85061" lon="3.54414">
        <ele>312</ele>
        <time>2013-03-10T10:36:42Z</time>
      </trkpt>
      <trkpt lat="45.85064" lon="3.54413">
        <ele>312</ele>
        <time>2013-03-10T10:36:44Z</time>
      </trkpt>
      <trkpt lat="45.85066" lon="3.54413">
        <ele>312</ele>
        <time>2013-03-10T10:36:46Z</time>
      </trkpt>
      <trkpt lat="45.85067" lon="3.54413">
        <ele>312</ele>
        <time>2013-03-10T10:36:48Z</time>
      </trkpt>
      <trkpt lat="45.85068" lon="3.54413">
        <ele>312</ele>
        <time>2013-03-10T10:36:50Z</time>
      </trkpt>
      <trkpt lat="45.8507" lon="3.54413">
        <ele>312</ele>
        <time>2013-03-10T10:36:52Z</time>
      </trkpt>
      <trkpt lat="45.85071" lon="3.54413">
        <ele>312</ele>
        <time>2013-03-10T10:36:54Z</time>
      </trkpt>
      <trkpt lat="45.85072" lon="3.54411">
        <ele>312</ele>
        <time>2013-03-10T10:36:56Z</time>
      </trkpt>
      <trkpt lat="45.85073" lon="3.54409">
        <ele>312</ele>
        <time>2013-03-10T10:36:58Z</time>
      </trkpt>
      <trkpt lat="45.85075" lon="3.54408">
        <ele>312</ele>
        <time>2013-03-10T10:37:00Z</time>
      </trkpt>
    </trkseg>
  </trk>
</gpx>